Provisional Data: West Creek near Weber City, PA


Please select a monitoring station.
Please select start date.
Please select start date.

Toggle Unit: C/F Toggle Unit: C/F
Sample Time Temperature (C) Temperature (F) Specific Conductivity (mS/cm) pH   Turbidity (NTU+) DO (mg/L)
3/23/2021 12:00:00 AM 6.28 43.304 0.058 6.56 3.25 11.82
3/23/2021 12:15:00 AM 6.21 43.178 0.058 6.56 3.23 11.82
3/23/2021 12:30:00 AM 6.15 43.07 0.058 6.56 3.24 11.84
3/23/2021 12:45:00 AM 6.09 42.962 0.058 6.56 3.22 11.87
3/23/2021 1:00:00 AM 6.03 42.854 0.058 6.56 3.25 11.89
3/23/2021 1:15:00 AM 5.97 42.746 0.058 6.57 3.25 11.91
3/23/2021 1:30:00 AM 5.91 42.638 0.058 6.56 3.27 11.92
3/23/2021 1:45:00 AM 5.85 42.53 0.058 6.57 3.18 11.95
3/23/2021 2:00:00 AM 5.78 42.404 0.058 6.57 3.18 11.97
3/23/2021 2:15:00 AM 5.71 42.278 0.058 6.57 3.19 11.98
3/23/2021 2:30:00 AM 5.64 42.152 0.058 6.56 3.26 12.01
3/23/2021 2:45:00 AM 5.56 42.008 0.059 6.56 3.15 12.03
3/23/2021 3:00:00 AM 5.49 41.882 0.059 6.56 3.16 12.05
3/23/2021 3:15:00 AM 5.42 41.756 0.059 6.57 3.31 12.08
3/23/2021 3:30:00 AM 5.34 41.612 0.059 6.56 3.14 12.1
3/23/2021 3:45:00 AM 5.26 41.468 0.059 6.56 3.16 12.13
3/23/2021 4:00:00 AM 5.19 41.342 0.059 6.56 3.2 12.15
3/23/2021 4:15:00 AM 5.11 41.198 0.059 6.56 3.08 12.18
3/23/2021 4:30:00 AM 5.04 41.072 0.059 6.56 3.17 12.21
3/23/2021 4:45:00 AM 4.96 40.928 0.059 6.56 3.11 12.22
3/23/2021 5:00:00 AM 4.89 40.802 0.059 6.57 3.11 12.26
3/23/2021 5:15:00 AM 4.81 40.658 0.059 6.56 3.13 12.27
3/23/2021 5:30:00 AM 4.74 40.532 0.059 6.56 3.1 12.31
3/23/2021 5:45:00 AM 4.67 40.406 0.059 6.56 3.17 12.33
3/23/2021 6:00:00 AM 4.6 40.28 0.059 6.57 3.13 12.35
3/23/2021 6:15:00 AM 4.53 40.154 0.059 6.57 3.14 12.38
3/23/2021 6:30:00 AM 4.46 40.028 0.059 6.57 3.21 12.4
3/23/2021 6:45:00 AM 4.39 39.902 0.059 6.57 3.12 12.43
3/23/2021 7:00:00 AM 4.32 39.776 0.059 6.57 3.17 12.45
3/23/2021 7:15:00 AM 4.26 39.668 0.059 6.57 3.16 12.47
3/23/2021 7:30:00 AM 4.2 39.56 0.059 6.58 3.16 12.51
3/23/2021 7:45:00 AM 4.14 39.452 0.059 6.58 3.11 12.55
3/23/2021 8:00:00 AM 4.1 39.38 0.059 6.59 3.03 12.59
3/23/2021 8:15:00 AM 4.06 39.308 0.059 6.6 3.25 12.63
3/23/2021 8:30:00 AM 4.03 39.254 0.059 6.61 3.15 12.68
3/23/2021 8:45:00 AM 4.02 39.236 0.059 6.62 3.16 12.71
3/23/2021 9:00:00 AM 4.01 39.218 0.059 6.63 3.11 12.75
3/23/2021 9:15:00 AM 4 39.2 0.059 6.64 2.99 12.78
3/23/2021 9:30:00 AM 4.01 39.218 0.059 6.65 3.02 12.81
3/23/2021 9:45:00 AM 4.03 39.254 0.059 6.67 2.98 12.83
3/23/2021 10:00:00 AM 4.07 39.326 0.059 6.68 2.9 12.85
3/23/2021 10:15:00 AM 4.12 39.416 0.059 6.69 3.03 12.86
3/23/2021 10:30:00 AM 4.19 39.542 0.059 6.7 2.93 12.86
3/23/2021 10:45:00 AM 4.26 39.668 0.06 6.71 2.9 12.86
3/23/2021 11:00:00 AM 4.36 39.848 0.06 6.72 2.88 12.86
3/23/2021 11:15:00 AM 4.49 40.082 0.059 6.73 2.94 12.85
3/23/2021 11:30:00 AM 4.62 40.316 0.059 6.74 2.95 12.84
3/23/2021 11:45:00 AM 4.76 40.568 0.059 6.74 2.87 12.82
3/23/2021 12:00:00 PM 4.94 40.892 0.059 6.75 2.9 12.79
3/23/2021 12:15:00 PM 5.12 41.216 0.059 6.77 2.9 12.75
3/23/2021 12:30:00 PM 5.31 41.558 0.06 6.78 2.87 12.71
3/23/2021 12:45:00 PM 5.5 41.9 0.059 6.78 2.86 12.66
3/23/2021 1:00:00 PM 5.64 42.152 0.059 6.78 2.8 12.62
3/23/2021 1:15:00 PM 5.86 42.548 0.059 6.8 2.86 12.58
3/23/2021 1:30:00 PM 6 42.8 0.059 6.8 2.86 12.53
3/23/2021 1:45:00 PM 6.16 43.088 0.059 6.79 2.9 12.48
3/23/2021 2:00:00 PM 6.3 43.34 0.059 6.79 2.84 12.43
3/23/2021 2:15:00 PM 6.45 43.61 0.059 6.79 2.81 12.38
3/23/2021 2:30:00 PM 6.63 43.934 0.059 6.8 2.97 12.33
3/23/2021 2:45:00 PM 6.74 44.132 0.059 6.8 2.84 12.28
3/23/2021 3:00:00 PM 6.85 44.33 0.059 6.8 2.85 12.24
3/23/2021 3:15:00 PM 7 44.6 0.059 6.8 2.9 12.2
3/23/2021 3:30:00 PM 7.06 44.708 0.059 6.8 2.88 12.16
3/23/2021 3:45:00 PM 7.19 44.942 0.059 6.8 2.87 12.11
3/23/2021 4:00:00 PM 7.29 45.122 0.059 6.8 2.82 12.08
3/23/2021 4:15:00 PM 7.34 45.212 0.059 6.8 2.84 12.05
3/23/2021 4:30:00 PM 7.45 45.41 0.059 6.8 2.89 12.02
3/23/2021 4:45:00 PM 7.47 45.446 0.059 6.81 2.91 11.98
3/23/2021 5:00:00 PM 7.51 45.518 0.059 6.79 2.87 11.96
3/23/2021 5:15:00 PM 7.59 45.662 0.059 6.79 2.88 11.93
3/23/2021 5:30:00 PM 7.63 45.734 0.059 6.79 2.9 11.91
3/23/2021 5:45:00 PM 7.65 45.77 0.059 6.79 2.9 11.87
3/23/2021 6:00:00 PM 7.65 45.77 0.059 6.78 2.88 11.85
3/23/2021 6:15:00 PM 7.67 45.806 0.059 6.78 2.82 11.83
3/23/2021 6:30:00 PM 7.68 45.824 0.059 6.77 2.91 11.81
3/23/2021 6:45:00 PM 7.65 45.77 0.059 6.76 2.87 11.78
3/23/2021 7:00:00 PM 7.63 45.734 0.059 6.75 2.96 11.74
3/23/2021 7:15:00 PM 7.61 45.698 0.059 6.73 2.92 11.69
3/23/2021 7:30:00 PM 7.59 45.662 0.06 6.71 2.84 11.66
3/23/2021 7:45:00 PM 7.57 45.626 0.06 6.7 2.97 11.62
3/23/2021 8:00:00 PM 7.55 45.59 0.06 6.69 2.98 11.6
3/23/2021 8:15:00 PM 7.54 45.572 0.06 6.68 2.91 11.57
3/23/2021 8:30:00 PM 7.53 45.554 0.06 6.67 3.03 11.56
3/23/2021 8:45:00 PM 7.51 45.518 0.06 6.66 3.06 11.54
3/23/2021 9:00:00 PM 7.49 45.482 0.06 6.65 3.01 11.52
3/23/2021 9:15:00 PM 7.45 45.41 0.06 6.65 2.99 11.52
3/23/2021 9:30:00 PM 7.41 45.338 0.06 6.64 2.99 11.52
3/23/2021 9:45:00 PM 7.37 45.266 0.06 6.64 2.98 11.53
3/23/2021 10:00:00 PM 7.33 45.194 0.06 6.64 3.07 11.52
3/23/2021 10:15:00 PM 7.29 45.122 0.06 6.63 3.13 11.53
3/23/2021 10:30:00 PM 7.24 45.032 0.06 6.62 3.01 11.54
3/23/2021 10:45:00 PM 7.2 44.96 0.06 6.62 3.02 11.53
3/23/2021 11:00:00 PM 7.15 44.87 0.06 6.62 3.04 11.55
3/23/2021 11:15:00 PM 7.11 44.798 0.06 6.61 3.03 11.55
3/23/2021 11:30:00 PM 7.07 44.726 0.06 6.61 3.02 11.56
3/23/2021 11:45:00 PM 7.03 44.654 0.06 6.61 2.95 11.57
3/24/2021 12:00:00 AM 6.99 44.582 0.06 6.61 3.11 11.58
3/24/2021 12:15:00 AM 6.97 44.546 0.06 6.62 3.22 11.59
3/24/2021 12:30:00 AM 6.96 44.528 0.06 6.61 3 11.59
3/24/2021 12:45:00 AM 6.93 44.474 0.06 6.62 3.21 11.6
3/24/2021 1:00:00 AM 6.91 44.438 0.06 6.62 3.03 11.61
3/24/2021 1:15:00 AM 6.88 44.384 0.06 6.62 3.04 11.61
3/24/2021 1:30:00 AM 6.86 44.348 0.06 6.62 3.11 11.62
3/24/2021 1:45:00 AM 6.84 44.312 0.06 6.62 3.06 11.62
3/24/2021 2:00:00 AM 6.81 44.258 0.06 6.62 3.14 11.63
3/24/2021 2:15:00 AM 6.79 44.222 0.06 6.62 3.14 11.64
3/24/2021 2:30:00 AM 6.77 44.186 0.06 6.62 3.05 11.64
3/24/2021 2:45:00 AM 6.76 44.168 0.06 6.62 3.12 11.65
3/24/2021 3:00:00 AM 6.75 44.15 0.06 6.62 3 11.66
3/24/2021 3:15:00 AM 6.74 44.132 0.06 6.62 3.1 11.66
3/24/2021 3:30:00 AM 6.73 44.114 0.06 6.63 3.02 11.66
3/24/2021 3:45:00 AM 6.73 44.114 0.06 6.63 3.02 11.67
3/24/2021 4:00:00 AM 6.72 44.096 0.06 6.63 3.09 11.67
3/24/2021 4:15:00 AM 6.71 44.078 0.06 6.62 3.03 11.67
3/24/2021 4:30:00 AM 6.7 44.06 0.06 6.63 3.05 11.67
3/24/2021 4:45:00 AM 6.7 44.06 0.06 6.63 3.06 11.68
3/24/2021 5:00:00 AM 6.69 44.042 0.06 6.63 3.05 11.68
3/24/2021 5:15:00 AM 6.69 44.042 0.06 6.63 3.13 11.68
3/24/2021 5:30:00 AM 6.68 44.024 0.06 6.63 3.18 11.68
3/24/2021 5:45:00 AM 6.67 44.006 0.06 6.63 3.23 11.68
3/24/2021 6:00:00 AM 6.67 44.006 0.06 6.63 3.29 11.69
3/24/2021 6:15:00 AM 6.67 44.006 0.06 6.63 3.34 11.69
3/24/2021 6:30:00 AM 6.66 43.988 0.06 6.63 3.33 11.69
3/24/2021 6:45:00 AM 6.66 43.988 0.06 6.63 3.39 11.69
3/24/2021 7:00:00 AM 6.66 43.988 0.06 6.62 3.53 11.69
3/24/2021 7:15:00 AM 6.65 43.97 0.06 6.63 3.9 11.69
3/24/2021 7:30:00 AM 6.65 43.97 0.06 6.63 3.8 11.7
3/24/2021 7:45:00 AM 6.65 43.97 0.06 6.63 3.6 11.7
3/24/2021 8:00:00 AM 6.66 43.988 0.06 6.63 3.64 11.71
3/24/2021 8:15:00 AM 6.66 43.988 0.06 6.64 3.89 11.72
3/24/2021 8:30:00 AM 6.66 43.988 0.06 6.65 3.99 11.74
3/24/2021 8:45:00 AM 6.66 43.988 0.06 6.64 3.76 11.75
3/24/2021 9:00:00 AM 6.67 44.006 0.06 6.65 3.78 11.77
3/24/2021 9:15:00 AM 6.68 44.024 0.06 6.65 3.79 11.79
3/24/2021 9:30:00 AM 6.69 44.042 0.06 6.66 3.79 11.81
3/24/2021 9:45:00 AM 6.71 44.078 0.06 6.68 3.7 11.83
3/24/2021 10:00:00 AM 6.74 44.132 0.06 6.68 3.71 11.85
3/24/2021 10:15:00 AM 6.78 44.204 0.06 6.7 3.76 11.88
3/24/2021 10:30:00 AM 6.8 44.24 0.06 6.7 3.72 11.89
3/24/2021 10:45:00 AM 6.82 44.276 0.06 6.71 3.71 11.9
3/24/2021 11:00:00 AM 6.86 44.348 0.06 6.72 3.68 11.91
3/24/2021 11:15:00 AM 6.92 44.456 0.06 6.72 3.63 11.91
3/24/2021 11:30:00 AM 6.98 44.564 0.06 6.74 3.56 11.92
3/24/2021 11:45:00 AM 7.05 44.69 0.061 6.75 3.49 11.92
3/24/2021 12:00:00 PM 7.12 44.816 0.061 6.76 3.59 11.93
3/24/2021 12:15:00 PM 7.2 44.96 0.06 6.76 3.41 11.92
3/24/2021 12:30:00 PM 7.29 45.122 0.06 6.77 3.54 11.91
3/24/2021 12:45:00 PM 7.37 45.266 0.06 6.78 3.42 11.91
3/24/2021 1:00:00 PM 7.46 45.428 0.06 6.78 3.49 11.88
3/24/2021 1:15:00 PM 7.53 45.554 0.06 6.79 3.5 11.88
3/24/2021 1:30:00 PM 7.62 45.716 0.06 6.79 3.53 11.86
3/24/2021 1:45:00 PM 7.72 45.896 0.06 6.8 3.49 11.83
3/24/2021 2:00:00 PM 7.81 46.058 0.06 6.8 3.4 11.81
3/24/2021 2:15:00 PM 7.88 46.184 0.06 6.81 3.52 11.78
3/24/2021 2:30:00 PM 7.97 46.346 0.06 6.81 3.48 11.76
3/24/2021 2:45:00 PM 8.06 46.508 0.06 6.81 3.51 11.74
3/24/2021 3:00:00 PM 8.14 46.652 0.06 6.81 3.63 11.72
3/24/2021 3:15:00 PM 8.24 46.832 0.06 6.81 3.91 11.7
3/24/2021 3:30:00 PM 8.34 47.012 0.06 6.82 3.72 11.68
3/24/2021 3:45:00 PM 8.44 47.192 0.06 6.81 3.94 11.65
3/24/2021 4:00:00 PM 8.54 47.372 0.06 6.81 3.85 11.62
3/24/2021 4:15:00 PM 8.69 47.642 0.06 6.82 3.8 11.59
3/24/2021 4:30:00 PM 8.96 48.128 0.06 6.83 3.98 11.55
3/24/2021 4:45:00 PM 9.11 48.398 0.06 6.84 3.86 11.51
3/24/2021 5:00:00 PM 9.02 48.236 0.06 6.83 3.96 11.49
3/24/2021 5:15:00 PM 8.96 48.128 0.06 6.81 4.06 11.47
3/24/2021 5:30:00 PM 9.04 48.272 0.06 6.8 4.03 11.44
3/24/2021 5:45:00 PM 9.18 48.524 0.06 6.81 4 11.4
3/24/2021 6:00:00 PM 9.19 48.542 0.06 6.8 4.08 11.36
3/24/2021 6:15:00 PM 9.16 48.488 0.06 6.79 4.02 11.34
3/24/2021 6:30:00 PM 9.16 48.488 0.06 6.78 4 11.31
3/24/2021 6:45:00 PM 9.15 48.47 0.06 6.77 3.94 11.27
3/24/2021 7:00:00 PM 9.13 48.434 0.06 6.76 4.02 11.24
3/24/2021 7:15:00 PM 9.11 48.398 0.061 6.74 4.09 11.21
3/24/2021 7:30:00 PM 9.07 48.326 0.061 6.73 3.96 11.17
3/24/2021 7:45:00 PM 9.04 48.272 0.061 6.72 4.17 11.14
3/24/2021 8:00:00 PM 9.02 48.236 0.061 6.7 4.27 11.12
3/24/2021 8:15:00 PM 9.02 48.236 0.061 6.69 4.17 11.09
3/24/2021 8:30:00 PM 9.02 48.236 0.061 6.69 4.18 11.07
3/24/2021 8:45:00 PM 9.03 48.254 0.061 6.69 4.17 11.04
3/24/2021 9:00:00 PM 9.03 48.254 0.061 6.68 4.22 11.03
3/24/2021 9:15:00 PM 9.03 48.254 0.062 6.67 4.36 11.01
3/24/2021 9:30:00 PM 9.02 48.236 0.062 6.67 4.32 11
3/24/2021 9:45:00 PM 9.01 48.218 0.062 6.67 4.25 11
3/24/2021 10:00:00 PM 9 48.2 0.062 6.66 4.37 11
3/24/2021 10:15:00 PM 8.98 48.164 0.063 6.66 4.39 11
3/24/2021 10:30:00 PM 8.96 48.128 0.063 6.65 4.38 11
3/24/2021 10:45:00 PM 8.95 48.11 0.063 6.65 4.51 11.01
3/24/2021 11:00:00 PM 8.93 48.074 0.063 6.65 4.7 11
3/24/2021 11:15:00 PM 8.92 48.056 0.063 6.65 4.65 11
3/24/2021 11:30:00 PM 8.92 48.056 0.064 6.64 4.57 11
3/24/2021 11:45:00 PM 8.91 48.038 0.064 6.64 4.58 11
3/25/2021 12:00:00 AM 8.91 48.038 0.064 6.64 4.49 11
3/25/2021 12:15:00 AM 8.91 48.038 0.064 6.64 4.7 11
3/25/2021 12:30:00 AM 8.89 48.002 0.065 6.64 4.68 11
3/25/2021 12:45:00 AM 8.87 47.966 0.065 6.64 4.63 11.01
3/25/2021 1:00:00 AM 8.86 47.948 0.065 6.64 4.56 11.01
3/25/2021 1:15:00 AM 8.84 47.912 0.065 6.64 4.45 11.01
3/25/2021 1:30:00 AM 8.83 47.894 0.066 6.64 4.39 11.02
3/25/2021 1:45:00 AM 8.82 47.876 0.066 6.64 4.45 11.02
3/25/2021 2:00:00 AM 8.81 47.858 0.066 6.64 4.43 11.02
3/25/2021 2:15:00 AM 8.79 47.822 0.066 6.64 4.36 11.02
3/25/2021 2:30:00 AM 8.78 47.804 0.067 6.64 4.35 11.03
3/25/2021 2:45:00 AM 8.76 47.768 0.067 6.64 4.41 11.04
3/25/2021 3:00:00 AM 8.73 47.714 0.067 6.63 4.42 11.05
3/25/2021 3:15:00 AM 8.7 47.66 0.067 6.63 4.43 11.05
3/25/2021 3:30:00 AM 8.67 47.606 0.067 6.63 4.25 11.06
3/25/2021 3:45:00 AM 8.64 47.552 0.068 6.63 4.23 11.07
3/25/2021 4:00:00 AM 8.61 47.498 0.068 6.63 4.33 11.07
3/25/2021 4:15:00 AM 8.59 47.462 0.068 6.63 4.2 11.08
3/25/2021 4:30:00 AM 8.55 47.39 0.068 6.62 4.25 11.09
3/25/2021 4:45:00 AM 8.52 47.336 0.068 6.62 4.23 11.09
3/25/2021 5:00:00 AM 8.5 47.3 0.068 6.62 4.12 11.11
3/25/2021 5:15:00 AM 8.47 47.246 0.068 6.62 3.96 11.11
3/25/2021 5:30:00 AM 8.44 47.192 0.068 6.62 3.94 11.12
3/25/2021 5:45:00 AM 8.41 47.138 0.068 6.62 3.87 11.13
3/25/2021 6:00:00 AM 8.37 47.066 0.068 6.62 3.87 11.14
3/25/2021 6:15:00 AM 8.33 46.994 0.068 6.62 3.82 11.16
3/25/2021 6:30:00 AM 8.29 46.922 0.068 6.62 3.86 11.17
3/25/2021 6:45:00 AM 8.26 46.868 0.068 6.61 3.79 11.18
3/25/2021 7:00:00 AM 8.22 46.796 0.068 6.62 3.8 11.19
3/25/2021 7:15:00 AM 8.17 46.706 0.067 6.62 3.88 11.21
3/25/2021 7:30:00 AM 8.14 46.652 0.067 6.62 3.66 11.24
3/25/2021 7:45:00 AM 8.11 46.598 0.067 6.63 3.65 11.27
3/25/2021 8:00:00 AM 8.08 46.544 0.067 6.64 3.73 11.3
3/25/2021 8:15:00 AM 8.07 46.526 0.067 6.64 3.66 11.34
3/25/2021 8:30:00 AM 8.07 46.526 0.067 6.66 3.62 11.39
3/25/2021 8:45:00 AM 8.07 46.526 0.067 6.68 3.74 11.43
3/25/2021 9:00:00 AM 8.09 46.562 0.067 6.7 3.58 11.47
3/25/2021 9:15:00 AM 8.1 46.58 0.067 6.71 3.64 11.51
3/25/2021 9:30:00 AM 8.13 46.634 0.067 6.72 3.56 11.54
3/25/2021 9:45:00 AM 8.17 46.706 0.067 6.73 3.63 11.56
3/25/2021 10:00:00 AM 8.23 46.814 0.067 6.75 3.48 11.59
3/25/2021 10:15:00 AM 8.29 46.922 0.067 6.77 3.36 11.6
3/25/2021 10:30:00 AM 8.37 47.066 0.067 6.78 3.4 11.61
3/25/2021 10:45:00 AM 8.45 47.21 0.066 6.79 3.38 11.62
3/25/2021 11:00:00 AM 8.56 47.408 0.066 6.8 3.36 11.61
3/25/2021 11:15:00 AM 8.67 47.606 0.066 6.81 3.38 11.6
3/25/2021 11:30:00 AM 8.78 47.804 0.066 6.81 3.34 11.58
3/25/2021 11:45:00 AM 8.94 48.092 0.066 6.83 3.33 11.57
3/25/2021 12:00:00 PM 9.1 48.38 0.066 6.83 3.36 11.54
3/25/2021 12:15:00 PM 9.26 48.668 0.066 6.85 3.37 11.52
3/25/2021 12:30:00 PM 9.42 48.956 0.066 6.86 3.28 11.49
3/25/2021 12:45:00 PM 9.61 49.298 0.066 6.87 3.31 11.46
3/25/2021 1:00:00 PM 9.78 49.604 0.066 6.88 3.3 11.43
3/25/2021 1:15:00 PM 9.95 49.91 0.066 6.89 3.27 11.39
3/25/2021 1:30:00 PM 10.12 50.216 0.066 6.9 3.25 11.34
3/25/2021 1:45:00 PM 10.3 50.54 0.066 6.9 3.34 11.3
3/25/2021 2:00:00 PM 10.43 50.774 0.066 6.91 3.37 11.26
3/25/2021 2:15:00 PM 10.59 51.062 0.065 6.91 3.26 11.22
3/25/2021 2:30:00 PM 10.75 51.35 0.065 6.91 3.23 11.18
3/25/2021 2:45:00 PM 10.9 51.62 0.065 6.92 3.26 11.14
3/25/2021 3:00:00 PM 11.01 51.818 0.065 6.91 3.34 11.09
3/25/2021 3:15:00 PM 11.11 51.998 0.065 6.9 3.29 11.05
3/25/2021 3:30:00 PM 11.21 52.178 0.065 6.91 3.26 11.01
3/25/2021 3:45:00 PM 11.28 52.304 0.065 6.9 3.29 10.98
3/25/2021 4:00:00 PM 11.34 52.412 0.065 6.9 3.27 10.94
3/25/2021 4:15:00 PM 11.38 52.484 0.065 6.9 3.31 10.92
3/25/2021 4:30:00 PM 11.41 52.538 0.065 6.89 3.32 10.89
3/25/2021 4:45:00 PM 11.42 52.556 0.065 6.88 3.28 10.87
3/25/2021 5:00:00 PM 11.42 52.556 0.065 6.87 3.35 10.85
3/25/2021 5:15:00 PM 11.43 52.574 0.065 6.87 3.34 10.83
3/25/2021 5:30:00 PM 11.41 52.538 0.065 6.86 3.43 10.8
3/25/2021 5:45:00 PM 11.38 52.484 0.065 6.85 3.31 10.77
3/25/2021 6:00:00 PM 11.34 52.412 0.065 6.83 3.31 10.73
3/25/2021 6:15:00 PM 11.31 52.358 0.065 6.82 3.31 10.7
3/25/2021 6:30:00 PM 11.29 52.322 0.065 6.8 3.28 10.67
3/25/2021 6:45:00 PM 11.25 52.25 0.065 6.79 3.33 10.63
3/25/2021 7:00:00 PM 11.22 52.196 0.065 6.77 3.37 10.6
3/25/2021 7:15:00 PM 11.2 52.16 0.065 6.76 3.33 10.58
3/25/2021 7:30:00 PM 11.16 52.088 0.065 6.75 3.42 10.54
3/25/2021 7:45:00 PM 11.13 52.034 0.065 6.73 3.4 10.52
3/25/2021 8:00:00 PM 11.1 51.98 0.066 6.73 3.41 10.49
3/25/2021 8:15:00 PM 11.07 51.926 0.066 6.72 3.46 10.47
3/25/2021 8:30:00 PM 11.03 51.854 0.066 6.71 3.54 10.46
3/25/2021 8:45:00 PM 11.01 51.818 0.066 6.7 3.58 10.45
3/25/2021 9:00:00 PM 10.99 51.782 0.066 6.7 3.44 10.45
3/25/2021 9:15:00 PM 10.96 51.728 0.066 6.69 3.48 10.45
3/25/2021 9:30:00 PM 10.93 51.674 0.066 6.68 3.59 10.44
3/25/2021 9:45:00 PM 10.92 51.656 0.066 6.68 3.44 10.44
3/25/2021 10:00:00 PM 10.89 51.602 0.066 6.68 3.52 10.44
3/25/2021 10:15:00 PM 10.88 51.584 0.066 6.68 3.55 10.44
3/25/2021 10:30:00 PM 10.86 51.548 0.065 6.68 3.56 10.44
3/25/2021 10:45:00 PM 10.85 51.53 0.066 6.68 3.51 10.43
3/25/2021 11:00:00 PM 10.84 51.512 0.066 6.67 3.49 10.44
3/25/2021 11:15:00 PM 10.82 51.476 0.066 6.67 3.59 10.44
3/25/2021 11:30:00 PM 10.8 51.44 0.066 6.68 3.61 10.44
3/25/2021 11:45:00 PM 10.78 51.404 0.066 6.67 3.59 10.44
3/26/2021 12:00:00 AM 10.77 51.386 0.065 6.68 3.51 10.44
3/26/2021 12:15:00 AM 10.75 51.35 0.065 6.67 3.65 10.44
3/26/2021 12:30:00 AM 10.73 51.314 0.066 6.67 3.64 10.44
3/26/2021 12:45:00 AM 10.7 51.26 0.066 6.67 3.59 10.44
3/26/2021 1:00:00 AM 10.69 51.242 0.066 6.67 3.61 10.45
3/26/2021 1:15:00 AM 10.67 51.206 0.066 6.67 3.58 10.45
3/26/2021 1:30:00 AM 10.65 51.17 0.066 6.68 3.69 10.45
3/26/2021 1:45:00 AM 10.62 51.116 0.066 6.67 3.46 10.45
3/26/2021 2:00:00 AM 10.6 51.08 0.066 6.66 3.61 10.46
3/26/2021 2:15:00 AM 10.58 51.044 0.065 6.66 3.62 10.46
3/26/2021 2:30:00 AM 10.56 51.008 0.065 6.66 3.53 10.46
3/26/2021 2:45:00 AM 10.55 50.99 0.065 6.67 3.51 10.46
3/26/2021 3:00:00 AM 10.53 50.954 0.065 6.67 3.46 10.46
3/26/2021 3:15:00 AM 10.52 50.936 0.065 6.67 3.66 10.46
3/26/2021 3:30:00 AM 10.52 50.936 0.065 6.68 3.47 10.46
3/26/2021 3:45:00 AM 10.5 50.9 0.065 6.67 3.87 10.46
3/26/2021 4:00:00 AM 10.5 50.9 0.066 6.68 3.56 10.46
3/26/2021 4:15:00 AM 10.49 50.882 0.066 6.68 3.53 10.46
3/26/2021 4:30:00 AM 10.46 50.828 0.066 6.67 4.02 10.46
3/26/2021 4:45:00 AM 10.41 50.738 0.066 6.67 3.63 10.47
3/26/2021 5:00:00 AM 10.38 50.684 0.066 6.67 3.64 10.47
3/26/2021 5:15:00 AM 10.36 50.648 0.065 6.67 3.6 10.47
3/26/2021 5:30:00 AM 10.35 50.63 0.065 6.66 3.56 10.47
3/26/2021 5:45:00 AM 10.35 50.63 0.065 6.67 3.54 10.47
3/26/2021 6:00:00 AM 10.33 50.594 0.065 6.67 3.76 10.47
3/26/2021 6:15:00 AM 10.31 50.558 0.065 6.67 4.04 10.47
3/26/2021 6:30:00 AM 10.3 50.54 0.065 6.67 4.13 10.48
3/26/2021 6:45:00 AM 10.27 50.486 0.065 6.67 3.74 10.48
3/26/2021 7:00:00 AM 10.25 50.45 0.065 6.67 3.72 10.49
3/26/2021 7:15:00 AM 10.21 50.378 0.065 6.67 3.78 10.5
3/26/2021 7:30:00 AM 10.19 50.342 0.065 6.68 3.59 10.52
3/26/2021 7:45:00 AM 10.19 50.342 0.065 6.69 3.54 10.54
3/26/2021 8:00:00 AM 10.19 50.342 0.065 6.7 3.68 10.57
3/26/2021 8:15:00 AM 10.19 50.342 0.065 6.72 3.61 10.61
3/26/2021 8:30:00 AM 10.21 50.378 0.065 6.74 3.49 10.63
3/26/2021 8:45:00 AM 10.23 50.414 0.065 6.74 3.61 10.66
3/26/2021 9:00:00 AM 10.29 50.522 0.065 6.77 3.5 10.7
3/26/2021 9:15:00 AM 10.32 50.576 0.065 6.78 3.64 10.73
3/26/2021 9:30:00 AM 10.33 50.594 0.065 6.79 3.54 10.73
3/26/2021 9:45:00 AM 10.37 50.666 0.065 6.79 3.48 10.75
3/26/2021 10:00:00 AM 10.47 50.846 0.065 6.81 3.57 10.79
3/26/2021 10:15:00 AM 10.49 50.882 0.065 6.82 3.46 10.81
3/26/2021 10:30:00 AM 10.49 50.882 0.065 6.82 3.55 10.83
3/26/2021 10:45:00 AM 10.49 50.882 0.065 6.82 3.4 10.81
3/26/2021 11:00:00 AM 10.51 50.918 0.065 6.82 3.59 10.81
3/26/2021 11:15:00 AM 10.51 50.918 0.065 6.83 3.5 10.81
3/26/2021 11:30:00 AM 10.49 50.882 0.065 6.82 3.77 10.82
3/26/2021 11:45:00 AM 10.47 50.846 0.065 6.82 3.68 10.81
3/26/2021 12:00:00 PM 10.47 50.846 0.065 6.81 3.72 10.81
3/26/2021 12:15:00 PM 10.46 50.828 0.065 6.81 3.61 10.83
3/26/2021 12:30:00 PM 10.47 50.846 0.065 6.83 3.62 10.85
3/26/2021 12:45:00 PM 10.5 50.9 0.065 6.83 3.67 10.89
3/26/2021 1:00:00 PM 10.55 50.99 0.065 6.84 3.71 10.91
3/26/2021 1:15:00 PM 10.58 51.044 0.065 6.85 3.62 10.93
3/26/2021 1:30:00 PM 10.62 51.116 0.065 6.85 3.53 10.93
3/26/2021 1:45:00 PM 10.64 51.152 0.065 6.86 3.57 10.94
3/26/2021 2:00:00 PM 10.62 51.116 0.065 6.87 3.55 10.94
3/26/2021 2:15:00 PM 10.69 51.242 0.065 6.87 3.63 10.95
3/26/2021 2:30:00 PM 10.7 51.26 0.064 6.88 3.58 10.96
3/26/2021 2:45:00 PM 10.71 51.278 0.065 6.87 3.58 10.95
3/26/2021 3:00:00 PM 10.7 51.26 0.064 6.87 3.67 10.95
3/26/2021 3:15:00 PM 10.69 51.242 0.064 6.87 3.54 10.95
3/26/2021 3:30:00 PM 10.66 51.188 0.064 6.86 3.56 10.95
3/26/2021 3:45:00 PM 10.63 51.134 0.064 6.85 3.56 10.95
3/26/2021 4:00:00 PM 10.6 51.08 0.064 6.85 3.63 10.95
3/26/2021 4:15:00 PM 10.59 51.062 0.064 6.86 3.54 10.96
3/26/2021 4:30:00 PM 10.58 51.044 0.064 6.86 3.51 10.97
3/26/2021 4:45:00 PM 10.55 50.99 0.064 6.86 3.51 10.98
3/26/2021 5:00:00 PM 10.5 50.9 0.064 6.85 3.56 10.96
3/26/2021 5:15:00 PM 10.47 50.846 0.064 6.84 3.62 10.95
3/26/2021 5:30:00 PM 10.43 50.774 0.064 6.83 3.78 10.94
3/26/2021 5:45:00 PM 10.4 50.72 0.065 6.83 3.72 10.94
3/26/2021 6:00:00 PM 10.37 50.666 0.065 6.82 3.79 10.93
3/26/2021 6:15:00 PM 10.32 50.576 0.065 6.82 3.81 10.92
3/26/2021 6:30:00 PM 10.26 50.468 0.065 6.81 3.9 10.91
3/26/2021 6:45:00 PM 10.2 50.36 0.065 6.8 4.02 10.9
3/26/2021 7:00:00 PM 10.15 50.27 0.065 6.78 3.91 10.88
3/26/2021 7:15:00 PM 10.08 50.144 0.065 6.76 3.91 10.86
3/26/2021 7:30:00 PM 10.01 50.018 0.065 6.76 3.91 10.85
3/26/2021 7:45:00 PM 9.94 49.892 0.065 6.74 4.02 10.84
3/26/2021 8:00:00 PM 9.87 49.766 0.065 6.73 3.94 10.83
3/26/2021 8:15:00 PM 9.81 49.658 0.065 6.72 4 10.83
3/26/2021 8:30:00 PM 9.75 49.55 0.066 6.72 3.92 10.83
3/26/2021 8:45:00 PM 9.7 49.46 0.066 6.72 3.84 10.83
3/26/2021 9:00:00 PM 9.64 49.352 0.066 6.71 3.88 10.84
3/26/2021 9:15:00 PM 9.59 49.262 0.066 6.71 3.85 10.85
3/26/2021 9:30:00 PM 9.54 49.172 0.066 6.71 3.81 10.86
3/26/2021 9:45:00 PM 9.49 49.082 0.066 6.7 3.87 10.87
3/26/2021 10:00:00 PM 9.45 49.01 0.066 6.7 3.84 10.88
3/26/2021 10:15:00 PM 9.4 48.92 0.066 6.7 3.81 10.89
3/26/2021 10:30:00 PM 9.36 48.848 0.066 6.7 3.75 10.89
3/26/2021 10:45:00 PM 9.31 48.758 0.066 6.7 3.84 10.91
3/26/2021 11:00:00 PM 9.27 48.686 0.067 6.7 3.88 10.92
3/26/2021 11:15:00 PM 9.23 48.614 0.067 6.7 3.71 10.93
3/26/2021 11:30:00 PM 9.18 48.524 0.067 6.7 3.84 10.94
3/26/2021 11:45:00 PM 9.15 48.47 0.067 6.7 3.74 10.95
3/27/2021 12:00:00 AM 9.11 48.398 0.067 6.7 3.78 10.96
3/27/2021 12:15:00 AM 9.07 48.326 0.067 6.7 3.89 10.97
3/27/2021 12:30:00 AM 9.03 48.254 0.067 6.7 3.86 10.98
3/27/2021 12:45:00 AM 8.99 48.182 0.068 6.69 3.82 10.99
3/27/2021 1:00:00 AM 8.96 48.128 0.068 6.7 3.89 11
3/27/2021 1:15:00 AM 8.92 48.056 0.068 6.7 4.03 11.01
3/27/2021 1:30:00 AM 8.89 48.002 0.068 6.7 3.81 11.02
3/27/2021 1:45:00 AM 8.85 47.93 0.068 6.7 4.07 11.03
3/27/2021 2:00:00 AM 8.82 47.876 0.068 6.7 3.98 11.04
3/27/2021 2:15:00 AM 8.79 47.822 0.068 6.7 4.09 11.05
3/27/2021 2:30:00 AM 8.75 47.75 0.069 6.7 3.95 11.06
3/27/2021 2:45:00 AM 8.72 47.696 0.069 6.69 4.07 11.07
3/27/2021 3:00:00 AM 8.68 47.624 0.069 6.7 4.03 11.08
3/27/2021 3:15:00 AM 8.65 47.57 0.069 6.7 3.88 11.09
3/27/2021 3:30:00 AM 8.61 47.498 0.069 6.7 4.07 11.09
3/27/2021 3:45:00 AM 8.58 47.444 0.069 6.7 3.91 11.11
3/27/2021 4:00:00 AM 8.55 47.39 0.069 6.7 4.06 11.12
3/27/2021 4:15:00 AM 8.52 47.336 0.07 6.7 3.97 11.12
3/27/2021 4:30:00 AM 8.48 47.264 0.07 6.7 3.91 11.13
3/27/2021 4:45:00 AM 8.45 47.21 0.07 6.7 3.9 11.14
3/27/2021 5:00:00 AM 8.42 47.156 0.07 6.7 3.82 11.15
3/27/2021 5:15:00 AM 8.38 47.084 0.07 6.7 3.78 11.17
3/27/2021 5:30:00 AM 8.34 47.012 0.07 6.69 3.81 11.17
3/27/2021 5:45:00 AM 8.3 46.94 0.07 6.7 3.69 11.19
3/27/2021 6:00:00 AM 8.27 46.886 0.07 6.7 3.66 11.2
3/27/2021 6:15:00 AM 8.22 46.796 0.07 6.7 3.72 11.21
3/27/2021 6:30:00 AM 8.19 46.742 0.07 6.7 3.71 11.22
3/27/2021 6:45:00 AM 8.15 46.67 0.07 6.69 3.8 11.23
3/27/2021 7:00:00 AM 8.11 46.598 0.07 6.7 3.59 11.25
3/27/2021 7:15:00 AM 8.08 46.544 0.07 6.7 3.69 11.26
3/27/2021 7:30:00 AM 8.05 46.49 0.07 6.71 3.68 11.29
3/27/2021 7:45:00 AM 8.03 46.454 0.07 6.71 3.64 11.33
3/27/2021 8:00:00 AM 8.01 46.418 0.07 6.73 3.66 11.38
3/27/2021 8:15:00 AM 8 46.4 0.07 6.74 3.86 11.44
3/27/2021 8:30:00 AM 8.01 46.418 0.07 6.76 3.68 11.48
3/27/2021 8:45:00 AM 8.02 46.436 0.069 6.78 3.57 11.53
3/27/2021 9:00:00 AM 8.02 46.436 0.069 6.79 3.42 11.57
3/27/2021 9:15:00 AM 8.05 46.49 0.069 6.8 3.36 11.61
3/27/2021 9:30:00 AM 8.08 46.544 0.069 6.82 3.36 11.64
3/27/2021 9:45:00 AM 8.11 46.598 0.069 6.82 3.33 11.65
3/27/2021 10:00:00 AM 8.15 46.67 0.069 6.85 3.23 11.67
3/27/2021 10:15:00 AM 8.26 46.868 0.069 6.87 3.28 11.69
3/27/2021 10:30:00 AM 8.35 47.03 0.068 6.88 3.29 11.7
3/27/2021 10:45:00 AM 8.41 47.138 0.068 6.89 3.22 11.7
3/27/2021 11:00:00 AM 8.57 47.426 0.068 6.9 3.34 11.7
3/27/2021 11:15:00 AM 8.68 47.624 0.068 6.91 3.21 11.69
3/27/2021 11:30:00 AM 8.85 47.93 0.068 6.93 3.18 11.66
3/27/2021 11:45:00 AM 8.98 48.164 0.068 6.93 3.18 11.64
3/27/2021 12:00:00 PM 9.11 48.398 0.068 6.93 3.11 11.62
3/27/2021 12:15:00 PM 9.18 48.524 0.068 6.93 3.18 11.59
3/27/2021 12:30:00 PM 9.26 48.668 0.068 6.93 3.1 11.57
3/27/2021 12:45:00 PM 9.44 48.992 0.068 6.94 3.26 11.54
3/27/2021 1:00:00 PM 9.64 49.352 0.068 6.95 3.15 11.51
3/27/2021 1:15:00 PM 9.75 49.55 0.068 6.95 3.07 11.48
3/27/2021 1:30:00 PM 9.86 49.748 0.068 6.96 3.09 11.46
3/27/2021 1:45:00 PM 9.99 49.982 0.067 6.96 3.74 11.43
3/27/2021 2:00:00 PM 10.14 50.252 0.067 6.97 3.25 11.4
3/27/2021 2:15:00 PM 10.31 50.558 0.067 6.98 3.1 11.36
3/27/2021 2:30:00 PM 10.45 50.81 0.067 6.97 3.07 11.32
3/27/2021 2:45:00 PM 10.55 50.99 0.067 6.97 3.06 11.29
3/27/2021 3:00:00 PM 10.66 51.188 0.067 6.97 3.05 11.25
3/27/2021 3:15:00 PM 10.76 51.368 0.067 6.97 3.07 11.22
3/27/2021 3:30:00 PM 10.86 51.548 0.067 6.98 3.16 11.19
3/27/2021 3:45:00 PM 10.93 51.674 0.067 6.98 3.02 11.15
3/27/2021 4:00:00 PM 11.01 51.818 0.067 6.96 2.97 11.12
3/27/2021 4:15:00 PM 11.06 51.908 0.067 6.94 3.08 11.1
3/27/2021 4:30:00 PM 11.12 52.016 0.067 6.93 3.11 11.07
3/27/2021 4:45:00 PM 11.15 52.07 0.067 6.93 3.14 11.05
3/27/2021 5:00:00 PM 11.25 52.25 0.067 6.95 3.23 11.02
3/27/2021 5:15:00 PM 11.28 52.304 0.067 6.93 3.16 10.98
3/27/2021 5:30:00 PM 11.32 52.376 0.067 6.97 3.14 10.95
3/27/2021 5:45:00 PM 11.36 52.448 0.067 6.91 3.08 10.92
3/27/2021 6:00:00 PM 11.37 52.466 0.067 6.92 3.12 10.88
3/27/2021 6:15:00 PM 11.36 52.448 0.067 6.9 3.08 10.85
3/27/2021 6:30:00 PM 11.35 52.43 0.067 6.88 3.19 10.82
3/27/2021 6:45:00 PM 11.3 52.34 0.067 6.86 3.15 10.78
3/27/2021 7:00:00 PM 11.23 52.214 0.067 6.85 3.11 10.74
3/27/2021 7:15:00 PM 11.16 52.088 0.067 6.83 3.14 10.69
3/27/2021 7:30:00 PM 11.08 51.944 0.067 6.82 3.05 10.66
3/27/2021 7:45:00 PM 10.99 51.782 0.068 6.79 3.06 10.62
3/27/2021 8:00:00 PM 10.91 51.638 0.068 6.76 3.19 10.59
3/27/2021 8:15:00 PM 10.84 51.512 0.068 6.74 3.2 10.57
3/27/2021 8:30:00 PM 10.77 51.386 0.068 6.73 3.24 10.55
3/27/2021 8:45:00 PM 10.7 51.26 0.068 6.72 3.25 10.55
3/27/2021 9:00:00 PM 10.62 51.116 0.068 6.71 3.23 10.54
3/27/2021 9:15:00 PM 10.55 50.99 0.068 6.7 3.31 10.55
3/27/2021 9:30:00 PM 10.48 50.864 0.068 6.69 3.23 10.55
3/27/2021 9:45:00 PM 10.41 50.738 0.068 6.68 3.22 10.55
3/27/2021 10:00:00 PM 10.34 50.612 0.068 6.68 3.24 10.57
3/27/2021 10:15:00 PM 10.28 50.504 0.068 6.68 3.36 10.57
3/27/2021 10:30:00 PM 10.21 50.378 0.068 6.68 3.13 10.58
3/27/2021 10:45:00 PM 10.14 50.252 0.068 6.66 3.4 10.6
3/27/2021 11:00:00 PM 10.07 50.126 0.068 6.67 3.28 10.61
3/27/2021 11:15:00 PM 10 50 0.068 6.67 3.29 10.62
3/27/2021 11:30:00 PM 9.92 49.856 0.068 6.67 3.22 10.64
3/27/2021 11:45:00 PM 9.85 49.73 0.068 6.64 3.31 10.66
3/28/2021 12:00:00 AM 9.77 49.586 0.068 6.66 3.32 10.67
3/28/2021 12:15:00 AM 9.7 49.46 0.068 6.65 3.14 10.69
3/28/2021 12:30:00 AM 9.62 49.316 0.068 6.65 3.21 10.7
3/28/2021 12:45:00 AM 9.55 49.19 0.068 6.65 3.2 10.72
3/28/2021 1:00:00 AM 9.47 49.046 0.068 6.66 3.19 10.74
3/28/2021 1:15:00 AM 9.39 48.902 0.068 6.66 3.3 10.75
3/28/2021 1:30:00 AM 9.32 48.776 0.068 6.65 3.13 10.78
3/28/2021 1:45:00 AM 9.24 48.632 0.068 6.66 3.21 10.79
3/28/2021 2:00:00 AM 9.16 48.488 0.068 6.65 3.21 10.82
3/28/2021 2:15:00 AM 9.09 48.362 0.068 6.66 3.18 10.83
3/28/2021 2:30:00 AM 9.01 48.218 0.068 6.66 3.35 10.85
3/28/2021 2:45:00 AM 8.93 48.074 0.068 6.65 3.02 10.87
3/28/2021 3:00:00 AM 8.85 47.93 0.068 6.66 3.15 10.89
3/28/2021 3:15:00 AM 8.78 47.804 0.068 6.66 3.16 10.91
3/28/2021 3:30:00 AM 8.71 47.678 0.068 6.66 3.26 10.92
3/28/2021 3:45:00 AM 8.64 47.552 0.068 6.67 3.2 10.94
3/28/2021 4:00:00 AM 8.58 47.444 0.068 6.66 3.21 10.96
3/28/2021 4:15:00 AM 8.52 47.336 0.068 6.66 3.21 10.97
3/28/2021 4:30:00 AM 8.46 47.228 0.068 6.67 3.12 10.99
3/28/2021 4:45:00 AM 8.4 47.12 0.068 6.66 3.09 11
3/28/2021 5:00:00 AM 8.35 47.03 0.069 6.66 3.04 11.02
3/28/2021 5:15:00 AM 8.31 46.958 0.069 6.67 3.13 11.03
3/28/2021 5:30:00 AM 8.26 46.868 0.069 6.67 3.21 11.04
3/28/2021 5:45:00 AM 8.22 46.796 0.069 6.67 3.06 11.06
3/28/2021 6:00:00 AM 8.19 46.742 0.069 6.67 3.17 11.06
3/28/2021 6:15:00 AM 8.16 46.688 0.069 6.67 3.17 11.08
3/28/2021 6:30:00 AM 8.13 46.634 0.069 6.68 3.13 11.09
3/28/2021 6:45:00 AM 8.1 46.58 0.069 6.69 3.14 11.1
3/28/2021 7:00:00 AM 8.07 46.526 0.069 6.7 3.12 11.11
3/28/2021 7:15:00 AM 8.04 46.472 0.069 6.68 3.1 11.11
3/28/2021 7:30:00 AM 8.02 46.436 0.068 6.69 3.18 11.13
3/28/2021 7:45:00 AM 8 46.4 0.068 6.7 3.07 11.14
3/28/2021 8:00:00 AM 7.98 46.364 0.068 6.7 3.58 11.16
3/28/2021 8:15:00 AM 7.96 46.328 0.068 6.71 3.05 11.17
3/28/2021 8:30:00 AM 7.95 46.31 0.068 6.71 3.07 11.21
3/28/2021 8:45:00 AM 7.94 46.292 0.068 6.72 3.14 11.23
3/28/2021 9:00:00 AM 7.93 46.274 0.068 6.73 3.15 11.24
3/28/2021 9:15:00 AM 7.93 46.274 0.068 6.74 3.3 11.27
3/28/2021 9:30:00 AM 7.93 46.274 0.068 6.74 3.45 11.29
3/28/2021 9:45:00 AM 7.93 46.274 0.068 6.74 3.25 11.3
3/28/2021 10:00:00 AM 7.95 46.31 0.068 6.74 3.24 11.33
3/28/2021 10:15:00 AM 7.97 46.346 0.067 6.77 3.16 11.35
3/28/2021 10:30:00 AM 7.99 46.382 0.067 6.77 3.08 11.36
3/28/2021 10:45:00 AM 8.01 46.418 0.067 6.79 3.07 11.38
3/28/2021 11:00:00 AM 8.06 46.508 0.067 6.8 3.07 11.41
3/28/2021 11:15:00 AM 8.09 46.562 0.067 6.82 3.07 11.42
3/28/2021 11:30:00 AM 8.12 46.616 0.067 6.81 3.14 11.41
3/28/2021 11:45:00 AM 8.18 46.724 0.067 6.83 3.19 11.42
3/28/2021 12:00:00 PM 8.25 46.85 0.067 6.85 3.38 11.43
3/28/2021 12:15:00 PM 8.31 46.958 0.067 6.86 3.39 11.43
3/28/2021 12:30:00 PM 8.38 47.084 0.067 6.85 3.35 11.44
3/28/2021 12:45:00 PM 8.48 47.264 0.067 6.88 3.37 11.44
3/28/2021 1:00:00 PM 8.56 47.408 0.067 6.88 3.41 11.43
3/28/2021 1:15:00 PM 8.62 47.516 0.067 6.88 3.58 11.42
3/28/2021 1:30:00 PM 8.68 47.624 0.067 6.88 3.4 11.39
3/28/2021 1:45:00 PM 8.74 47.732 0.067 6.91 3.51 11.35
3/28/2021 2:00:00 PM 8.78 47.804 0.067 6.91 3.64 11.33
3/28/2021 2:15:00 PM 8.81 47.858 0.067 6.91 3.9 11.31
3/28/2021 2:30:00 PM 8.85 47.93 0.067 6.9 3.76 11.3
3/28/2021 2:45:00 PM 8.88 47.984 0.067 6.9 3.99 11.26
3/28/2021 3:00:00 PM 8.94 48.092 0.067 6.9 4.43 11.26
3/28/2021 3:15:00 PM 8.94 48.092 0.067 6.89 4.56 11.2
3/28/2021 3:30:00 PM 8.97 48.146 0.067 6.89 4.6 11.2
3/28/2021 3:45:00 PM 8.99 48.182 0.067 6.88 4.8 11.19
3/28/2021 4:00:00 PM 8.99 48.182 0.068 6.88 5.34 11.18
3/28/2021 4:15:00 PM 8.98 48.164 0.068 6.88 5.51 11.18
3/28/2021 4:30:00 PM 9.03 48.254 0.068 6.88 5.89 11.21
3/28/2021 4:45:00 PM 9.06 48.308 0.068 6.89 5.89 11.21
3/28/2021 5:00:00 PM 9.06 48.308 0.069 6.89 6.24 11.2
3/28/2021 5:15:00 PM 9.07 48.326 0.069 6.88 6.18 11.19
3/28/2021 5:30:00 PM 9.11 48.398 0.069 6.89 6.24 11.2
3/28/2021 5:45:00 PM 9.1 48.38 0.069 6.89 6.33 11.17
3/28/2021 6:00:00 PM 9.08 48.344 0.069 6.87 6.09 11.13
3/28/2021 6:15:00 PM 9.08 48.344 0.069 6.87 6.12 11.15
3/28/2021 6:30:00 PM 9.04 48.272 0.069 6.87 6 11.13
3/28/2021 6:45:00 PM 8.99 48.182 0.069 6.86 5.84 11.1
3/28/2021 7:00:00 PM 8.94 48.092 0.07 6.85 6.04 11.07
3/28/2021 7:15:00 PM 8.87 47.966 0.07 6.83 5.83 11.07
3/28/2021 7:30:00 PM 8.8 47.84 0.07 6.82 6.05 11.04
3/28/2021 7:45:00 PM 8.73 47.714 0.07 6.8 6.09 11.02
3/28/2021 8:00:00 PM 8.65 47.57 0.071 6.77 5.93 11.01
3/28/2021 8:15:00 PM 8.58 47.444 0.071 6.77 5.97 11.01
3/28/2021 8:30:00 PM 8.53 47.354 0.071 6.76 6.13 11.01
3/28/2021 8:45:00 PM 8.47 47.246 0.072 6.75 6.55 11.01
3/28/2021 9:00:00 PM 8.4 47.12 0.072 6.74 6.46 11.02
3/28/2021 9:15:00 PM 8.34 47.012 0.072 6.74 6.62 11.03
3/28/2021 9:30:00 PM 8.28 46.904 0.072 6.73 6.77 11.04
3/28/2021 9:45:00 PM 8.22 46.796 0.073 6.75 7.25 11.05
3/28/2021 10:00:00 PM 8.16 46.688 0.073 6.74 7.37 11.06
3/28/2021 10:15:00 PM 8.09 46.562 0.073 6.74 8.03 11.09
3/28/2021 10:30:00 PM 8.02 46.436 0.074 6.72 7.73 11.1
3/28/2021 10:45:00 PM 7.96 46.328 0.074 6.72 7.71 11.11
3/28/2021 11:00:00 PM 7.89 46.202 0.074 6.72 8.43 11.13
3/28/2021 11:15:00 PM 7.82 46.076 0.074 6.7 8.04 11.15
3/28/2021 11:30:00 PM 7.77 45.986 0.074 6.7 8.09 11.16
3/28/2021 11:45:00 PM 7.71 45.878 0.074 6.72 7.99 11.18
3/29/2021 12:00:00 AM 7.66 45.788 0.074 6.72 7.74 11.19
3/29/2021 12:15:00 AM 7.61 45.698 0.074 6.73 7.64 11.21
3/29/2021 12:30:00 AM 7.57 45.626 0.074 6.73 7.7 11.23
3/29/2021 12:45:00 AM 7.53 45.554 0.074 6.73 7.77 11.25
3/29/2021 1:00:00 AM 7.49 45.482 0.074 6.74 7.46 11.26
3/29/2021 1:15:00 AM 7.45 45.41 0.075 6.74 7.15 11.27
3/29/2021 1:30:00 AM 7.4 45.32 0.075 6.75 7.2 11.29
3/29/2021 1:45:00 AM 7.35 45.23 0.075 6.75 7.03 11.31
3/29/2021 2:00:00 AM 7.3 45.14 0.076 6.75 6.93 11.32
3/29/2021 2:15:00 AM 7.25 45.05 0.076 6.75 6.86 11.35
3/29/2021 2:30:00 AM 7.21 44.978 0.077 6.75 6.73 11.35
3/29/2021 2:45:00 AM 7.15 44.87 0.077 6.75 6.85 11.37
3/29/2021 3:00:00 AM 7.08 44.744 0.078 6.75 6.75 11.39
3/29/2021 3:15:00 AM 7.03 44.654 0.079 6.76 7.1 11.41
3/29/2021 3:30:00 AM 6.97 44.546 0.08 6.76 6.81 11.43
3/29/2021 3:45:00 AM 6.92 44.456 0.081 6.75 6.81 11.45
3/29/2021 4:00:00 AM 6.86 44.348 0.082 6.76 6.97 11.47
3/29/2021 4:15:00 AM 6.81 44.258 0.083 6.77 7.02 11.49
3/29/2021 4:30:00 AM 6.75 44.15 0.084 6.78 7.11 11.5
3/29/2021 4:45:00 AM 6.69 44.042 0.085 6.77 7.25 11.53
3/29/2021 5:00:00 AM 6.64 43.952 0.086 6.77 7.23 11.55
3/29/2021 5:15:00 AM 6.59 43.862 0.087 6.78 7.53 11.56
3/29/2021 5:30:00 AM 6.54 43.772 0.088 6.8 7.65 11.58
3/29/2021 5:45:00 AM 6.48 43.664 0.088 6.79 7.53 11.6
3/29/2021 6:00:00 AM 6.41 43.538 0.089 6.8 7.72 11.63
3/29/2021 6:15:00 AM 6.35 43.43 0.089 6.8 7.73 11.65
3/29/2021 6:30:00 AM 6.27 43.286 0.09 6.8 7.78 11.68
3/29/2021 6:45:00 AM 6.21 43.178 0.09 6.8 8.02 11.7
3/29/2021 7:00:00 AM 6.16 43.088 0.091 6.81 7.84 11.72
3/29/2021 7:15:00 AM 6.11 42.998 0.091 6.82 7.98 11.74
3/29/2021 7:30:00 AM 6.06 42.908 0.091 6.82 7.98 11.76
3/29/2021 7:45:00 AM 6.01 42.818 0.091 6.83 7.86 11.79
3/29/2021 8:00:00 AM 5.97 42.746 0.091 6.83 7.86 11.83
3/29/2021 8:15:00 AM 5.92 42.656 0.091 6.83 7.54 11.87
3/29/2021 8:30:00 AM 5.89 42.602 0.09 6.84 7.65 11.91
3/29/2021 8:45:00 AM 5.86 42.548 0.09 6.85 7.35 11.95
3/29/2021 9:00:00 AM 5.83 42.494 0.09 6.86 7.16 12
3/29/2021 9:15:00 AM 5.79 42.422 0.09 6.87 7.02 12.05
3/29/2021 9:30:00 AM 5.73 42.314 0.089 6.87 6.72 12.09
3/29/2021 9:45:00 AM 5.65 42.17 0.089 6.86 6.94 12.11
3/29/2021 10:00:00 AM 5.55 41.99 0.089 6.86 6.59 12.16
3/29/2021 10:15:00 AM 5.48 41.864 0.088 6.86 6.44 12.22
3/29/2021 10:30:00 AM 5.46 41.828 0.088 6.87 6.22 12.27
3/29/2021 10:45:00 AM 5.51 41.918 0.088 6.89 6.23 12.31
3/29/2021 11:00:00 AM 5.57 42.026 0.087 6.92 5.97 12.34
3/29/2021 11:15:00 AM 5.67 42.206 0.087 6.93 5.74 12.36
3/29/2021 11:30:00 AM 5.73 42.314 0.087 6.94 5.6 12.37
3/29/2021 11:45:00 AM 5.84 42.512 0.087 6.96 5.53 12.38
3/29/2021 12:00:00 PM 5.91 42.638 0.086 6.97 5.41 12.39
3/29/2021 12:15:00 PM 6.01 42.818 0.086 6.97 5.2 12.4
3/29/2021 12:30:00 PM 6.08 42.944 0.086 6.96 5.1 12.39
3/29/2021 12:45:00 PM 6.18 43.124 0.086 6.99 5.09 12.38
3/29/2021 1:00:00 PM 6.21 43.178 0.086 6.97 4.93 12.38
3/29/2021 1:15:00 PM 6.3 43.34 0.085 6.98 4.9 12.37
3/29/2021 1:30:00 PM 6.45 43.61 0.085 7 4.74 12.35
3/29/2021 1:45:00 PM 6.61 43.898 0.085 7 4.78 12.33
3/29/2021 2:00:00 PM 6.76 44.168 0.085 7 4.73 12.29
3/29/2021 2:15:00 PM 6.98 44.564 0.085 7.01 4.79 12.26
3/29/2021 2:30:00 PM 7.1 44.78 0.085 7.01 4.52 12.23
3/29/2021 2:45:00 PM 7.21 44.978 0.084 7 4.56 12.2
3/29/2021 3:00:00 PM 7.32 45.176 0.084 7 4.38 12.18
3/29/2021 3:15:00 PM 7.46 45.428 0.084 7 4.32 12.14
3/29/2021 3:30:00 PM 7.59 45.662 0.084 7 4.32 12.1
3/29/2021 3:45:00 PM 7.72 45.896 0.084 6.99 4.28 12.06
3/29/2021 4:00:00 PM 7.86 46.148 0.084 7 4.21 12.02
3/29/2021 4:15:00 PM 8.01 46.418 0.084 7 4.27 11.97
3/29/2021 4:30:00 PM 8.15 46.67 0.083 7.01 4.25 11.92
3/29/2021 4:45:00 PM 8.26 46.868 0.083 7.01 4.08 11.87
3/29/2021 5:00:00 PM 8.34 47.012 0.083 7 4.15 11.83
3/29/2021 5:15:00 PM 8.38 47.084 0.083 6.99 4.1 11.8
3/29/2021 5:30:00 PM 8.39 47.102 0.083 6.99 3.93 11.78
3/29/2021 5:45:00 PM 8.36 47.048 0.083 6.98 3.89 11.76
3/29/2021 6:00:00 PM 8.32 46.976 0.083 6.97 3.9 11.74
3/29/2021 6:15:00 PM 8.24 46.832 0.083 6.96 3.83 11.73
3/29/2021 6:30:00 PM 8.16 46.688 0.082 6.95 3.91 11.71
3/29/2021 6:45:00 PM 8.05 46.49 0.082 6.92 3.93 11.7
3/29/2021 7:00:00 PM 7.94 46.292 0.082 6.91 3.86 11.67
3/29/2021 7:15:00 PM 7.82 46.076 0.082 6.88 3.79 11.66
3/29/2021 7:30:00 PM 7.7 45.86 0.082 6.86 3.85 11.63
3/29/2021 7:45:00 PM 7.58 45.644 0.082 6.83 3.81 11.61
3/29/2021 8:00:00 PM 7.46 45.428 0.082 6.82 3.89 11.61
3/29/2021 8:15:00 PM 7.35 45.23 0.082 6.81 3.84 11.6
3/29/2021 8:30:00 PM 7.24 45.032 0.082 6.8 3.97 11.61
3/29/2021 8:45:00 PM 7.14 44.852 0.082 6.79 3.82 11.61
3/29/2021 9:00:00 PM 7.04 44.672 0.082 6.78 3.81 11.61
3/29/2021 9:15:00 PM 6.95 44.51 0.081 6.78 3.7 11.63
3/29/2021 9:30:00 PM 6.87 44.366 0.081 6.78 3.96 11.64
3/29/2021 9:45:00 PM 6.79 44.222 0.081 6.78 3.73 11.65
3/29/2021 10:00:00 PM 6.71 44.078 0.081 6.77 3.7 11.66
3/29/2021 10:15:00 PM 6.63 43.934 0.081 6.77 3.92 11.68
3/29/2021 10:30:00 PM 6.56 43.808 0.081 6.76 3.74 11.7
3/29/2021 10:45:00 PM 6.48 43.664 0.081 6.77 3.67 11.71
3/29/2021 11:00:00 PM 6.41 43.538 0.08 6.76 3.62 11.73
3/29/2021 11:15:00 PM 6.33 43.394 0.08 6.76 3.68 11.75
3/29/2021 11:30:00 PM 6.26 43.268 0.08 6.75 3.71 11.78
3/29/2021 11:45:00 PM 6.19 43.142 0.08 6.76 3.59 11.79
3/30/2021 12:00:00 AM 6.11 42.998 0.08 6.76 3.57 11.82
3/30/2021 12:15:00 AM 6.04 42.872 0.08 6.76 3.5 11.84
3/30/2021 12:30:00 AM 5.96 42.728 0.079 6.77 3.49 11.86
3/30/2021 12:45:00 AM 5.89 42.602 0.079 6.77 3.48 11.89
3/30/2021 1:00:00 AM 5.81 42.458 0.079 6.77 3.45 11.91
3/30/2021 1:15:00 AM 5.74 42.332 0.079 6.76 3.41 11.93
3/30/2021 1:30:00 AM 5.67 42.206 0.079 6.76 3.56 11.96
3/30/2021 1:45:00 AM 5.59 42.062 0.079 6.76 3.56 11.98
3/30/2021 2:00:00 AM 5.52 41.936 0.079 6.76 3.56 12
3/30/2021 2:15:00 AM 5.45 41.81 0.079 6.76 3.46 12.02
3/30/2021 2:30:00 AM 5.39 41.702 0.078 6.76 3.39 12.04
3/30/2021 2:45:00 AM 5.32 41.576 0.078 6.76 3.39 12.07
3/30/2021 3:00:00 AM 5.25 41.45 0.078 6.76 3.49 12.09
3/30/2021 3:15:00 AM 5.19 41.342 0.078 6.76 3.31 12.11
3/30/2021 3:30:00 AM 5.12 41.216 0.078 6.76 3.36 12.13
3/30/2021 3:45:00 AM 5.06 41.108 0.078 6.76 3.31 12.16
3/30/2021 4:00:00 AM 5 41 0.078 6.76 3.32 12.17
3/30/2021 4:15:00 AM 4.94 40.892 0.078 6.76 3.29 12.2
3/30/2021 4:30:00 AM 4.87 40.766 0.077 6.76 3.21 12.23
3/30/2021 4:45:00 AM 4.81 40.658 0.078 6.75 3.2 12.25
3/30/2021 5:00:00 AM 4.75 40.55 0.077 6.75 3.2 12.27
3/30/2021 5:15:00 AM 4.68 40.424 0.077 6.76 3.2 12.28
3/30/2021 5:30:00 AM 4.62 40.316 0.077 6.76 3.15 12.3
3/30/2021 5:45:00 AM 4.56 40.208 0.077 6.75 3.25 12.34
3/30/2021 6:00:00 AM 4.49 40.082 0.077 6.75 3.15 12.36
3/30/2021 6:15:00 AM 4.43 39.974 0.077 6.75 3.11 12.37
3/30/2021 6:30:00 AM 4.36 39.848 0.077 6.75 3.1 12.4
3/30/2021 6:45:00 AM 4.3 39.74 0.077 6.75 3.13 12.42
3/30/2021 7:00:00 AM 4.23 39.614 0.077 6.75 3.1 12.44
3/30/2021 7:15:00 AM 4.17 39.506 0.077 6.75 3.07 12.49
3/30/2021 7:30:00 AM 4.11 39.398 0.076 6.75 3.03 12.53
3/30/2021 7:45:00 AM 4.06 39.308 0.076 6.76 3.02 12.58
3/30/2021 8:00:00 AM 4.01 39.218 0.076 6.77 3.11 12.62
3/30/2021 8:15:00 AM 3.99 39.182 0.076 6.78 3.05 12.67
3/30/2021 8:30:00 AM 3.97 39.146 0.076 6.79 3.06 12.72
3/30/2021 8:45:00 AM 3.96 39.128 0.076 6.8 2.99 12.76
3/30/2021 9:00:00 AM 3.96 39.128 0.076 6.81 3.01 12.79
3/30/2021 9:15:00 AM 3.98 39.164 0.076 6.82 2.89 12.82
3/30/2021 9:30:00 AM 4.01 39.218 0.076 6.83 2.91 12.84
3/30/2021 9:45:00 AM 4.06 39.308 0.076 6.84 2.93 12.86
3/30/2021 10:00:00 AM 4.13 39.434 0.075 6.85 2.8 12.88
3/30/2021 10:15:00 AM 4.22 39.596 0.075 6.87 2.81 12.88
3/30/2021 10:30:00 AM 4.33 39.794 0.075 6.88 2.9 12.87
3/30/2021 10:45:00 AM 4.46 40.028 0.075 6.9 2.84 12.87
3/30/2021 11:00:00 AM 4.61 40.298 0.075 6.91 2.82 12.85
3/30/2021 11:15:00 AM 4.78 40.604 0.074 6.91 2.89 12.83
3/30/2021 11:30:00 AM 4.97 40.946 0.074 6.92 2.76 12.8
3/30/2021 11:45:00 AM 5.19 41.342 0.074 6.93 2.69 12.75
3/30/2021 12:00:00 PM 5.42 41.756 0.074 6.95 2.7 12.7
3/30/2021 12:15:00 PM 5.66 42.188 0.074 6.95 2.68 12.65
3/30/2021 12:30:00 PM 5.89 42.602 0.074 6.96 2.74 12.6
3/30/2021 12:45:00 PM 6.15 43.07 0.073 6.96 2.66 12.53
3/30/2021 1:00:00 PM 6.41 43.538 0.073 6.97 2.67 12.46
3/30/2021 1:15:00 PM 6.67 44.006 0.073 6.97 2.72 12.4
3/30/2021 1:30:00 PM 6.94 44.492 0.073 6.98 2.71 12.33
3/30/2021 1:45:00 PM 7.21 44.978 0.073 6.98 2.66 12.26
3/30/2021 2:00:00 PM 7.48 45.464 0.073 6.98 2.7 12.19
3/30/2021 2:15:00 PM 7.75 45.95 0.072 6.99 2.66 12.11
3/30/2021 2:30:00 PM 8.01 46.418 0.072 6.99 2.71 12.04
3/30/2021 2:45:00 PM 8.27 46.886 0.072 7 2.65 11.97
3/30/2021 3:00:00 PM 8.5 47.3 0.072 6.99 2.65 11.89
3/30/2021 3:15:00 PM 8.75 47.75 0.072 7 2.73 11.82
3/30/2021 3:30:00 PM 8.95 48.11 0.072 7 2.68 11.76
3/30/2021 3:45:00 PM 9.14 48.452 0.071 7 2.65 11.69
3/30/2021 4:00:00 PM 9.26 48.668 0.071 7 2.74 11.64
3/30/2021 4:15:00 PM 9.44 48.992 0.071 7 2.69 11.6
3/30/2021 4:30:00 PM 9.57 49.226 0.072 7 2.73 11.55
3/30/2021 4:45:00 PM 9.67 49.406 0.071 7 2.69 11.5
3/30/2021 5:00:00 PM 9.75 49.55 0.071 7 2.75 11.46
3/30/2021 5:15:00 PM 9.81 49.658 0.071 6.99 2.73 11.42
3/30/2021 5:30:00 PM 9.84 49.712 0.071 6.99 2.75 11.39
3/30/2021 5:45:00 PM 9.83 49.694 0.071 6.98 2.72 11.35
3/30/2021 6:00:00 PM 9.83 49.694 0.071 6.96 2.8 11.33
3/30/2021 6:15:00 PM 9.81 49.658 0.071 6.96 2.79 11.31
3/30/2021 6:30:00 PM 9.74 49.532 0.071 6.94 2.74 11.28
3/30/2021 6:45:00 PM 9.66 49.388 0.071 6.93 2.79 11.25
3/30/2021 7:00:00 PM 9.61 49.298 0.071 6.92 2.89 11.23
3/30/2021 7:15:00 PM 9.53 49.154 0.071 6.9 2.96 11.2
3/30/2021 7:30:00 PM 9.45 49.01 0.071 6.87 2.88 11.15
3/30/2021 7:45:00 PM 9.38 48.884 0.071 6.85 2.91 11.11
3/30/2021 8:00:00 PM 9.31 48.758 0.071 6.84 3.02 11.07
3/30/2021 8:15:00 PM 9.24 48.632 0.071 6.82 2.85 11.05
3/30/2021 8:30:00 PM 9.17 48.506 0.071 6.8 2.92 11.03
3/30/2021 8:45:00 PM 9.11 48.398 0.071 6.79 3.01 11.02
3/30/2021 9:00:00 PM 9.05 48.29 0.071 6.78 2.94 11.01
3/30/2021 9:15:00 PM 9 48.2 0.071 6.77 2.98 11.01
3/30/2021 9:30:00 PM 8.95 48.11 0.07 6.76 2.98 11.01
3/30/2021 9:45:00 PM 8.91 48.038 0.071 6.76 2.99 11.01
3/30/2021 10:00:00 PM 8.86 47.948 0.07 6.76 3.03 11.01
3/30/2021 10:15:00 PM 8.82 47.876 0.07 6.75 2.93 11.02
3/30/2021 10:30:00 PM 8.77 47.786 0.07 6.76 2.95 11.02
3/30/2021 10:45:00 PM 8.73 47.714 0.07 6.75 3 11.03
3/30/2021 11:00:00 PM 8.68 47.624 0.07 6.75 2.96 11.04
3/30/2021 11:15:00 PM 8.63 47.534 0.07 6.75 2.91 11.05
3/30/2021 11:30:00 PM 8.59 47.462 0.07 6.74 2.86 11.06
3/30/2021 11:45:00 PM 8.55 47.39 0.07 6.74 2.82 11.07
3/31/2021 12:00:00 AM 8.51 47.318 0.07 6.74 3.08 11.08
3/31/2021 12:15:00 AM 8.47 47.246 0.07 6.74 2.9 11.09
3/31/2021 12:30:00 AM 8.43 47.174 0.07 6.74 2.88 11.09
3/31/2021 12:45:00 AM 8.39 47.102 0.07 6.74 2.92 11.1
3/31/2021 1:00:00 AM 8.35 47.03 0.07 6.75 2.87 11.11
3/31/2021 1:15:00 AM 8.32 46.976 0.07 6.74 2.93 11.12
3/31/2021 1:30:00 AM 8.29 46.922 0.07 6.74 2.91 11.13
3/31/2021 1:45:00 AM 8.26 46.868 0.07 6.74 2.99 11.14
3/31/2021 2:00:00 AM 8.24 46.832 0.07 6.74 2.9 11.14
3/31/2021 2:15:00 AM 8.22 46.796 0.07 6.74 2.92 11.16
3/31/2021 2:30:00 AM 8.2 46.76 0.07 6.74 2.86 11.16
3/31/2021 2:45:00 AM 8.17 46.706 0.07 6.75 2.94 11.17
3/31/2021 3:00:00 AM 8.14 46.652 0.07 6.74 2.95 11.17
3/31/2021 3:15:00 AM 8.11 46.598 0.069 6.74 3.01 11.18
3/31/2021 3:30:00 AM 8.09 46.562 0.069 6.75 2.91 11.18
3/31/2021 3:45:00 AM 8.05 46.49 0.069 6.74 3 11.18
3/31/2021 4:00:00 AM 8.02 46.436 0.069 6.74 2.94 11.19
3/31/2021 4:15:00 AM 8 46.4 0.069 6.73 2.92 11.2
3/31/2021 4:30:00 AM 7.98 46.364 0.069 6.74 2.94 11.21
3/31/2021 4:45:00 AM 7.95 46.31 0.069 6.74 2.9 11.22
3/31/2021 5:00:00 AM 7.93 46.274 0.069 6.74 2.96 11.22
3/31/2021 5:15:00 AM 7.91 46.238 0.069 6.74 2.95 11.23
3/31/2021 5:30:00 AM 7.88 46.184 0.069 6.74 2.92 11.23
3/31/2021 5:45:00 AM 7.86 46.148 0.069 6.74 2.99 11.24
3/31/2021 6:00:00 AM 7.84 46.112 0.069 6.74 2.99 11.25
3/31/2021 6:15:00 AM 7.81 46.058 0.069 6.74 2.96 11.26
3/31/2021 6:30:00 AM 7.78 46.004 0.069 6.74 2.84 11.27
3/31/2021 6:45:00 AM 7.76 45.968 0.069 6.73 2.92 11.28
3/31/2021 7:00:00 AM 7.74 45.932 0.069 6.74 2.95 11.28
3/31/2021 7:15:00 AM 7.71 45.878 0.069 6.74 3.14 11.3
3/31/2021 7:30:00 AM 7.7 45.86 0.069 6.74 2.99 11.3
3/31/2021 7:45:00 AM 7.68 45.824 0.069 6.74 2.92 11.32
3/31/2021 8:00:00 AM 7.67 45.806 0.069 6.74 2.91 11.35
3/31/2021 8:15:00 AM 7.65 45.77 0.069 6.75 2.87 11.36
3/31/2021 8:30:00 AM 7.64 45.752 0.069 6.76 2.88 11.38
3/31/2021 8:45:00 AM 7.62 45.716 0.069 6.76 2.8 11.41
3/31/2021 9:00:00 AM 7.61 45.698 0.068 6.76 2.83 11.42
3/31/2021 9:15:00 AM 7.59 45.662 0.068 6.77 2.83 11.45
3/31/2021 9:30:00 AM 7.58 45.644 0.068 6.77 3.1 11.46
3/31/2021 9:45:00 AM 7.58 45.644 0.068 6.77 3.51 11.49
3/31/2021 10:00:00 AM 7.59 45.662 0.068 6.79 3.66 11.55
3/31/2021 10:15:00 AM 7.59 45.662 0.068 6.79 3.41 11.58
3/31/2021 10:30:00 AM 7.6 45.68 0.067 6.81 3.22 11.59
3/31/2021 10:45:00 AM 7.61 45.698 0.067 6.81 3.21 11.6
3/31/2021 11:00:00 AM 7.61 45.698 0.067 6.82 3.29 11.62
3/31/2021 11:15:00 AM 7.61 45.698 0.067 6.82 3.29 11.6
3/31/2021 11:30:00 AM 7.62 45.716 0.067 6.82 3.29 11.61
3/31/2021 11:45:00 AM 7.63 45.734 0.067 6.83 3.36 11.62
3/31/2021 12:00:00 PM 7.65 45.77 0.067 6.84 3.53 11.64
3/31/2021 12:15:00 PM 7.66 45.788 0.067 6.84 3.6 11.63
3/31/2021 12:30:00 PM 7.69 45.842 0.067 6.85 3.79 11.65
3/31/2021 12:45:00 PM 7.76 45.968 0.067 6.86 3.74 11.68
3/31/2021 1:00:00 PM 7.77 45.986 0.067 6.86 3.7 11.68
3/31/2021 1:15:00 PM 7.77 45.986 0.067 6.87 3.65 11.66
3/31/2021 1:30:00 PM 7.79 46.022 0.067 6.86 3.53 11.65
3/31/2021 1:45:00 PM 7.82 46.076 0.067 6.86 3.64 11.65
3/31/2021 2:00:00 PM 7.86 46.148 0.067 6.87 3.57 11.65
3/31/2021 2:15:00 PM 7.89 46.202 0.067 6.88 3.44 11.65
3/31/2021 2:30:00 PM 7.92 46.256 0.067 6.87 3.38 11.63
3/31/2021 2:45:00 PM 7.94 46.292 0.067 6.87 3.43 11.59
3/31/2021 3:00:00 PM 7.96 46.328 0.067 6.87 3.38 11.57
3/31/2021 3:15:00 PM 8 46.4 0.067 6.87 3.4 11.57
3/31/2021 3:30:00 PM 8.01 46.418 0.067 6.87 3.49 11.55
3/31/2021 3:45:00 PM 8.04 46.472 0.067 6.86 3.57 11.53
3/31/2021 4:00:00 PM 8.05 46.49 0.067 6.81 3.67 11.51
3/31/2021 4:15:00 PM 8.05 46.49 0.067 6.81 3.71 11.52
3/31/2021 4:30:00 PM 8.05 46.49 0.067 6.8 3.66 11.5
3/31/2021 4:45:00 PM 8.05 46.49 0.067 6.81 3.75 11.51
3/31/2021 5:00:00 PM 8.07 46.526 0.067 6.83 3.82 11.54
3/31/2021 5:15:00 PM 8.08 46.544 0.067 6.84 3.86 11.55
3/31/2021 5:30:00 PM 8.07 46.526 0.067 6.83 3.92 11.54
3/31/2021 5:45:00 PM 8.08 46.544 0.067 6.83 3.98 11.54
3/31/2021 6:00:00 PM 8.07 46.526 0.066 6.81 4.06 11.54
3/31/2021 6:15:00 PM 8.08 46.544 0.066 6.84 4.53 11.55
3/31/2021 6:30:00 PM 8.06 46.508 0.066 6.8 4.38 11.53
3/31/2021 6:45:00 PM 8.05 46.49 0.066 6.81 4.45 11.53
3/31/2021 7:00:00 PM 8.03 46.454 0.066 6.81 4.39 11.52
3/31/2021 7:15:00 PM 7.99 46.382 0.067 6.82 4.53 11.5
3/31/2021 7:30:00 PM 7.95 46.31 0.067 6.8 4.59 11.47
3/31/2021 7:45:00 PM 7.9 46.22 0.067 6.8 4.66 11.45
3/31/2021 8:00:00 PM 7.85 46.13 0.067 6.76 4.78 11.42
3/31/2021 8:15:00 PM 7.8 46.04 0.067 6.77 4.48 11.4
3/31/2021 8:30:00 PM 7.75 45.95 0.067 6.74 4.75 11.39
3/31/2021 8:45:00 PM 7.7 45.86 0.067 6.75 4.59 11.38
3/31/2021 9:00:00 PM 7.64 45.752 0.067 6.74 4.91 11.39
3/31/2021 9:15:00 PM 7.59 45.662 0.067 6.74 4.87 11.38
3/31/2021 9:30:00 PM 7.54 45.572 0.067 6.73 4.8 11.39
3/31/2021 9:45:00 PM 7.49 45.482 0.067 6.72 4.64 11.4
3/31/2021 10:00:00 PM 7.46 45.428 0.067 6.73 4.76 11.39
3/31/2021 10:15:00 PM 7.42 45.356 0.067 6.72 4.73 11.4
3/31/2021 10:30:00 PM 7.39 45.302 0.067 6.73 4.57 11.4
3/31/2021 10:45:00 PM 7.36 45.248 0.067 6.7 4.7 11.42
3/31/2021 11:00:00 PM 7.33 45.194 0.068 6.71 4.46 11.43
3/31/2021 11:15:00 PM 7.3 45.14 0.068 6.71 4.41 11.43
3/31/2021 11:30:00 PM 7.28 45.104 0.068 6.71 4.43 11.44
3/31/2021 11:45:00 PM 7.25 45.05 0.069 6.71 4.41 11.45
4/1/2021 12:00:00 AM 7.22 44.996 0.069 6.71 4.37 11.44
4/1/2021 12:15:00 AM 7.19 44.942 0.069 6.71 4.48 11.46
4/1/2021 12:30:00 AM 7.15 44.87 0.07 6.71 4.36 11.48
4/1/2021 12:45:00 AM 7.12 44.816 0.07 6.71 4.41 11.48
4/1/2021 1:00:00 AM 7.07 44.726 0.07 6.7 4.39 11.49
4/1/2021 1:15:00 AM 7.03 44.654 0.07 6.71 4.69 11.51
4/1/2021 1:30:00 AM 6.99 44.582 0.071 6.72 4.62 11.51
4/1/2021 1:45:00 AM 6.95 44.51 0.071 6.71 4.71 11.52
4/1/2021 2:00:00 AM 6.9 44.42 0.071 6.72 4.71 11.53
4/1/2021 2:15:00 AM 6.86 44.348 0.072 6.71 4.76 11.54
4/1/2021 2:30:00 AM 6.83 44.294 0.072 6.71 4.75 11.55
4/1/2021 2:45:00 AM 6.79 44.222 0.073 6.72 4.86 11.56
4/1/2021 3:00:00 AM 6.76 44.168 0.073 6.73 4.88 11.56
4/1/2021 3:15:00 AM 6.73 44.114 0.073 6.72 4.79 11.57
4/1/2021 3:30:00 AM 6.7 44.06 0.074 6.73 4.83 11.58
4/1/2021 3:45:00 AM 6.66 43.988 0.074 6.73 4.82 11.59
4/1/2021 4:00:00 AM 6.63 43.934 0.075 6.73 5.43 11.59
4/1/2021 4:15:00 AM 6.6 43.88 0.075 6.73 4.88 11.61
4/1/2021 4:30:00 AM 6.56 43.808 0.075 6.74 4.64 11.61
4/1/2021 4:45:00 AM 6.53 43.754 0.075 6.73 4.69 11.63
4/1/2021 5:00:00 AM 6.49 43.682 0.076 6.74 4.71 11.63
4/1/2021 5:15:00 AM 6.45 43.61 0.076 6.74 4.8 11.65
4/1/2021 5:30:00 AM 6.41 43.538 0.076 6.74 4.72 11.65
4/1/2021 5:45:00 AM 6.37 43.466 0.076 6.74 4.68 11.67
4/1/2021 6:00:00 AM 6.33 43.394 0.076 6.74 4.56 11.68
4/1/2021 6:15:00 AM 6.29 43.322 0.076 6.74 4.71 11.7
4/1/2021 6:30:00 AM 6.24 43.232 0.076 6.74 4.49 11.71
4/1/2021 6:45:00 AM 6.2 43.16 0.076 6.74 4.36 11.72
4/1/2021 7:00:00 AM 6.16 43.088 0.076 6.74 4.28 11.73
4/1/2021 7:15:00 AM 6.11 42.998 0.076 6.74 4.28 11.76
4/1/2021 7:30:00 AM 6.06 42.908 0.076 6.75 4.4 11.8
4/1/2021 7:45:00 AM 6.03 42.854 0.076 6.75 4.39 11.85
4/1/2021 8:00:00 AM 6 42.8 0.076 6.77 4.3 11.9
4/1/2021 8:15:00 AM 5.98 42.764 0.076 6.78 4.03 11.94
4/1/2021 8:30:00 AM 5.95 42.71 0.076 6.78 4.02 11.96
4/1/2021 8:45:00 AM 5.9 42.62 0.076 6.78 3.93 11.98
4/1/2021 9:00:00 AM 5.86 42.548 0.076 6.78 3.86 11.98
4/1/2021 9:15:00 AM 5.83 42.494 0.076 6.79 3.71 12.03
4/1/2021 9:30:00 AM 5.77 42.386 0.075 6.8 3.86 12.05
4/1/2021 9:45:00 AM 5.75 42.35 0.075 6.8 3.66 12.11
4/1/2021 10:00:00 AM 5.74 42.332 0.075 6.82 3.58 12.16
4/1/2021 10:15:00 AM 5.7 42.26 0.075 6.83 3.58 12.2
4/1/2021 10:30:00 AM 5.69 42.242 0.075 6.83 3.5 12.24
4/1/2021 10:45:00 AM 5.72 42.296 0.075 6.85 3.45 12.27
4/1/2021 11:00:00 AM 5.74 42.332 0.074 6.86 3.45 12.3
4/1/2021 11:15:00 AM 5.76 42.368 0.074 6.87 3.44 12.33
4/1/2021 11:30:00 AM 5.83 42.494 0.074 6.88 3.4 12.35
4/1/2021 11:45:00 AM 5.95 42.71 0.074 6.89 3.34 12.35
4/1/2021 12:00:00 PM 5.94 42.692 0.074 6.9 3.29 12.37
4/1/2021 12:15:00 PM 6.02 42.836 0.074 6.91 3.35 12.37
4/1/2021 12:30:00 PM 6.06 42.908 0.074 6.92 3.41 12.36
4/1/2021 12:45:00 PM 6.13 43.034 0.074 6.91 3.31 12.36
4/1/2021 1:00:00 PM 6.19 43.142 0.074 6.93 3.24 12.36
4/1/2021 1:15:00 PM 6.19 43.142 0.074 6.92 3.27 12.35
4/1/2021 1:30:00 PM 6.15 43.07 0.073 6.91 3.24 12.35
4/1/2021 1:45:00 PM 6.1 42.98 0.073 6.91 3.2 12.34
4/1/2021 2:00:00 PM 6.08 42.944 0.073 6.91 3.19 12.34
4/1/2021 2:15:00 PM 6.1 42.98 0.073 6.9 3.17 12.35
4/1/2021 2:30:00 PM 6.09 42.962 0.073 6.91 3.23 12.35
4/1/2021 2:45:00 PM 6.07 42.926 0.073 6.91 3.14 12.35
4/1/2021 3:00:00 PM 6.01 42.818 0.073 6.91 3.04 12.34
4/1/2021 3:15:00 PM 6.01 42.818 0.073 6.9 3.12 12.35
4/1/2021 3:30:00 PM 5.94 42.692 0.073 6.9 3.05 12.35
4/1/2021 3:45:00 PM 5.93 42.674 0.073 6.89 3.03 12.36
4/1/2021 4:00:00 PM 5.91 42.638 0.073 6.9 3 12.37
4/1/2021 4:15:00 PM 5.89 42.602 0.073 6.89 3.02 12.38
4/1/2021 4:30:00 PM 5.87 42.566 0.073 6.9 3.01 12.39
4/1/2021 4:45:00 PM 5.88 42.584 0.072 6.9 2.97 12.4
4/1/2021 5:00:00 PM 5.95 42.71 0.072 6.92 2.97 12.4
4/1/2021 5:15:00 PM 5.92 42.656 0.072 6.92 2.95 12.39
4/1/2021 5:30:00 PM 5.85 42.53 0.072 6.91 3.06 12.37
4/1/2021 5:45:00 PM 5.8 42.44 0.072 6.9 2.97 12.36
4/1/2021 6:00:00 PM 5.75 42.35 0.072 6.88 2.87 12.36
4/1/2021 6:15:00 PM 5.68 42.224 0.072 6.86 2.87 12.35
4/1/2021 6:30:00 PM 5.64 42.152 0.072 6.86 2.91 12.36
4/1/2021 6:45:00 PM 5.57 42.026 0.072 6.86 2.94 12.37
4/1/2021 7:00:00 PM 5.5 41.9 0.072 6.86 2.91 12.36
4/1/2021 7:15:00 PM 5.43 41.774 0.072 6.85 2.84 12.34
4/1/2021 7:30:00 PM 5.37 41.666 0.072 6.82 3.02 12.31
4/1/2021 7:45:00 PM 5.3 41.54 0.072 6.81 2.86 12.28
4/1/2021 8:00:00 PM 5.24 41.432 0.072 6.81 2.89 12.26
4/1/2021 8:15:00 PM 5.17 41.306 0.072 6.78 2.91 12.25
4/1/2021 8:30:00 PM 5.1 41.18 0.072 6.79 2.93 12.25
4/1/2021 8:45:00 PM 5.04 41.072 0.072 6.77 2.87 12.25
4/1/2021 9:00:00 PM 4.97 40.946 0.072 6.77 2.91 12.26
4/1/2021 9:15:00 PM 4.92 40.856 0.072 6.76 2.97 12.26
4/1/2021 9:30:00 PM 4.86 40.748 0.072 6.76 2.97 12.26
4/1/2021 9:45:00 PM 4.82 40.676 0.072 6.75 2.9 12.28
4/1/2021 10:00:00 PM 4.73 40.514 0.072 6.76 2.97 12.29
4/1/2021 10:15:00 PM 4.66 40.388 0.072 6.75 2.95 12.31
4/1/2021 10:30:00 PM 4.59 40.262 0.072 6.75 3.16 12.32
4/1/2021 10:45:00 PM 4.49 40.082 0.072 6.74 2.93 12.34
4/1/2021 11:00:00 PM 4.43 39.974 0.072 6.74 2.8 12.36
4/1/2021 11:15:00 PM 4.36 39.848 0.072 6.73 2.89 12.39
4/1/2021 11:30:00 PM 4.31 39.758 0.072 6.73 2.98 12.41
4/1/2021 11:45:00 PM 4.27 39.686 0.072 6.74 2.91 12.42
4/2/2021 12:00:00 AM 4.21 39.578 0.072 6.74 2.86 12.44
4/2/2021 12:15:00 AM 4.14 39.452 0.072 6.73 2.82 12.47
4/2/2021 12:30:00 AM 4.05 39.29 0.072 6.73 2.89 12.5
4/2/2021 12:45:00 AM 3.98 39.164 0.072 6.72 2.83 12.52
4/2/2021 1:00:00 AM 3.93 39.074 0.072 6.74 2.87 12.54
4/2/2021 1:15:00 AM 3.85 38.93 0.072 6.74 2.89 12.57
4/2/2021 1:30:00 AM 3.78 38.804 0.072 6.73 2.86 12.6
4/2/2021 1:45:00 AM 3.72 38.696 0.072 6.73 2.86 12.62
4/2/2021 2:00:00 AM 3.66 38.588 0.072 6.73 2.77 12.64
4/2/2021 2:15:00 AM 3.61 38.498 0.072 6.74 2.76 12.66
4/2/2021 2:30:00 AM 3.55 38.39 0.072 6.73 2.7 12.68
4/2/2021 2:45:00 AM 3.49 38.282 0.072 6.73 2.77 12.71
4/2/2021 3:00:00 AM 3.41 38.138 0.072 6.73 2.72 12.73
4/2/2021 3:15:00 AM 3.35 38.03 0.072 6.72 2.7 12.76
4/2/2021 3:30:00 AM 3.28 37.904 0.072 6.73 2.7 12.78
4/2/2021 3:45:00 AM 3.21 37.778 0.072 6.72 2.71 12.8
4/2/2021 4:00:00 AM 3.15 37.67 0.072 6.72 2.71 12.82
4/2/2021 4:15:00 AM 3.08 37.544 0.072 6.73 2.66 12.84
4/2/2021 4:30:00 AM 3.01 37.418 0.072 6.72 2.72 12.87
4/2/2021 4:45:00 AM 2.94 37.292 0.071 6.72 2.6 12.89
4/2/2021 5:00:00 AM 2.87 37.166 0.071 6.71 2.64 12.92
4/2/2021 5:15:00 AM 2.81 37.058 0.071 6.72 2.62 12.94
4/2/2021 5:30:00 AM 2.74 36.932 0.071 6.71 2.65 12.97
4/2/2021 5:45:00 AM 2.67 36.806 0.071 6.71 2.65 13
4/2/2021 6:00:00 AM 2.6 36.68 0.071 6.71 2.64 13.02
4/2/2021 6:15:00 AM 2.54 36.572 0.071 6.71 2.59 13.05
4/2/2021 6:30:00 AM 2.47 36.446 0.071 6.71 2.62 13.08
4/2/2021 6:45:00 AM 2.41 36.338 0.071 6.71 2.54 13.11
4/2/2021 7:00:00 AM 2.34 36.212 0.071 6.71 2.47 13.15
4/2/2021 7:15:00 AM 2.28 36.104 0.071 6.72 2.51 13.19
4/2/2021 7:30:00 AM 2.23 36.014 0.071 6.72 2.51 13.24
4/2/2021 7:45:00 AM 2.18 35.924 0.071 6.73 2.51 13.29
4/2/2021 8:00:00 AM 2.14 35.852 0.071 6.74 2.52 13.33
4/2/2021 8:15:00 AM 2.13 35.834 0.071 6.75 2.47 13.39
4/2/2021 8:30:00 AM 2.11 35.798 0.071 6.77 2.46 13.43
4/2/2021 8:45:00 AM 2.11 35.798 0.07 6.78 2.43 13.48
4/2/2021 9:00:00 AM 2.11 35.798 0.07 6.78 2.41 13.51
4/2/2021 9:15:00 AM 2.11 35.798 0.07 6.79 2.43 13.53
4/2/2021 9:30:00 AM 2.13 35.834 0.07 6.79 2.39 13.56
4/2/2021 9:45:00 AM 2.17 35.906 0.07 6.8 2.42 13.57
4/2/2021 10:00:00 AM 2.22 35.996 0.07 6.82 2.45 13.6
4/2/2021 10:15:00 AM 2.29 36.122 0.07 6.83 2.37 13.6
4/2/2021 10:30:00 AM 2.35 36.23 0.07 6.83 2.41 13.6
4/2/2021 10:45:00 AM 2.43 36.374 0.069 6.84 2.4 13.6
4/2/2021 11:00:00 AM 2.53 36.554 0.07 6.84 2.42 13.58
4/2/2021 11:15:00 AM 2.65 36.77 0.069 6.86 2.34 13.57
4/2/2021 11:30:00 AM 2.78 37.004 0.069 6.86 2.37 13.54
4/2/2021 11:45:00 AM 2.94 37.292 0.069 6.86 2.38 13.51
4/2/2021 12:00:00 PM 3.13 37.634 0.069 6.87 2.36 13.47
4/2/2021 12:15:00 PM 3.31 37.958 0.069 6.88 2.3 13.43
4/2/2021 12:30:00 PM 3.47 38.246 0.069 6.88 2.33 13.39
4/2/2021 12:45:00 PM 3.67 38.606 0.069 6.88 2.39 13.34
4/2/2021 1:00:00 PM 3.88 38.984 0.069 6.89 2.36 13.28
4/2/2021 1:15:00 PM 4.08 39.344 0.069 6.89 2.34 13.22
4/2/2021 1:30:00 PM 4.28 39.704 0.068 6.91 2.31 13.16
4/2/2021 1:45:00 PM 4.49 40.082 0.068 6.92 2.34 13.11
4/2/2021 2:00:00 PM 4.7 40.46 0.068 6.9 2.31 13.04
4/2/2021 2:15:00 PM 4.9 40.82 0.068 6.9 2.28 12.99
4/2/2021 2:30:00 PM 5.08 41.144 0.068 6.91 2.34 12.92
4/2/2021 2:45:00 PM 5.28 41.504 0.068 6.92 2.32 12.85
4/2/2021 3:00:00 PM 5.48 41.864 0.068 6.91 2.26 12.79
4/2/2021 3:15:00 PM 5.68 42.224 0.068 6.92 2.28 12.73
4/2/2021 3:30:00 PM 5.85 42.53 0.068 6.92 2.33 12.67
4/2/2021 3:45:00 PM 5.97 42.746 0.068 6.92 2.35 12.62
4/2/2021 4:00:00 PM 6.07 42.926 0.068 6.92 2.33 12.57
4/2/2021 4:15:00 PM 6.19 43.142 0.068 6.92 2.33 12.54
4/2/2021 4:30:00 PM 6.25 43.25 0.068 6.92 2.35 12.5
4/2/2021 4:45:00 PM 6.27 43.286 0.068 6.91 2.35 12.47
4/2/2021 5:00:00 PM 6.3 43.34 0.068 6.9 2.33 12.45
4/2/2021 5:15:00 PM 6.3 43.34 0.068 6.91 2.38 12.42
4/2/2021 5:30:00 PM 6.27 43.286 0.068 6.9 2.46 12.4
4/2/2021 5:45:00 PM 6.23 43.214 0.068 6.89 2.35 12.4
4/2/2021 6:00:00 PM 6.17 43.106 0.068 6.88 2.38 12.39
4/2/2021 6:15:00 PM 6.07 42.926 0.068 6.88 2.33 12.37
4/2/2021 6:30:00 PM 5.98 42.764 0.068 6.88 2.37 12.37
4/2/2021 6:45:00 PM 5.86 42.548 0.068 6.86 2.43 12.37
4/2/2021 7:00:00 PM 5.72 42.296 0.067 6.85 2.35 12.37
4/2/2021 7:15:00 PM 5.59 42.062 0.067 6.81 2.41 12.35
4/2/2021 7:30:00 PM 5.47 41.846 0.067 6.8 2.34 12.34
4/2/2021 7:45:00 PM 5.35 41.63 0.068 6.79 2.45 12.32
4/2/2021 8:00:00 PM 5.23 41.414 0.068 6.76 2.46 12.32
4/2/2021 8:15:00 PM 5.13 41.234 0.068 6.76 2.45 12.31
4/2/2021 8:30:00 PM 5.04 41.072 0.068 6.75 2.45 12.31
4/2/2021 8:45:00 PM 4.96 40.928 0.068 6.75 2.47 12.33
4/2/2021 9:00:00 PM 4.88 40.784 0.067 6.74 2.49 12.34
4/2/2021 9:15:00 PM 4.8 40.64 0.067 6.73 2.48 12.35
4/2/2021 9:30:00 PM 4.73 40.514 0.067 6.73 2.52 12.36
4/2/2021 9:45:00 PM 4.66 40.388 0.067 6.73 2.51 12.37
4/2/2021 10:00:00 PM 4.6 40.28 0.067 6.72 2.43 12.39
4/2/2021 10:15:00 PM 4.53 40.154 0.067 6.72 2.44 12.4
4/2/2021 10:30:00 PM 4.46 40.028 0.067 6.72 2.5 12.42
4/2/2021 10:45:00 PM 4.39 39.902 0.067 6.73 2.48 12.43
4/2/2021 11:00:00 PM 4.33 39.794 0.067 6.72 2.44 12.46
4/2/2021 11:15:00 PM 4.26 39.668 0.067 6.72 2.45 12.48
4/2/2021 11:30:00 PM 4.2 39.56 0.067 6.7 2.48 12.5
4/2/2021 11:45:00 PM 4.13 39.434 0.067 6.71 2.5 12.51
4/3/2021 12:00:00 AM 4.06 39.308 0.067 6.72 2.48 12.54
4/3/2021 12:15:00 AM 3.99 39.182 0.067 6.71 2.43 12.56
4/3/2021 12:30:00 AM 3.93 39.074 0.067 6.71 2.54 12.58
4/3/2021 12:45:00 AM 3.86 38.948 0.067 6.7 2.41 12.61
4/3/2021 1:00:00 AM 3.79 38.822 0.067 6.71 2.47 12.63
4/3/2021 1:15:00 AM 3.72 38.696 0.067 6.7 2.42 12.66
4/3/2021 1:30:00 AM 3.65 38.57 0.067 6.69 2.44 12.69
4/3/2021 1:45:00 AM 3.58 38.444 0.067 6.71 2.44 12.71
4/3/2021 2:00:00 AM 3.51 38.318 0.067 6.71 2.46 12.73
4/3/2021 2:15:00 AM 3.45 38.21 0.067 6.7 2.47 12.76
4/3/2021 2:30:00 AM 3.38 38.084 0.067 6.7 2.45 12.78
4/3/2021 2:45:00 AM 3.31 37.958 0.067 6.69 2.41 12.81
4/3/2021 3:00:00 AM 3.25 37.85 0.067 6.69 2.43 12.83
4/3/2021 3:15:00 AM 3.19 37.742 0.067 6.7 2.43 12.85
4/3/2021 3:30:00 AM 3.13 37.634 0.067 6.69 2.45 12.87
4/3/2021 3:45:00 AM 3.06 37.508 0.067 6.7 2.49 12.9
4/3/2021 4:00:00 AM 2.99 37.382 0.067 6.7 2.38 12.92
4/3/2021 4:15:00 AM 2.93 37.274 0.067 6.7 2.39 12.94
4/3/2021 4:30:00 AM 2.86 37.148 0.067 6.69 2.41 12.97
4/3/2021 4:45:00 AM 2.8 37.04 0.067 6.7 2.41 12.99
4/3/2021 5:00:00 AM 2.73 36.914 0.067 6.69 2.38 13.02
4/3/2021 5:15:00 AM 2.66 36.788 0.067 6.7 2.47 13.05
4/3/2021 5:30:00 AM 2.6 36.68 0.067 6.69 2.37 13.08
4/3/2021 5:45:00 AM 2.53 36.554 0.067 6.68 2.35 13.1
4/3/2021 6:00:00 AM 2.46 36.428 0.067 6.69 2.4 13.14
4/3/2021 6:15:00 AM 2.39 36.302 0.067 6.69 2.35 13.16
4/3/2021 6:30:00 AM 2.32 36.176 0.067 6.69 2.38 13.19
4/3/2021 6:45:00 AM 2.25 36.05 0.067 6.69 2.51 13.22
4/3/2021 7:00:00 AM 2.19 35.942 0.067 6.69 2.53 13.25
4/3/2021 7:15:00 AM 2.12 35.816 0.067 6.69 2.4 13.31
4/3/2021 7:30:00 AM 2.07 35.726 0.067 6.71 2.41 13.36
4/3/2021 7:45:00 AM 2.02 35.636 0.067 6.71 2.44 13.4
4/3/2021 8:00:00 AM 1.98 35.564 0.067 6.72 2.41 13.46
4/3/2021 8:15:00 AM 1.96 35.528 0.067 6.73 2.38 13.52
4/3/2021 8:30:00 AM 1.95 35.51 0.067 6.74 2.34 13.56
4/3/2021 8:45:00 AM 1.95 35.51 0.066 6.75 2.29 13.6
4/3/2021 9:00:00 AM 1.98 35.564 0.067 6.77 2.24 13.63
4/3/2021 9:15:00 AM 2.01 35.618 0.066 6.78 2.34 13.66
4/3/2021 9:30:00 AM 2.07 35.726 0.066 6.79 2.32 13.68
4/3/2021 9:45:00 AM 2.12 35.816 0.066 6.8 2.22 13.69
4/3/2021 10:00:00 AM 2.21 35.978 0.066 6.8 2.25 13.69
4/3/2021 10:15:00 AM 2.32 36.176 0.066 6.83 2.25 13.69
4/3/2021 10:30:00 AM 2.43 36.374 0.066 6.83 2.27 13.68
4/3/2021 10:45:00 AM 2.56 36.608 0.066 6.84 2.31 13.65
4/3/2021 11:00:00 AM 2.7 36.86 0.066 6.85 2.31 13.63
4/3/2021 11:15:00 AM 2.86 37.148 0.066 6.86 2.4 13.6
4/3/2021 11:30:00 AM 2.98 37.364 0.065 6.87 2.71 13.58
4/3/2021 11:45:00 AM 3.13 37.634 0.065 6.87 2.3 13.54
4/3/2021 12:00:00 PM 3.28 37.904 0.065 6.87 2.25 13.51
4/3/2021 12:15:00 PM 3.53 38.354 0.065 6.89 2.22 13.46
4/3/2021 12:30:00 PM 3.7 38.66 0.065 6.89 2.24 13.41
4/3/2021 12:45:00 PM 3.9 39.02 0.065 6.9 2.24 13.35
4/3/2021 1:00:00 PM 4.08 39.344 0.065 6.9 2.32 13.29
4/3/2021 1:15:00 PM 4.34 39.812 0.065 6.91 2.1 13.22
4/3/2021 1:30:00 PM 4.48 40.064 0.065 6.9 2.2 13.16
4/3/2021 1:45:00 PM 4.76 40.568 0.065 6.92 2.22 13.1
4/3/2021 2:00:00 PM 5 41 0.065 6.91 2.22 13.01
4/3/2021 2:15:00 PM 5.23 41.414 0.065 6.92 2.21 12.95
4/3/2021 2:30:00 PM 5.41 41.738 0.065 6.92 2.33 12.87
4/3/2021 2:45:00 PM 5.58 42.044 0.065 6.92 2.23 12.81
4/3/2021 3:00:00 PM 5.74 42.332 0.065 6.92 2.2 12.75
4/3/2021 3:15:00 PM 5.91 42.638 0.065 6.93 2.2 12.7
4/3/2021 3:30:00 PM 6.03 42.854 0.065 6.92 2.26 12.66
4/3/2021 3:45:00 PM 6.17 43.106 0.064 6.93 2.28 12.61
4/3/2021 4:00:00 PM 6.22 43.196 0.064 6.92 2.21 12.57
4/3/2021 4:15:00 PM 6.3 43.34 0.065 6.92 2.35 12.54
4/3/2021 4:30:00 PM 6.33 43.394 0.065 6.92 2.31 12.5
4/3/2021 4:45:00 PM 6.36 43.448 0.064 6.92 2.33 12.48
4/3/2021 5:00:00 PM 6.37 43.466 0.064 6.9 2.3 12.45
4/3/2021 5:15:00 PM 6.41 43.538 0.064 6.91 2.31 12.43
4/3/2021 5:30:00 PM 6.43 43.574 0.064 6.9 2.27 12.41
4/3/2021 5:45:00 PM 6.42 43.556 0.064 6.9 2.35 12.37
4/3/2021 6:00:00 PM 6.4 43.52 0.064 6.89 2.34 12.33
4/3/2021 6:15:00 PM 6.38 43.484 0.064 6.89 2.33 12.29
4/3/2021 6:30:00 PM 6.36 43.448 0.064 6.88 2.31 12.27
4/3/2021 6:45:00 PM 6.34 43.412 0.064 6.86 2.39 12.24
4/3/2021 7:00:00 PM 6.3 43.34 0.064 6.86 2.43 12.2
4/3/2021 7:15:00 PM 6.26 43.268 0.064 6.84 2.45 12.17
4/3/2021 7:30:00 PM 6.22 43.196 0.064 6.83 2.38 12.13
4/3/2021 7:45:00 PM 6.17 43.106 0.065 6.81 2.36 12.09
4/3/2021 8:00:00 PM 6.12 43.016 0.065 6.8 2.44 12.06
4/3/2021 8:15:00 PM 6.08 42.944 0.065 6.79 2.42 12.03
4/3/2021 8:30:00 PM 6.04 42.872 0.065 6.77 2.46 12.02
4/3/2021 8:45:00 PM 6 42.8 0.065 6.76 2.44 12.01
4/3/2021 9:00:00 PM 5.97 42.746 0.065 6.76 2.4 11.99
4/3/2021 9:15:00 PM 5.96 42.728 0.065 6.75 2.44 11.99
4/3/2021 9:30:00 PM 5.94 42.692 0.065 6.75 2.39 11.97
4/3/2021 9:45:00 PM 5.92 42.656 0.065 6.74 2.42 11.97
4/3/2021 10:00:00 PM 5.91 42.638 0.065 6.74 2.46 11.97
4/3/2021 10:15:00 PM 5.89 42.602 0.065 6.74 2.44 11.96
4/3/2021 10:30:00 PM 5.87 42.566 0.065 6.74 2.36 11.96
4/3/2021 10:45:00 PM 5.85 42.53 0.065 6.74 2.39 11.97
4/3/2021 11:00:00 PM 5.83 42.494 0.065 6.73 2.34 11.97
4/3/2021 11:15:00 PM 5.81 42.458 0.064 6.73 2.41 11.97
4/3/2021 11:30:00 PM 5.78 42.404 0.065 6.73 2.41 11.97
4/3/2021 11:45:00 PM 5.76 42.368 0.065 6.72 2.44 11.98
4/4/2021 12:00:00 AM 5.73 42.314 0.065 6.73 2.41 11.98
4/4/2021 12:15:00 AM 5.7 42.26 0.065 6.72 2.47 11.99
4/4/2021 12:30:00 AM 5.67 42.206 0.065 6.72 2.45 11.99
4/4/2021 12:45:00 AM 5.64 42.152 0.065 6.72 2.44 12
4/4/2021 1:00:00 AM 5.61 42.098 0.065 6.71 2.4 12.01
4/4/2021 1:15:00 AM 5.59 42.062 0.065 6.71 2.45 12.01
4/4/2021 1:30:00 AM 5.56 42.008 0.065 6.71 2.4 12.02
4/4/2021 1:45:00 AM 5.53 41.954 0.065 6.71 2.42 12.03
4/4/2021 2:00:00 AM 5.5 41.9 0.065 6.71 2.4 12.03
4/4/2021 2:15:00 AM 5.45 41.81 0.065 6.7 2.35 12.04
4/4/2021 2:30:00 AM 5.4 41.72 0.065 6.7 2.36 12.05
4/4/2021 2:45:00 AM 5.34 41.612 0.065 6.7 2.4 12.06
4/4/2021 3:00:00 AM 5.28 41.504 0.065 6.7 2.4 12.08
4/4/2021 3:15:00 AM 5.23 41.414 0.065 6.69 2.42 12.09
4/4/2021 3:30:00 AM 5.17 41.306 0.065 6.69 2.42 12.11
4/4/2021 3:45:00 AM 5.11 41.198 0.065 6.69 2.36 12.12
4/4/2021 4:00:00 AM 5.05 41.09 0.065 6.69 2.41 12.14
4/4/2021 4:15:00 AM 4.99 40.982 0.065 6.69 2.44 12.16
4/4/2021 4:30:00 AM 4.94 40.892 0.065 6.69 2.4 12.17
4/4/2021 4:45:00 AM 4.89 40.802 0.065 6.68 2.36 12.19
4/4/2021 5:00:00 AM 4.86 40.748 0.065 6.69 2.42 12.2
4/4/2021 5:15:00 AM 4.82 40.676 0.065 6.69 2.36 12.22
4/4/2021 5:30:00 AM 4.77 40.586 0.065 6.68 2.34 12.24
4/4/2021 5:45:00 AM 4.71 40.478 0.065 6.7 2.4 12.26
4/4/2021 6:00:00 AM 4.66 40.388 0.065 6.69 2.27 12.27
4/4/2021 6:15:00 AM 4.6 40.28 0.065 6.69 2.36 12.28
4/4/2021 6:30:00 AM 4.54 40.172 0.065 6.69 2.47 12.3
4/4/2021 6:45:00 AM 4.48 40.064 0.065 6.67 2.56 12.33
4/4/2021 7:00:00 AM 4.42 39.956 0.065 6.69 2.45 12.35
4/4/2021 7:15:00 AM 4.37 39.866 0.065 6.69 2.32 12.4
4/4/2021 7:30:00 AM 4.32 39.776 0.065 6.71 2.53 12.46
4/4/2021 7:45:00 AM 4.27 39.686 0.065 6.72 2.46 12.51
4/4/2021 8:00:00 AM 4.24 39.632 0.065 6.72 2.49 12.57
4/4/2021 8:15:00 AM 4.22 39.596 0.065 6.74 2.37 12.62
4/4/2021 8:30:00 AM 4.21 39.578 0.065 6.76 2.33 12.67
4/4/2021 8:45:00 AM 4.22 39.596 0.065 6.78 2.3 12.72
4/4/2021 9:00:00 AM 4.24 39.632 0.065 6.78 2.26 12.75
4/4/2021 9:15:00 AM 4.27 39.686 0.065 6.81 2.22 12.78
4/4/2021 9:30:00 AM 4.31 39.758 0.065 6.82 2.24 12.8
4/4/2021 9:45:00 AM 4.38 39.884 0.065 6.83 2.25 12.82
4/4/2021 10:00:00 AM 4.46 40.028 0.065 6.84 2.28 12.82
4/4/2021 10:15:00 AM 4.56 40.208 0.065 6.85 2.22 12.83
4/4/2021 10:30:00 AM 4.68 40.424 0.065 6.86 2.19 12.82
4/4/2021 10:45:00 AM 4.82 40.676 0.065 6.87 2.26 12.81
4/4/2021 11:00:00 AM 4.98 40.964 0.065 6.88 2.17 12.79
4/4/2021 11:15:00 AM 5.16 41.288 0.064 6.89 2.25 12.76
4/4/2021 11:30:00 AM 5.36 41.648 0.064 6.91 2.2 12.72
4/4/2021 11:45:00 AM 5.59 42.062 0.064 6.92 2.13 12.69
4/4/2021 12:00:00 PM 5.82 42.476 0.064 6.92 2.18 12.64
4/4/2021 12:15:00 PM 6.05 42.89 0.064 6.92 2.21 12.59
4/4/2021 12:30:00 PM 6.3 43.34 0.064 6.94 2.22 12.53
4/4/2021 12:45:00 PM 6.56 43.808 0.064 6.95 2.21 12.47
4/4/2021 1:00:00 PM 6.81 44.258 0.064 6.95 2.19 12.41
4/4/2021 1:15:00 PM 7.07 44.726 0.064 6.97 2.19 12.34
4/4/2021 1:30:00 PM 7.33 45.194 0.064 6.97 2.25 12.28
4/4/2021 1:45:00 PM 7.59 45.662 0.064 6.98 2.22 12.21
4/4/2021 2:00:00 PM 7.85 46.13 0.064 6.99 2.2 12.14
4/4/2021 2:15:00 PM 8.1 46.58 0.063 6.99 2.19 12.06
4/4/2021 2:30:00 PM 8.34 47.012 0.063 6.98 2.26 11.99
4/4/2021 2:45:00 PM 8.59 47.462 0.063 6.99 2.26 11.92
4/4/2021 3:00:00 PM 8.81 47.858 0.063 6.99 2.25 11.85
4/4/2021 3:15:00 PM 9.03 48.254 0.063 6.99 2.2 11.79
4/4/2021 3:30:00 PM 9.24 48.632 0.063 6.99 2.32 11.73
4/4/2021 3:45:00 PM 9.44 48.992 0.063 7 2.22 11.66
4/4/2021 4:00:00 PM 9.6 49.28 0.063 7 2.26 11.6
4/4/2021 4:15:00 PM 9.74 49.532 0.063 7 2.4 11.55
4/4/2021 4:30:00 PM 9.87 49.766 0.063 7 2.23 11.5
4/4/2021 4:45:00 PM 9.94 49.892 0.063 7 2.35 11.46
4/4/2021 5:00:00 PM 10.01 50.018 0.063 6.99 2.41 11.43
4/4/2021 5:15:00 PM 10.05 50.09 0.063 6.98 2.44 11.4
4/4/2021 5:30:00 PM 10.06 50.108 0.063 6.98 2.33 11.37
4/4/2021 5:45:00 PM 10.04 50.072 0.063 6.97 2.36 11.35
4/4/2021 6:00:00 PM 10 50 0.063 6.96 2.39 11.33
4/4/2021 6:15:00 PM 9.93 49.874 0.063 6.95 2.39 11.31
4/4/2021 6:30:00 PM 9.84 49.712 0.063 6.93 2.34 11.29
4/4/2021 6:45:00 PM 9.75 49.55 0.063 6.91 2.39 11.27
4/4/2021 7:00:00 PM 9.64 49.352 0.064 6.9 2.46 11.24
4/4/2021 7:15:00 PM 9.52 49.136 0.064 6.87 2.4 11.21
4/4/2021 7:30:00 PM 9.4 48.92 0.064 6.85 2.48 11.17
4/4/2021 7:45:00 PM 9.27 48.686 0.064 6.82 2.45 11.14
4/4/2021 8:00:00 PM 9.16 48.488 0.064 6.8 2.42 11.11
4/4/2021 8:15:00 PM 9.06 48.308 0.064 6.77 2.49 11.1
4/4/2021 8:30:00 PM 8.96 48.128 0.064 6.75 2.66 11.08
4/4/2021 8:45:00 PM 8.86 47.948 0.064 6.73 2.52 11.09
4/4/2021 9:00:00 PM 8.77 47.786 0.064 6.72 2.57 11.09
4/4/2021 9:15:00 PM 8.68 47.624 0.064 6.71 2.57 11.09
4/4/2021 9:30:00 PM 8.6 47.48 0.064 6.7 2.55 11.1
4/4/2021 9:45:00 PM 8.52 47.336 0.065 6.7 2.61 11.11
4/4/2021 10:00:00 PM 8.44 47.192 0.065 6.7 2.62 11.12
4/4/2021 10:15:00 PM 8.36 47.048 0.065 6.7 2.56 11.13
4/4/2021 10:30:00 PM 8.28 46.904 0.065 6.7 2.68 11.15
4/4/2021 10:45:00 PM 8.2 46.76 0.065 6.7 2.55 11.16
4/4/2021 11:00:00 PM 8.12 46.616 0.065 6.7 2.76 11.19
4/4/2021 11:15:00 PM 8.03 46.454 0.065 6.69 2.83 11.21
4/4/2021 11:30:00 PM 7.95 46.31 0.065 6.69 2.84 11.22
4/4/2021 11:45:00 PM 7.87 46.166 0.065 6.7 2.83 11.24
4/5/2021 12:00:00 AM 7.79 46.022 0.065 6.69 2.75 11.26
4/5/2021 12:15:00 AM 7.71 45.878 0.065 6.69 2.78 11.29
4/5/2021 12:30:00 AM 7.62 45.716 0.065 6.69 2.79 11.32
4/5/2021 12:45:00 AM 7.54 45.572 0.065 6.69 2.67 11.33
4/5/2021 1:00:00 AM 7.45 45.41 0.065 6.69 2.66 11.36
4/5/2021 1:15:00 AM 7.37 45.266 0.065 6.69 2.57 11.39
4/5/2021 1:30:00 AM 7.28 45.104 0.065 6.69 2.6 11.42
4/5/2021 1:45:00 AM 7.19 44.942 0.065 6.68 2.54 11.44
4/5/2021 2:00:00 AM 7.11 44.798 0.065 6.69 2.55 11.46
4/5/2021 2:15:00 AM 7.02 44.636 0.065 6.68 2.58 11.49
4/5/2021 2:30:00 AM 6.93 44.474 0.065 6.68 2.55 11.51
4/5/2021 2:45:00 AM 6.85 44.33 0.065 6.69 2.58 11.54
4/5/2021 3:00:00 AM 6.76 44.168 0.065 6.69 2.53 11.57
4/5/2021 3:15:00 AM 6.68 44.024 0.065 6.69 2.6 11.58
4/5/2021 3:30:00 AM 6.6 43.88 0.065 6.7 2.64 11.61
4/5/2021 3:45:00 AM 6.52 43.736 0.065 6.69 2.63 11.64
4/5/2021 4:00:00 AM 6.44 43.592 0.065 6.69 2.58 11.66
4/5/2021 4:15:00 AM 6.36 43.448 0.065 6.69 2.56 11.69
4/5/2021 4:30:00 AM 6.28 43.304 0.065 6.7 2.58 11.71
4/5/2021 4:45:00 AM 6.2 43.16 0.065 6.7 2.73 11.74
4/5/2021 5:00:00 AM 6.13 43.034 0.065 6.7 2.62 11.77
4/5/2021 5:15:00 AM 6.05 42.89 0.065 6.7 2.55 11.79
4/5/2021 5:30:00 AM 5.98 42.764 0.065 6.69 2.59 11.82
4/5/2021 5:45:00 AM 5.9 42.62 0.065 6.7 2.51 11.84
4/5/2021 6:00:00 AM 5.83 42.494 0.065 6.7 2.58 11.87
4/5/2021 6:15:00 AM 5.75 42.35 0.065 6.7 2.59 11.89
4/5/2021 6:30:00 AM 5.68 42.224 0.065 6.7 2.56 11.92
4/5/2021 6:45:00 AM 5.6 42.08 0.065 6.7 2.62 11.94
4/5/2021 7:00:00 AM 5.54 41.972 0.065 6.71 2.69 11.98
4/5/2021 7:15:00 AM 5.47 41.846 0.065 6.72 2.55 12.03
4/5/2021 7:30:00 AM 5.42 41.756 0.065 6.73 2.51 12.1
4/5/2021 7:45:00 AM 5.37 41.666 0.065 6.74 2.5 12.17
4/5/2021 8:00:00 AM 5.32 41.576 0.065 6.76 2.49 12.24
4/5/2021 8:15:00 AM 5.29 41.522 0.065 6.78 2.41 12.3
4/5/2021 8:30:00 AM 5.27 41.486 0.065 6.79 2.3 12.37
4/5/2021 8:45:00 AM 5.26 41.468 0.065 6.81 2.35 12.41
4/5/2021 9:00:00 AM 5.26 41.468 0.065 6.8 2.25 12.45
4/5/2021 9:15:00 AM 5.28 41.504 0.065 6.82 2.33 12.49
4/5/2021 9:30:00 AM 5.31 41.558 0.065 6.83 2.32 12.52
4/5/2021 9:45:00 AM 5.37 41.666 0.065 6.85 2.3 12.54
4/5/2021 10:00:00 AM 5.44 41.792 0.065 6.86 2.28 12.56
4/5/2021 10:15:00 AM 5.53 41.954 0.065 6.87 2.29 12.56
4/5/2021 10:30:00 AM 5.65 42.17 0.065 6.89 2.27 12.56
4/5/2021 10:45:00 AM 5.78 42.404 0.065 6.91 2.25 12.55
4/5/2021 11:00:00 AM 5.92 42.656 0.065 6.93 2.25 12.54
4/5/2021 11:15:00 AM 6.08 42.944 0.065 6.93 2.2 12.53
4/5/2021 11:30:00 AM 6.26 43.268 0.065 6.95 2.26 12.49
4/5/2021 11:45:00 AM 6.45 43.61 0.064 6.96 2.19 12.46
4/5/2021 12:00:00 PM 6.67 44.006 0.064 6.96 2.18 12.42
4/5/2021 12:15:00 PM 6.89 44.402 0.064 6.98 2.21 12.37
4/5/2021 12:30:00 PM 7.13 44.834 0.064 6.99 2.22 12.32
4/5/2021 12:45:00 PM 7.36 45.248 0.064 7 2.16 12.27
4/5/2021 1:00:00 PM 7.58 45.644 0.064 6.99 2.18 12.22
4/5/2021 1:15:00 PM 7.81 46.058 0.064 6.99 2.19 12.17
4/5/2021 1:30:00 PM 8.05 46.49 0.064 7 2.23 12.11
4/5/2021 1:45:00 PM 8.27 46.886 0.064 7.03 2.2 12.06
4/5/2021 2:00:00 PM 8.49 47.282 0.064 7.02 2.22 12
4/5/2021 2:15:00 PM 8.72 47.696 0.064 7.04 2.29 11.95
4/5/2021 2:30:00 PM 8.89 48.002 0.064 7.06 2.3 11.89
4/5/2021 2:45:00 PM 9.1 48.38 0.064 7.06 2.35 11.84
4/5/2021 3:00:00 PM 9.28 48.704 0.064 7.07 2.32 11.78
4/5/2021 3:15:00 PM 9.41 48.938 0.064 7.07 2.38 11.73
4/5/2021 3:30:00 PM 9.53 49.154 0.064 7.08 2.37 11.68
4/5/2021 3:45:00 PM 9.62 49.316 0.064 7.06 2.52 11.64
4/5/2021 4:00:00 PM 9.67 49.406 0.064 7.07 2.95 11.6
4/5/2021 4:15:00 PM 9.71 49.478 0.064 7.06 3.11 11.56
4/5/2021 4:30:00 PM 9.74 49.532 0.064 7.05 3.07 11.52
4/5/2021 4:45:00 PM 9.75 49.55 0.064 7.05 2.9 11.49
4/5/2021 5:00:00 PM 9.74 49.532 0.064 7.03 2.79 11.46
4/5/2021 5:15:00 PM 9.71 49.478 0.064 7.01 2.81 11.43
4/5/2021 5:30:00 PM 9.68 49.424 0.064 7.01 2.6 11.39
4/5/2021 5:45:00 PM 9.64 49.352 0.064 6.99 2.49 11.37
4/5/2021 6:00:00 PM 9.6 49.28 0.064 6.96 2.43 11.34
4/5/2021 6:15:00 PM 9.56 49.208 0.064 6.94 2.45 11.32
4/5/2021 6:30:00 PM 9.52 49.136 0.064 6.93 2.7 11.3
4/5/2021 6:45:00 PM 9.47 49.046 0.064 6.93 2.64 11.27
4/5/2021 7:00:00 PM 9.43 48.974 0.064 6.9 2.57 11.22
4/5/2021 7:15:00 PM 9.38 48.884 0.064 6.87 2.52 11.19
4/5/2021 7:30:00 PM 9.33 48.794 0.064 6.86 2.44 11.15
4/5/2021 7:45:00 PM 9.28 48.704 0.064 6.84 2.5 11.1
4/5/2021 8:00:00 PM 9.24 48.632 0.064 6.82 2.46 11.06
4/5/2021 8:15:00 PM 9.2 48.56 0.065 6.81 2.49 11.04
4/5/2021 8:30:00 PM 9.17 48.506 0.065 6.8 2.54 11.01
4/5/2021 8:45:00 PM 9.13 48.434 0.065 6.78 2.62 11
4/5/2021 9:00:00 PM 9.1 48.38 0.065 6.82 2.64 10.99
4/5/2021 9:15:00 PM 9.08 48.344 0.065 6.8 2.57 10.98
4/5/2021 9:30:00 PM 9.05 48.29 0.065 6.77 2.56 10.97
4/5/2021 9:45:00 PM 9.03 48.254 0.065 6.8 2.4 10.97
4/5/2021 10:00:00 PM 9 48.2 0.065 6.78 2.52 10.97
4/5/2021 10:15:00 PM 8.98 48.164 0.065 6.77 2.52 10.97
4/5/2021 10:30:00 PM 8.96 48.128 0.065 6.77 2.45 10.97
4/5/2021 10:45:00 PM 8.94 48.092 0.065 6.77 2.59 10.98
4/5/2021 11:00:00 PM 8.91 48.038 0.065 6.76 2.49 10.97
4/5/2021 11:15:00 PM 8.88 47.984 0.065 6.76 2.41 10.98
4/5/2021 11:30:00 PM 8.85 47.93 0.065 6.76 2.54 10.98
4/5/2021 11:45:00 PM 8.82 47.876 0.065 6.75 2.39 10.99
4/6/2021 12:00:00 AM 8.79 47.822 0.065 6.76 2.44 11
4/6/2021 12:15:00 AM 8.76 47.768 0.065 6.75 2.5 11
4/6/2021 12:30:00 AM 8.72 47.696 0.066 6.75 2.45 11.01
4/6/2021 12:45:00 AM 8.69 47.642 0.066 6.76 2.53 11.02
4/6/2021 1:00:00 AM 8.65 47.57 0.066 6.76 2.41 11.03
4/6/2021 1:15:00 AM 8.61 47.498 0.066 6.74 2.5 11.04
4/6/2021 1:30:00 AM 8.58 47.444 0.066 6.75 2.52 11.05
4/6/2021 1:45:00 AM 8.54 47.372 0.066 6.75 2.35 11.06
4/6/2021 2:00:00 AM 8.48 47.264 0.066 6.75 2.47 11.07
4/6/2021 2:15:00 AM 8.42 47.156 0.066 6.74 2.37 11.08
4/6/2021 2:30:00 AM 8.38 47.084 0.066 6.73 2.38 11.09
4/6/2021 2:45:00 AM 8.33 46.994 0.066 6.74 2.56 11.11
4/6/2021 3:00:00 AM 8.28 46.904 0.066 6.73 2.42 11.12
4/6/2021 3:15:00 AM 8.22 46.796 0.066 6.73 2.39 11.13
4/6/2021 3:30:00 AM 8.16 46.688 0.066 6.72 2.38 11.15
4/6/2021 3:45:00 AM 8.1 46.58 0.066 6.73 2.44 11.17
4/6/2021 4:00:00 AM 8.03 46.454 0.066 6.72 2.42 11.18
4/6/2021 4:15:00 AM 7.96 46.328 0.066 6.72 2.38 11.2
4/6/2021 4:30:00 AM 7.9 46.22 0.066 6.72 2.41 11.22
4/6/2021 4:45:00 AM 7.83 46.094 0.066 6.73 2.42 11.23
4/6/2021 5:00:00 AM 7.76 45.968 0.066 6.73 2.39 11.25
4/6/2021 5:15:00 AM 7.7 45.86 0.066 6.72 2.37 11.27
4/6/2021 5:30:00 AM 7.63 45.734 0.066 6.73 2.34 11.28
4/6/2021 5:45:00 AM 7.56 45.608 0.066 6.72 2.39 11.31
4/6/2021 6:00:00 AM 7.5 45.5 0.066 6.72 2.47 11.32
4/6/2021 6:15:00 AM 7.43 45.374 0.066 6.73 2.5 11.34
4/6/2021 6:30:00 AM 7.38 45.284 0.066 6.73 2.46 11.37
4/6/2021 6:45:00 AM 7.34 45.212 0.066 6.73 2.37 11.38
4/6/2021 7:00:00 AM 7.3 45.14 0.066 6.73 2.35 11.41
4/6/2021 7:15:00 AM 7.26 45.068 0.066 6.74 2.41 11.46
4/6/2021 7:30:00 AM 7.23 45.014 0.066 6.76 2.39 11.52
4/6/2021 7:45:00 AM 7.21 44.978 0.066 6.8 2.32 11.6
4/6/2021 8:00:00 AM 7.21 44.978 0.066 6.81 2.29 11.67
4/6/2021 8:15:00 AM 7.19 44.942 0.066 6.83 2.33 11.72
4/6/2021 8:30:00 AM 7.17 44.906 0.066 6.84 2.39 11.78
4/6/2021 8:45:00 AM 7.16 44.888 0.066 6.87 2.37 11.85
4/6/2021 9:00:00 AM 7.18 44.924 0.066 6.88 2.28 11.9
4/6/2021 9:15:00 AM 7.21 44.978 0.066 6.9 2.24 11.94
4/6/2021 9:30:00 AM 7.24 45.032 0.066 6.92 2.36 11.98
4/6/2021 9:45:00 AM 7.29 45.122 0.066 6.93 2.29 12
4/6/2021 10:00:00 AM 7.37 45.266 0.066 6.95 2.24 12.02
4/6/2021 10:15:00 AM 7.47 45.446 0.065 6.97 2.29 12.03
4/6/2021 10:30:00 AM 7.58 45.644 0.065 7 2.2 12.04
4/6/2021 10:45:00 AM 7.7 45.86 0.065 7.01 2.2 12.03
4/6/2021 11:00:00 AM 7.84 46.112 0.065 7.02 2.24 12.02
4/6/2021 11:15:00 AM 8.01 46.418 0.065 7.04 2.22 12.01
4/6/2021 11:30:00 AM 8.2 46.76 0.065 7.05 2.15 11.98
4/6/2021 11:45:00 AM 8.39 47.102 0.065 7.07 2.2 11.95
4/6/2021 12:00:00 PM 8.61 47.498 0.065 7.07 2.14 11.91
4/6/2021 12:15:00 PM 8.85 47.93 0.065 7.09 2.2 11.86
4/6/2021 12:30:00 PM 9.07 48.326 0.065 7.11 2.19 11.83
4/6/2021 12:45:00 PM 9.31 48.758 0.065 7.13 2.13 11.79
4/6/2021 1:00:00 PM 9.56 49.208 0.065 7.13 2.17 11.73
4/6/2021 1:15:00 PM 9.78 49.604 0.065 7.14 2.21 11.68
4/6/2021 1:30:00 PM 10.05 50.09 0.065 7.13 2.11 11.63
4/6/2021 1:45:00 PM 10.35 50.63 0.065 7.15 2.14 11.55
4/6/2021 2:00:00 PM 10.61 51.098 0.065 7.14 2.16 11.48
4/6/2021 2:15:00 PM 10.88 51.584 0.065 7.16 2.24 11.41
4/6/2021 2:30:00 PM 11.16 52.088 0.065 7.18 2.43 11.35
4/6/2021 2:45:00 PM 11.31 52.358 0.065 7.17 2.2 11.27
4/6/2021 3:00:00 PM 11.51 52.718 0.065 7.18 2.23 11.22
4/6/2021 3:15:00 PM 11.82 53.276 0.065 7.19 2.26 11.16
4/6/2021 3:30:00 PM 11.83 53.294 0.065 7.18 2.24 11.1
4/6/2021 3:45:00 PM 11.87 53.366 0.065 7.17 2.22 11.06
4/6/2021 4:00:00 PM 11.96 53.528 0.065 7.16 2.43 11.01
4/6/2021 4:15:00 PM 12.03 53.654 0.065 7.17 2.3 10.96
4/6/2021 4:30:00 PM 12.08 53.744 0.065 7.15 2.26 10.93
4/6/2021 4:45:00 PM 12.15 53.87 0.065 7.14 2.24 10.9
4/6/2021 5:00:00 PM 12.31 54.158 0.066 7.16 2.26 10.88
4/6/2021 5:15:00 PM 12.39 54.302 0.066 7.17 2.31 10.85
4/6/2021 5:30:00 PM 12.42 54.356 0.066 7.16 2.23 10.82
4/6/2021 5:45:00 PM 12.5 54.5 0.066 7.16 2.27 10.79
4/6/2021 6:00:00 PM 12.52 54.536 0.066 7.14 2.32 10.74
4/6/2021 6:15:00 PM 12.55 54.59 0.066 7.11 2.29 10.71
4/6/2021 6:30:00 PM 12.58 54.644 0.066 7.12 2.35 10.68
4/6/2021 6:45:00 PM 12.57 54.626 0.066 7.09 2.34 10.63
4/6/2021 7:00:00 PM 12.52 54.536 0.067 7.06 2.34 10.56
4/6/2021 7:15:00 PM 12.44 54.392 0.067 7.02 2.34 10.49
4/6/2021 7:30:00 PM 12.36 54.248 0.067 6.98 2.39 10.42
4/6/2021 7:45:00 PM 12.27 54.086 0.067 6.95 2.37 10.36
4/6/2021 8:00:00 PM 12.17 53.906 0.067 6.91 2.35 10.31
4/6/2021 8:15:00 PM 12.07 53.726 0.068 6.89 2.33 10.28
4/6/2021 8:30:00 PM 11.96 53.528 0.068 6.85 2.51 10.26
4/6/2021 8:45:00 PM 11.87 53.366 0.068 6.82 2.51 10.25
4/6/2021 9:00:00 PM 11.78 53.204 0.068 6.81 2.52 10.24
4/6/2021 9:15:00 PM 11.68 53.024 0.068 6.82 2.5 10.24
4/6/2021 9:30:00 PM 11.59 52.862 0.069 6.8 2.56 10.24
4/6/2021 9:45:00 PM 11.51 52.718 0.069 6.78 2.47 10.24
4/6/2021 10:00:00 PM 11.42 52.556 0.069 6.77 2.42 10.25
4/6/2021 10:15:00 PM 11.35 52.43 0.069 6.76 2.5 10.26
4/6/2021 10:30:00 PM 11.27 52.286 0.069 6.75 2.45 10.28
4/6/2021 10:45:00 PM 11.2 52.16 0.069 6.74 2.46 10.29
4/6/2021 11:00:00 PM 11.13 52.034 0.069 6.75 2.46 10.3
4/6/2021 11:15:00 PM 11.06 51.908 0.069 6.74 2.54 10.31
4/6/2021 11:30:00 PM 10.99 51.782 0.069 6.74 2.44 10.33
4/6/2021 11:45:00 PM 10.94 51.692 0.069 6.74 2.56 10.34
4/7/2021 12:00:00 AM 10.88 51.584 0.069 6.74 2.5 10.36
4/7/2021 12:15:00 AM 10.83 51.494 0.069 6.74 2.39 10.37
4/7/2021 12:30:00 AM 10.77 51.386 0.069 6.74 2.44 10.39
4/7/2021 12:45:00 AM 10.7 51.26 0.069 6.73 2.44 10.4
4/7/2021 1:00:00 AM 10.63 51.134 0.069 6.74 2.51 10.42
4/7/2021 1:15:00 AM 10.58 51.044 0.069 6.74 2.35 10.43
4/7/2021 1:30:00 AM 10.53 50.954 0.069 6.74 2.45 10.45
4/7/2021 1:45:00 AM 10.45 50.81 0.069 6.74 2.48 10.46
4/7/2021 2:00:00 AM 10.38 50.684 0.069 6.74 2.42 10.48
4/7/2021 2:15:00 AM 10.3 50.54 0.069 6.74 2.44 10.5
4/7/2021 2:30:00 AM 10.23 50.414 0.069 6.74 2.43 10.51
4/7/2021 2:45:00 AM 10.15 50.27 0.069 6.73 2.46 10.53
4/7/2021 3:00:00 AM 10.07 50.126 0.069 6.73 2.5 10.55
4/7/2021 3:15:00 AM 10 50 0.069 6.73 2.4 10.57
4/7/2021 3:30:00 AM 9.93 49.874 0.069 6.74 2.42 10.59
4/7/2021 3:45:00 AM 9.86 49.748 0.069 6.74 2.43 10.61
4/7/2021 4:00:00 AM 9.8 49.64 0.069 6.73 2.43 10.63
4/7/2021 4:15:00 AM 9.75 49.55 0.069 6.73 2.42 10.65
4/7/2021 4:30:00 AM 9.69 49.442 0.069 6.73 2.37 10.67
4/7/2021 4:45:00 AM 9.63 49.334 0.069 6.74 2.33 10.68
4/7/2021 5:00:00 AM 9.59 49.262 0.069 6.74 2.34 10.7
4/7/2021 5:15:00 AM 9.54 49.172 0.069 6.74 2.4 10.72
4/7/2021 5:30:00 AM 9.49 49.082 0.069 6.75 2.45 10.73
4/7/2021 5:45:00 AM 9.45 49.01 0.069 6.74 2.42 10.75
4/7/2021 6:00:00 AM 9.41 48.938 0.069 6.74 2.48 10.76
4/7/2021 6:15:00 AM 9.36 48.848 0.069 6.75 2.4 10.77
4/7/2021 6:30:00 AM 9.32 48.776 0.069 6.75 2.46 10.78
4/7/2021 6:45:00 AM 9.28 48.704 0.069 6.74 2.39 10.8
4/7/2021 7:00:00 AM 9.25 48.65 0.069 6.76 2.45 10.82
4/7/2021 7:15:00 AM 9.22 48.596 0.069 6.75 2.38 10.86
4/7/2021 7:30:00 AM 9.19 48.542 0.069 6.77 2.36 10.9
4/7/2021 7:45:00 AM 9.17 48.506 0.069 6.77 2.36 10.95
4/7/2021 8:00:00 AM 9.16 48.488 0.069 6.78 2.39 11.01
4/7/2021 8:15:00 AM 9.18 48.524 0.069 6.82 2.36 11.13
4/7/2021 8:30:00 AM 9.18 48.524 0.068 6.85 2.32 11.22
4/7/2021 8:45:00 AM 9.21 48.578 0.068 6.88 2.33 11.29
4/7/2021 9:00:00 AM 9.26 48.668 0.068 6.9 2.41 11.36
4/7/2021 9:15:00 AM 9.31 48.758 0.068 6.94 2.33 11.41
4/7/2021 9:30:00 AM 9.37 48.866 0.068 6.96 2.32 11.43
4/7/2021 9:45:00 AM 9.44 48.992 0.068 6.98 2.28 11.46
4/7/2021 10:00:00 AM 9.52 49.136 0.068 7 2.33 11.47
4/7/2021 10:15:00 AM 9.6 49.28 0.068 7.02 2.26 11.48
4/7/2021 10:30:00 AM 9.71 49.478 0.068 7.04 2.23 11.49
4/7/2021 10:45:00 AM 9.84 49.712 0.068 7.06 2.22 11.49
4/7/2021 11:00:00 AM 9.99 49.982 0.068 7.08 2.25 11.48
4/7/2021 11:15:00 AM 10.15 50.27 0.067 7.11 2.19 11.46
4/7/2021 11:30:00 AM 10.33 50.594 0.067 7.12 2.26 11.45
4/7/2021 11:45:00 AM 10.52 50.936 0.067 7.13 2.25 11.42
4/7/2021 12:00:00 PM 10.73 51.314 0.067 7.15 2.17 11.4
4/7/2021 12:15:00 PM 10.97 51.746 0.067 7.16 2.18 11.35
4/7/2021 12:30:00 PM 11.22 52.196 0.067 7.17 2.21 11.32
4/7/2021 12:45:00 PM 11.47 52.646 0.067 7.19 2.25 11.28
4/7/2021 1:00:00 PM 11.77 53.186 0.067 7.21 2.14 11.23
4/7/2021 1:15:00 PM 11.84 53.312 0.067 7.21 2.17 11.19
4/7/2021 1:30:00 PM 11.92 53.456 0.067 7.21 2.22 11.15
4/7/2021 1:45:00 PM 12.31 54.158 0.067 7.25 2.17 11.11
4/7/2021 2:00:00 PM 12.59 54.662 0.067 7.27 2.2 11.05
4/7/2021 2:15:00 PM 12.66 54.788 0.067 7.26 2.18 10.97
4/7/2021 2:30:00 PM 12.81 55.058 0.067 7.25 2.24 10.94
4/7/2021 2:45:00 PM 13.15 55.67 0.067 7.28 2.24 10.89
4/7/2021 3:00:00 PM 13.39 56.102 0.067 7.3 2.19 10.82
4/7/2021 3:15:00 PM 13.39 56.102 0.067 7.27 2.16 10.76
4/7/2021 3:30:00 PM 13.69 56.642 0.067 7.3 2.23 10.74
4/7/2021 3:45:00 PM 13.66 56.588 0.067 7.28 2.21 10.66
4/7/2021 4:00:00 PM 13.66 56.588 0.067 7.23 2.25 10.61
4/7/2021 4:15:00 PM 13.75 56.75 0.067 7.24 2.22 10.61
4/7/2021 4:30:00 PM 13.93 57.074 0.066 7.28 2.2 10.6
4/7/2021 4:45:00 PM 14.03 57.254 0.067 7.27 2.24 10.58
4/7/2021 5:00:00 PM 13.98 57.164 0.067 7.26 2.23 10.53
4/7/2021 5:15:00 PM 13.91 57.038 0.067 7.22 2.41 10.51
4/7/2021 5:30:00 PM 13.94 57.092 0.066 7.21 2.27 10.48
4/7/2021 5:45:00 PM 13.96 57.128 0.067 7.22 2.27 10.46
4/7/2021 6:00:00 PM 13.96 57.128 0.066 7.21 2.28 10.43
4/7/2021 6:15:00 PM 13.95 57.11 0.066 7.19 2.3 10.42
4/7/2021 6:30:00 PM 13.91 57.038 0.066 7.16 2.31 10.39
4/7/2021 6:45:00 PM 13.83 56.894 0.067 7.14 2.37 10.35
4/7/2021 7:00:00 PM 13.74 56.732 0.067 7.11 2.37 10.31
4/7/2021 7:15:00 PM 13.64 56.552 0.067 7.08 2.38 10.25
4/7/2021 7:30:00 PM 13.53 56.354 0.067 7.03 2.33 10.18
4/7/2021 7:45:00 PM 13.41 56.138 0.067 6.99 2.27 10.11
4/7/2021 8:00:00 PM 13.28 55.904 0.067 6.94 2.38 10.05
4/7/2021 8:15:00 PM 13.15 55.67 0.068 6.9 2.36 10
4/7/2021 8:30:00 PM 13.04 55.472 0.068 6.87 2.43 9.98
4/7/2021 8:45:00 PM 12.93 55.274 0.068 6.84 2.36 9.96
4/7/2021 9:00:00 PM 12.83 55.094 0.068 6.8 2.46 9.95
4/7/2021 9:15:00 PM 12.74 54.932 0.068 6.79 2.46 9.95
4/7/2021 9:30:00 PM 12.65 54.77 0.068 6.77 2.43 9.95
4/7/2021 9:45:00 PM 12.57 54.626 0.068 6.76 2.43 9.96
4/7/2021 10:00:00 PM 12.5 54.5 0.068 6.76 2.42 9.96
4/7/2021 10:15:00 PM 12.43 54.374 0.068 6.76 2.47 9.97
4/7/2021 10:30:00 PM 12.36 54.248 0.068 6.76 2.43 9.97
4/7/2021 10:45:00 PM 12.3 54.14 0.068 6.75 2.43 9.98
4/7/2021 11:00:00 PM 12.23 54.014 0.069 6.77 2.41 9.99
4/7/2021 11:15:00 PM 12.17 53.906 0.069 6.77 2.33 10
4/7/2021 11:30:00 PM 12.11 53.798 0.069 6.73 2.38 10.01
4/7/2021 11:45:00 PM 12.05 53.69 0.069 6.76 2.34 10.03
4/8/2021 12:00:00 AM 11.99 53.582 0.069 6.77 2.38 10.04
4/8/2021 12:15:00 AM 11.93 53.474 0.069 6.77 2.36 10.05
4/8/2021 12:30:00 AM 11.88 53.384 0.069 6.76 2.38 10.06
4/8/2021 12:45:00 AM 11.81 53.258 0.069 6.76 2.37 10.08
4/8/2021 1:00:00 AM 11.75 53.15 0.069 6.76 2.38 10.09
4/8/2021 1:15:00 AM 11.69 53.042 0.069 6.76 2.31 10.1
4/8/2021 1:30:00 AM 11.62 52.916 0.069 6.76 2.34 10.12
4/8/2021 1:45:00 AM 11.56 52.808 0.069 6.76 2.48 10.13
4/8/2021 2:00:00 AM 11.49 52.682 0.069 6.76 2.33 10.15
4/8/2021 2:15:00 AM 11.43 52.574 0.069 6.76 2.34 10.17
4/8/2021 2:30:00 AM 11.36 52.448 0.069 6.75 2.43 10.18
4/8/2021 2:45:00 AM 11.29 52.322 0.069 6.75 2.37 10.2
4/8/2021 3:00:00 AM 11.21 52.178 0.069 6.74 2.38 10.22
4/8/2021 3:15:00 AM 11.14 52.052 0.069 6.75 2.37 10.24
4/8/2021 3:30:00 AM 11.07 51.926 0.069 6.75 2.41 10.27
4/8/2021 3:45:00 AM 10.99 51.782 0.069 6.75 2.29 10.29
4/8/2021 4:00:00 AM 10.91 51.638 0.07 6.76 2.42 10.31
4/8/2021 4:15:00 AM 10.83 51.494 0.07 6.75 2.45 10.32
4/8/2021 4:30:00 AM 10.75 51.35 0.07 6.76 2.31 10.34
4/8/2021 4:45:00 AM 10.68 51.224 0.07 6.76 2.4 10.37
4/8/2021 5:00:00 AM 10.6 51.08 0.07 6.75 2.31 10.38
4/8/2021 5:15:00 AM 10.52 50.936 0.07 6.75 2.39 10.41
4/8/2021 5:30:00 AM 10.45 50.81 0.07 6.76 2.47 10.42
4/8/2021 5:45:00 AM 10.37 50.666 0.07 6.74 2.3 10.44
4/8/2021 6:00:00 AM 10.3 50.54 0.07 6.74 2.41 10.47
4/8/2021 6:15:00 AM 10.23 50.414 0.07 6.75 2.36 10.49
4/8/2021 6:30:00 AM 10.16 50.288 0.07 6.76 2.32 10.51
4/8/2021 6:45:00 AM 10.09 50.162 0.07 6.75 2.39 10.54
4/8/2021 7:00:00 AM 10.02 50.036 0.07 6.76 2.33 10.58
4/8/2021 7:15:00 AM 9.96 49.928 0.07 6.79 2.28 10.65
4/8/2021 7:30:00 AM 9.91 49.838 0.07 6.81 2.34 10.72
4/8/2021 7:45:00 AM 9.86 49.748 0.07 6.83 2.23 10.81
4/8/2021 8:00:00 AM 9.83 49.694 0.07 6.84 2.28 10.91
4/8/2021 8:15:00 AM 9.82 49.676 0.069 6.87 2.32 10.99
4/8/2021 8:30:00 AM 9.81 49.658 0.069 6.89 2.29 11.07
4/8/2021 8:45:00 AM 9.82 49.676 0.069 6.93 2.22 11.13
4/8/2021 9:00:00 AM 9.85 49.73 0.069 6.95 2.25 11.19
4/8/2021 9:15:00 AM 9.89 49.802 0.069 6.99 2.19 11.24
4/8/2021 9:30:00 AM 9.95 49.91 0.069 7.01 2.27 11.28
4/8/2021 9:45:00 AM 10.03 50.054 0.069 7.04 2.17 11.31
4/8/2021 10:00:00 AM 10.14 50.252 0.069 7.07 2.17 11.34
4/8/2021 10:15:00 AM 10.25 50.45 0.069 7.1 2.13 11.36
4/8/2021 10:30:00 AM 10.39 50.702 0.069 7.12 2.16 11.36
4/8/2021 10:45:00 AM 10.54 50.972 0.069 7.14 2.2 11.36
4/8/2021 11:00:00 AM 10.71 51.278 0.069 7.18 2.07 11.35
4/8/2021 11:15:00 AM 10.89 51.602 0.069 7.2 2.11 11.34
4/8/2021 11:30:00 AM 11.09 51.962 0.069 7.21 2.09 11.32
4/8/2021 11:45:00 AM 11.3 52.34 0.069 7.24 2.07 11.29
4/8/2021 12:00:00 PM 11.52 52.736 0.068 7.26 2.12 11.26
4/8/2021 12:15:00 PM 11.76 53.168 0.068 7.27 2.1 11.22
4/8/2021 12:30:00 PM 12 53.6 0.068 7.28 2.08 11.18
4/8/2021 12:45:00 PM 12.26 54.068 0.068 7.31 2.01 11.14
4/8/2021 1:00:00 PM 12.51 54.518 0.068 7.31 2.1 11.09
4/8/2021 1:15:00 PM 12.77 54.986 0.068 7.33 2.09 11.04
4/8/2021 1:30:00 PM 13.03 55.454 0.068 7.33 2.11 10.99
4/8/2021 1:45:00 PM 13.29 55.922 0.068 7.36 2.08 10.93
4/8/2021 2:00:00 PM 13.54 56.372 0.068 7.36 2.09 10.88
4/8/2021 2:15:00 PM 13.8 56.84 0.068 7.38 2.16 10.83
4/8/2021 2:30:00 PM 14.04 57.272 0.068 7.41 2.14 10.77
4/8/2021 2:45:00 PM 14.29 57.722 0.068 7.41 2.05 10.72
4/8/2021 3:00:00 PM 14.51 58.118 0.068 7.42 2.13 10.66
4/8/2021 3:15:00 PM 14.73 58.514 0.068 7.43 2.13 10.61
4/8/2021 3:30:00 PM 14.93 58.874 0.068 7.43 2.16 10.55
4/8/2021 3:45:00 PM 15.11 59.198 0.068 7.44 2.1 10.5
4/8/2021 4:00:00 PM 15.29 59.522 0.068 7.45 2.09 10.46
4/8/2021 4:15:00 PM 15.44 59.792 0.068 7.44 2.08 10.4
4/8/2021 4:30:00 PM 15.57 60.026 0.068 7.45 2.08 10.36
4/8/2021 4:45:00 PM 15.65 60.17 0.068 7.45 2.11 10.31
4/8/2021 5:00:00 PM 15.71 60.278 0.068 7.44 2.08 10.28
4/8/2021 5:15:00 PM 15.75 60.35 0.068 7.43 2.09 10.23
4/8/2021 5:30:00 PM 15.77 60.386 0.068 7.42 2.04 10.19
4/8/2021 5:45:00 PM 15.77 60.386 0.068 7.4 2.06 10.15
4/8/2021 6:00:00 PM 15.74 60.332 0.068 7.37 2.08 10.11
4/8/2021 6:15:00 PM 15.69 60.242 0.068 7.35 2.15 10.07
4/8/2021 6:30:00 PM 15.61 60.098 0.068 7.31 2.08 10.02
4/8/2021 6:45:00 PM 15.5 59.9 0.068 7.26 2.09 9.96
4/8/2021 7:00:00 PM 15.39 59.702 0.068 7.21 2.13 9.89
4/8/2021 7:15:00 PM 15.27 59.486 0.069 7.15 2.18 9.82
4/8/2021 7:30:00 PM 15.14 59.252 0.069 7.1 2.09 9.76
4/8/2021 7:45:00 PM 15.01 59.018 0.069 7.06 2.17 9.69
4/8/2021 8:00:00 PM 14.86 58.748 0.069 7.01 2.08 9.62
4/8/2021 8:15:00 PM 14.74 58.532 0.069 6.95 2.27 9.58
4/8/2021 8:30:00 PM 14.61 58.298 0.069 6.93 2.18 9.56
4/8/2021 8:45:00 PM 14.49 58.082 0.07 6.9 2.25 9.54
4/8/2021 9:00:00 PM 14.36 57.848 0.07 6.88 2.25 9.54
4/8/2021 9:15:00 PM 14.25 57.65 0.07 6.86 2.45 9.54
4/8/2021 9:30:00 PM 14.14 57.452 0.07 6.86 2.27 9.55
4/8/2021 9:45:00 PM 14.04 57.272 0.07 6.86 2.32 9.55
4/8/2021 10:00:00 PM 13.94 57.092 0.07 6.84 2.37 9.57
4/8/2021 10:15:00 PM 13.85 56.93 0.07 6.85 2.39 9.58
4/8/2021 10:30:00 PM 13.77 56.786 0.07 6.84 2.36 9.6
4/8/2021 10:45:00 PM 13.68 56.624 0.07 6.85 2.33 9.61
4/8/2021 11:00:00 PM 13.6 56.48 0.07 6.84 2.33 9.62
4/8/2021 11:15:00 PM 13.51 56.318 0.071 6.85 2.46 9.64
4/8/2021 11:30:00 PM 13.43 56.174 0.071 6.84 2.38 9.66
4/8/2021 11:45:00 PM 13.36 56.048 0.071 6.84 2.39 9.67
4/9/2021 12:00:00 AM 13.29 55.922 0.071 6.85 2.34 9.69
4/9/2021 12:15:00 AM 13.23 55.814 0.071 6.85 2.4 9.7
4/9/2021 12:30:00 AM 13.17 55.706 0.071 6.84 2.48 9.72
4/9/2021 12:45:00 AM 13.11 55.598 0.071 6.84 2.44 9.73
4/9/2021 1:00:00 AM 13.06 55.508 0.071 6.84 2.44 9.75
4/9/2021 1:15:00 AM 13 55.4 0.071 6.85 2.4 9.76
4/9/2021 1:30:00 AM 12.94 55.292 0.071 6.84 2.43 9.77
4/9/2021 1:45:00 AM 12.88 55.184 0.071 6.85 2.44 9.79
4/9/2021 2:00:00 AM 12.83 55.094 0.071 6.85 2.39 9.8
4/9/2021 2:15:00 AM 12.78 55.004 0.071 6.85 2.37 9.82
4/9/2021 2:30:00 AM 12.73 54.914 0.071 6.85 2.36 9.83
4/9/2021 2:45:00 AM 12.68 54.824 0.071 6.86 2.32 9.85
4/9/2021 3:00:00 AM 12.64 54.752 0.071 6.86 2.4 9.87
4/9/2021 3:15:00 AM 12.59 54.662 0.071 6.85 2.44 9.87
4/9/2021 3:30:00 AM 12.54 54.572 0.071 6.85 2.31 9.88
4/9/2021 3:45:00 AM 12.5 54.5 0.071 6.86 2.35 9.9
4/9/2021 4:00:00 AM 12.45 54.41 0.071 6.86 2.34 9.91
4/9/2021 4:15:00 AM 12.4 54.32 0.071 6.86 2.32 9.92
4/9/2021 4:30:00 AM 12.35 54.23 0.071 6.86 2.35 9.94
4/9/2021 4:45:00 AM 12.3 54.14 0.071 6.86 2.41 9.95
4/9/2021 5:00:00 AM 12.25 54.05 0.071 6.86 2.3 9.96
4/9/2021 5:15:00 AM 12.22 53.996 0.071 6.86 2.24 9.97
4/9/2021 5:30:00 AM 12.16 53.888 0.071 6.86 2.41 9.99
4/9/2021 5:45:00 AM 12.12 53.816 0.071 6.87 2.34 10
4/9/2021 6:00:00 AM 12.07 53.726 0.071 6.86 2.3 10.01
4/9/2021 6:15:00 AM 12.03 53.654 0.071 6.85 2.3 10.02
4/9/2021 6:30:00 AM 12 53.6 0.071 6.85 2.37 10.04
4/9/2021 6:45:00 AM 11.96 53.528 0.071 6.86 2.35 10.05
4/9/2021 7:00:00 AM 11.91 53.438 0.071 6.86 2.38 10.07
4/9/2021 7:15:00 AM 11.87 53.366 0.071 6.87 2.34 10.09
4/9/2021 7:30:00 AM 11.84 53.312 0.071 6.88 2.26 10.13
4/9/2021 7:45:00 AM 11.82 53.276 0.071 6.88 2.26 10.16
4/9/2021 8:00:00 AM 11.79 53.222 0.071 6.89 2.29 10.21
4/9/2021 8:15:00 AM 11.75 53.15 0.071 6.9 2.26 10.27
4/9/2021 8:30:00 AM 11.73 53.114 0.071 6.92 2.23 10.34
4/9/2021 8:45:00 AM 11.71 53.078 0.071 6.94 2.24 10.4
4/9/2021 9:00:00 AM 11.69 53.042 0.071 6.96 2.32 10.47
4/9/2021 9:15:00 AM 11.69 53.042 0.071 6.99 2.3 10.53
4/9/2021 9:30:00 AM 11.69 53.042 0.071 7 2.28 10.6
4/9/2021 9:45:00 AM 11.68 53.024 0.071 7.02 2.26 10.67
4/9/2021 10:00:00 AM 11.69 53.042 0.071 7.05 2.34 10.73
4/9/2021 10:15:00 AM 11.7 53.06 0.071 7.08 2.23 10.79
4/9/2021 10:30:00 AM 11.72 53.096 0.071 7.11 2.16 10.85
4/9/2021 10:45:00 AM 11.75 53.15 0.07 7.15 2.21 10.91
4/9/2021 11:00:00 AM 11.76 53.168 0.07 7.17 2.21 10.93
4/9/2021 11:15:00 AM 11.78 53.204 0.07 7.19 2.2 10.95
4/9/2021 11:30:00 AM 11.78 53.204 0.07 7.2 2.26 10.96
4/9/2021 11:45:00 AM 11.81 53.258 0.07 7.21 2.33 10.98
4/9/2021 12:00:00 PM 11.83 53.294 0.07 7.23 2.3 11
4/9/2021 12:15:00 PM 11.89 53.402 0.07 7.26 2.24 11.02
4/9/2021 12:30:00 PM 11.91 53.438 0.07 7.27 2.29 11.02
4/9/2021 12:45:00 PM 11.92 53.456 0.07 7.29 2.29 11.04
4/9/2021 1:00:00 PM 11.92 53.456 0.07 7.29 2.27 11.03
4/9/2021 1:15:00 PM 11.94 53.492 0.07 7.29 2.2 11.02
4/9/2021 1:30:00 PM 11.98 53.564 0.07 7.31 2.22 11.04
4/9/2021 1:45:00 PM 12.01 53.618 0.069 7.31 2.17 11.03
4/9/2021 2:00:00 PM 12.05 53.69 0.07 7.33 2.16 11.03
4/9/2021 2:15:00 PM 12.06 53.708 0.069 7.34 2.14 11.01
4/9/2021 2:30:00 PM 12.06 53.708 0.069 7.33 2.11 10.99
4/9/2021 2:45:00 PM 12.09 53.762 0.069 7.33 2.16 10.99
4/9/2021 3:00:00 PM 12.11 53.798 0.069 7.34 2.19 10.99
4/9/2021 3:15:00 PM 12.14 53.852 0.069 7.35 2.16 10.98
4/9/2021 3:30:00 PM 12.16 53.888 0.069 7.33 2.16 10.96
4/9/2021 3:45:00 PM 12.19 53.942 0.069 7.35 2.14 10.95
4/9/2021 4:00:00 PM 12.25 54.05 0.069 7.36 2.09 10.95
4/9/2021 4:15:00 PM 12.29 54.122 0.069 7.37 2.15 10.95
4/9/2021 4:30:00 PM 12.32 54.176 0.069 7.37 2.14 10.93
4/9/2021 4:45:00 PM 12.35 54.23 0.069 7.35 2.14 10.91
4/9/2021 5:00:00 PM 12.4 54.32 0.069 7.37 2.1 10.9
4/9/2021 5:15:00 PM 12.43 54.374 0.069 7.37 2.12 10.88
4/9/2021 5:30:00 PM 12.48 54.464 0.069 7.36 2.14 10.88
4/9/2021 5:45:00 PM 12.51 54.518 0.069 7.36 2.09 10.87
4/9/2021 6:00:00 PM 12.51 54.518 0.069 7.35 2.15 10.83
4/9/2021 6:15:00 PM 12.51 54.518 0.069 7.33 2.09 10.8
4/9/2021 6:30:00 PM 12.5 54.5 0.069 7.27 2.16 10.7
4/9/2021 6:45:00 PM 12.47 54.446 0.07 7.22 2.14 10.63
4/9/2021 7:00:00 PM 12.44 54.392 0.07 7.16 2.15 10.52
4/9/2021 7:15:00 PM 12.42 54.356 0.07 7.11 2.04 10.43
4/9/2021 7:30:00 PM 12.39 54.302 0.07 7.08 2.11 10.36
4/9/2021 7:45:00 PM 12.36 54.248 0.07 7.04 2.11 10.29
4/9/2021 8:00:00 PM 12.33 54.194 0.07 7.01 2.09 10.23
4/9/2021 8:15:00 PM 12.31 54.158 0.07 6.99 2.35 10.18
4/9/2021 8:30:00 PM 12.28 54.104 0.071 6.96 2.29 10.15
4/9/2021 8:45:00 PM 12.26 54.068 0.071 6.96 2.32 10.12
4/9/2021 9:00:00 PM 12.24 54.032 0.071 6.95 2.25 10.1
4/9/2021 9:15:00 PM 12.21 53.978 0.071 6.94 2.2 10.1
4/9/2021 9:30:00 PM 12.19 53.942 0.071 6.93 2.22 10.08
4/9/2021 9:45:00 PM 12.16 53.888 0.071 6.9 2.25 10.08
4/9/2021 10:00:00 PM 12.13 53.834 0.071 6.9 2.24 10.07
4/9/2021 10:15:00 PM 12.1 53.78 0.072 6.9 2.24 10.07
4/9/2021 10:30:00 PM 12.07 53.726 0.072 6.88 2.22 10.08
4/9/2021 10:45:00 PM 12.04 53.672 0.072 6.89 2.2 10.08
4/9/2021 11:00:00 PM 12 53.6 0.072 6.87 2.19 10.09
4/9/2021 11:15:00 PM 11.97 53.546 0.072 6.88 2.19 10.09
4/9/2021 11:30:00 PM 11.94 53.492 0.072 6.88 2.17 10.1
4/9/2021 11:45:00 PM 11.9 53.42 0.072 6.87 2.17 10.1
4/10/2021 12:00:00 AM 11.87 53.366 0.072 6.86 2.16 10.11
4/10/2021 12:15:00 AM 11.83 53.294 0.072 6.87 2.18 10.12
4/10/2021 12:30:00 AM 11.8 53.24 0.073 6.87 2.24 10.12
4/10/2021 12:45:00 AM 11.77 53.186 0.073 6.86 2.16 10.13
4/10/2021 1:00:00 AM 11.74 53.132 0.073 6.85 2.25 10.14
4/10/2021 1:15:00 AM 11.71 53.078 0.073 6.85 2.22 10.14
4/10/2021 1:30:00 AM 11.67 53.006 0.073 6.87 2.1 10.16
4/10/2021 1:45:00 AM 11.65 52.97 0.073 6.88 2.23 10.16
4/10/2021 2:00:00 AM 11.61 52.898 0.073 6.88 2.12 10.17
4/10/2021 2:15:00 AM 11.59 52.862 0.073 6.88 2.2 10.17
4/10/2021 2:30:00 AM 11.56 52.808 0.073 6.88 2.1 10.18
4/10/2021 2:45:00 AM 11.53 52.754 0.073 6.88 2.21 10.18
4/10/2021 3:00:00 AM 11.5 52.7 0.073 6.89 2.16 10.2
4/10/2021 3:15:00 AM 11.47 52.646 0.073 6.89 2.15 10.2
4/10/2021 3:30:00 AM 11.45 52.61 0.073 6.89 2.12 10.2
4/10/2021 3:45:00 AM 11.42 52.556 0.073 6.89 2.13 10.2
4/10/2021 4:00:00 AM 11.4 52.52 0.073 6.89 2.1 10.21
4/10/2021 4:15:00 AM 11.37 52.466 0.073 6.89 2.18 10.21
4/10/2021 4:30:00 AM 11.35 52.43 0.073 6.89 2.09 10.22
4/10/2021 4:45:00 AM 11.33 52.394 0.073 6.89 2.18 10.23
4/10/2021 5:00:00 AM 11.31 52.358 0.073 6.89 2.11 10.23
4/10/2021 5:15:00 AM 11.29 52.322 0.074 6.89 2.08 10.23
4/10/2021 5:30:00 AM 11.27 52.286 0.074 6.89 2.17 10.24
4/10/2021 5:45:00 AM 11.25 52.25 0.074 6.88 2.2 10.25
4/10/2021 6:00:00 AM 11.23 52.214 0.074 6.89 2.15 10.25
4/10/2021 6:15:00 AM 11.21 52.178 0.074 6.88 2.12 10.25
4/10/2021 6:30:00 AM 11.2 52.16 0.074 6.88 2.15 10.26
4/10/2021 6:45:00 AM 11.18 52.124 0.074 6.86 2.11 10.27
4/10/2021 7:00:00 AM 11.16 52.088 0.074 6.87 2.22 10.29
4/10/2021 7:15:00 AM 11.15 52.07 0.074 6.89 2.22 10.32
4/10/2021 7:30:00 AM 11.14 52.052 0.074 6.9 2.19 10.37
4/10/2021 7:45:00 AM 11.14 52.052 0.074 6.93 2.21 10.45
4/10/2021 8:00:00 AM 11.15 52.07 0.074 6.96 2.13 10.54
4/10/2021 8:15:00 AM 11.15 52.07 0.074 6.99 2.21 10.62
4/10/2021 8:30:00 AM 11.17 52.106 0.074 7.01 2.14 10.71
4/10/2021 8:45:00 AM 11.2 52.16 0.074 7.04 2.05 10.8
4/10/2021 9:00:00 AM 11.25 52.25 0.073 7.09 2.06 10.89
4/10/2021 9:15:00 AM 11.29 52.322 0.073 7.13 2.03 10.96
4/10/2021 9:30:00 AM 11.33 52.394 0.073 7.15 2.14 11
4/10/2021 9:45:00 AM 11.39 52.502 0.073 7.19 2.08 11.05
4/10/2021 10:00:00 AM 11.49 52.682 0.073 7.24 2.03 11.09
4/10/2021 10:15:00 AM 11.6 52.88 0.073 7.27 2.06 11.12
4/10/2021 10:30:00 AM 11.72 53.096 0.072 7.31 2.07 11.13
4/10/2021 10:45:00 AM 11.87 53.366 0.072 7.33 2.14 11.13
4/10/2021 11:00:00 AM 12.02 53.636 0.072 7.36 2.13 11.14
4/10/2021 11:15:00 AM 12.17 53.906 0.072 7.37 2.27 11.12
4/10/2021 11:30:00 AM 12.33 54.194 0.072 7.41 2.34 11.11
4/10/2021 11:45:00 AM 12.53 54.554 0.072 7.43 2.42 11.09
4/10/2021 12:00:00 PM 12.76 54.968 0.072 7.45 2.47 11.06
4/10/2021 12:15:00 PM 12.97 55.346 0.072 7.47 2.59 11.02
4/10/2021 12:30:00 PM 13.2 55.76 0.072 7.5 2.73 10.99
4/10/2021 12:45:00 PM 13.41 56.138 0.072 7.51 2.88 10.95
4/10/2021 1:00:00 PM 13.65 56.57 0.071 7.53 3.04 10.91
4/10/2021 1:15:00 PM 13.89 57.002 0.071 7.55 3.37 10.87
4/10/2021 1:30:00 PM 14.1 57.38 0.071 7.58 3.54 10.82
4/10/2021 1:45:00 PM 14.3 57.74 0.071 7.59 3.74 10.78
4/10/2021 2:00:00 PM 14.51 58.118 0.071 7.62 3.76 10.73
4/10/2021 2:15:00 PM 14.72 58.496 0.071 7.64 3.87 10.69
4/10/2021 2:30:00 PM 14.95 58.91 0.071 7.66 3.94 10.64
4/10/2021 2:45:00 PM 15.15 59.27 0.071 7.68 4.06 10.59
4/10/2021 3:00:00 PM 15.33 59.594 0.071 7.69 3.94 10.57
4/10/2021 3:15:00 PM 15.48 59.864 0.071 7.7 3.94 10.51
4/10/2021 3:30:00 PM 15.6 60.08 0.071 7.7 3.76 10.46
4/10/2021 3:45:00 PM 15.73 60.314 0.071 7.72 3.74 10.42
4/10/2021 4:00:00 PM 15.89 60.602 0.071 7.72 3.7 10.38
4/10/2021 4:15:00 PM 16 60.8 0.071 7.73 3.61 10.34
4/10/2021 4:30:00 PM 16.09 60.962 0.071 7.73 3.47 10.3
4/10/2021 4:45:00 PM 16.13 61.034 0.071 7.72 3.36 10.26
4/10/2021 5:00:00 PM 16.14 61.052 0.071 7.71 3.28 10.23
4/10/2021 5:15:00 PM 16.13 61.034 0.071 7.68 3.3 10.19
4/10/2021 5:30:00 PM 16.12 61.016 0.071 7.65 3.07 10.15
4/10/2021 5:45:00 PM 16.11 60.998 0.072 7.63 3.06 10.13
4/10/2021 6:00:00 PM 16.06 60.908 0.071 7.58 2.98 10.08
4/10/2021 6:15:00 PM 15.99 60.782 0.071 7.54 2.93 10.04
4/10/2021 6:30:00 PM 15.94 60.692 0.072 7.48 2.82 9.99
4/10/2021 6:45:00 PM 15.86 60.548 0.072 7.42 2.81 9.93
4/10/2021 7:00:00 PM 15.77 60.386 0.072 7.36 2.72 9.86
4/10/2021 7:15:00 PM 15.66 60.188 0.072 7.28 2.66 9.77
4/10/2021 7:30:00 PM 15.56 60.008 0.072 7.22 2.66 9.68
4/10/2021 7:45:00 PM 15.45 59.81 0.072 7.14 2.68 9.58
4/10/2021 8:00:00 PM 15.35 59.63 0.073 7.08 2.68 9.48
4/10/2021 8:15:00 PM 15.25 59.45 0.073 7.03 2.59 9.42
4/10/2021 8:30:00 PM 15.14 59.252 0.073 7 2.61 9.37
4/10/2021 8:45:00 PM 15.03 59.054 0.073 6.97 2.55 9.35
4/10/2021 9:00:00 PM 14.95 58.91 0.073 6.95 2.63 9.34
4/10/2021 9:15:00 PM 14.88 58.784 0.074 6.94 2.61 9.32
4/10/2021 9:30:00 PM 14.8 58.64 0.074 6.93 2.55 9.32
4/10/2021 9:45:00 PM 14.71 58.478 0.074 6.93 2.6 9.32
4/10/2021 10:00:00 PM 14.63 58.334 0.074 6.92 2.5 9.32
4/10/2021 10:15:00 PM 14.56 58.208 0.074 6.92 2.45 9.33
4/10/2021 10:30:00 PM 14.5 58.1 0.074 6.92 2.48 9.34
4/10/2021 10:45:00 PM 14.44 57.992 0.074 6.91 2.38 9.34
4/10/2021 11:00:00 PM 14.38 57.884 0.074 6.92 2.45 9.35
4/10/2021 11:15:00 PM 14.33 57.794 0.074 6.91 2.3 9.36
4/10/2021 11:30:00 PM 14.27 57.686 0.074 6.92 2.37 9.36
4/10/2021 11:45:00 PM 14.23 57.614 0.075 6.92 2.31 9.37
4/11/2021 12:00:00 AM 14.19 57.542 0.075 6.92 2.3 9.38
4/11/2021 12:15:00 AM 14.15 57.47 0.075 6.92 2.25 9.39
4/11/2021 12:30:00 AM 14.11 57.398 0.075 6.92 2.33 9.39
4/11/2021 12:45:00 AM 14.07 57.326 0.075 6.91 2.24 9.4
4/11/2021 1:00:00 AM 14.03 57.254 0.075 6.91 2.23 9.41
4/11/2021 1:15:00 AM 13.99 57.182 0.075 6.91 2.27 9.41
4/11/2021 1:30:00 AM 13.95 57.11 0.075 6.91 2.22 9.42
4/11/2021 1:45:00 AM 13.92 57.056 0.075 6.91 2.27 9.43
4/11/2021 2:00:00 AM 13.88 56.984 0.075 6.89 2.28 9.43
4/11/2021 2:15:00 AM 13.84 56.912 0.075 6.9 2.23 9.44
4/11/2021 2:30:00 AM 13.81 56.858 0.075 6.9 2.31 9.45
4/11/2021 2:45:00 AM 13.77 56.786 0.075 6.9 2.27 9.45
4/11/2021 3:00:00 AM 13.73 56.714 0.075 6.9 2.27 9.46
4/11/2021 3:15:00 AM 13.69 56.642 0.075 6.89 2.28 9.46
4/11/2021 3:30:00 AM 13.65 56.57 0.075 6.89 2.23 9.47
4/11/2021 3:45:00 AM 13.61 56.498 0.076 6.89 2.32 9.47
4/11/2021 4:00:00 AM 13.57 56.426 0.075 6.89 2.37 9.48
4/11/2021 4:15:00 AM 13.53 56.354 0.075 6.88 2.3 9.48
4/11/2021 4:30:00 AM 13.49 56.282 0.075 6.89 2.32 9.49
4/11/2021 4:45:00 AM 13.45 56.21 0.075 6.88 2.4 9.49
4/11/2021 5:00:00 AM 13.41 56.138 0.075 6.88 2.51 9.5
4/11/2021 5:15:00 AM 13.38 56.084 0.075 6.88 2.91 9.5
4/11/2021 5:30:00 AM 13.34 56.012 0.075 6.87 2.75 9.51
4/11/2021 5:45:00 AM 13.3 55.94 0.074 6.87 2.86 9.52
4/11/2021 6:00:00 AM 13.27 55.886 0.074 6.86 2.99 9.52
4/11/2021 6:15:00 AM 13.23 55.814 0.074 6.86 2.93 9.54
4/11/2021 6:30:00 AM 13.2 55.76 0.074 6.87 2.89 9.54
4/11/2021 6:45:00 AM 13.17 55.706 0.074 6.87 2.98 9.55
4/11/2021 7:00:00 AM 13.13 55.634 0.073 6.86 3.24 9.57
4/11/2021 7:15:00 AM 13.1 55.58 0.073 6.87 3.08 9.58
4/11/2021 7:30:00 AM 13.07 55.526 0.073 6.87 3.18 9.61
4/11/2021 7:45:00 AM 13.05 55.49 0.073 6.89 3.15 9.66
4/11/2021 8:00:00 AM 13.02 55.436 0.073 6.9 3.26 9.7
4/11/2021 8:15:00 AM 13 55.4 0.073 6.9 3.41 9.73
4/11/2021 8:30:00 AM 12.98 55.364 0.073 6.92 3.47 9.79
4/11/2021 8:45:00 AM 12.96 55.328 0.073 6.94 3.48 9.86
4/11/2021 9:00:00 AM 12.95 55.31 0.073 6.95 3.29 9.9
4/11/2021 9:15:00 AM 12.93 55.274 0.073 6.97 3.58 9.97
4/11/2021 9:30:00 AM 12.92 55.256 0.073 6.99 4.14 10.04
4/11/2021 9:45:00 AM 12.91 55.238 0.073 7.01 4.16 10.1
4/11/2021 10:00:00 AM 12.93 55.274 0.073 7.03 3.98 10.19
4/11/2021 10:15:00 AM 12.94 55.292 0.073 7.06 4.13 10.25
4/11/2021 10:30:00 AM 12.97 55.346 0.073 7.08 4.05 10.33
4/11/2021 10:45:00 AM 13 55.4 0.073 7.13 4.19 10.39
4/11/2021 11:00:00 AM 13.07 55.526 0.073 7.17 4.2 10.47
4/11/2021 11:15:00 AM 13.14 55.652 0.073 7.21 4.18 10.52
4/11/2021 11:30:00 AM 13.19 55.742 0.073 7.24 4.15 10.55
4/11/2021 11:45:00 AM 13.26 55.868 0.073 7.27 4.11 10.57
4/11/2021 12:00:00 PM 13.36 56.048 0.073 7.3 4.22 10.6
4/11/2021 12:15:00 PM 13.55 56.39 0.073 7.34 4.4 10.62
4/11/2021 12:30:00 PM 13.59 56.462 0.073 7.37 4.31 10.62
4/11/2021 12:45:00 PM 13.72 56.696 0.073 7.39 4.4 10.62
4/11/2021 1:00:00 PM 13.95 57.11 0.073 7.42 4.36 10.62
4/11/2021 1:15:00 PM 14.11 57.398 0.073 7.45 4.17 10.6
4/11/2021 1:30:00 PM 14.18 57.524 0.073 7.46 4.25 10.57
4/11/2021 1:45:00 PM 14.19 57.542 0.073 7.44 4.36 10.52
4/11/2021 2:00:00 PM 14.19 57.542 0.074 7.39 4.36 10.41
4/11/2021 2:15:00 PM 14.15 57.47 0.074 7.31 4.51 10.29
4/11/2021 2:30:00 PM 14.16 57.488 0.075 7.28 4.91 10.31
4/11/2021 2:45:00 PM 14.12 57.416 0.075 7.28 4.6 10.28
4/11/2021 3:00:00 PM 14.03 57.254 0.076 7.22 4.48 10.16
4/11/2021 3:15:00 PM 13.99 57.182 0.076 7.2 5.19 10.15
4/11/2021 3:30:00 PM 13.93 57.074 0.076 7.18 5.17 10.13
4/11/2021 3:45:00 PM 13.89 57.002 0.077 7.17 5.28 10.15
4/11/2021 4:00:00 PM 13.89 57.002 0.077 7.19 5.36 10.2
4/11/2021 4:15:00 PM 14 57.2 0.077 7.22 5.48 10.26
4/11/2021 4:30:00 PM 14.05 57.29 0.076 7.24 5.4 10.29
4/11/2021 4:45:00 PM 14.03 57.254 0.076 7.25 5.49 10.27
4/11/2021 5:00:00 PM 14.02 57.236 0.076 7.25 5.23 10.26
4/11/2021 5:15:00 PM 14.03 57.254 0.076 7.24 5.07 10.25
4/11/2021 5:30:00 PM 14.1 57.38 0.076 7.25 5.02 10.26
4/11/2021 5:45:00 PM 14.14 57.452 0.076 7.27 4.72 10.26
4/11/2021 6:00:00 PM 14.18 57.524 0.076 7.26 4.7 10.26
4/11/2021 6:15:00 PM 14.2 57.56 0.076 7.26 4.61 10.24
4/11/2021 6:30:00 PM 14.2 57.56 0.076 7.25 4.55 10.22
4/11/2021 6:45:00 PM 14.15 57.47 0.076 7.22 4.66 10.15
4/11/2021 7:00:00 PM 14.12 57.416 0.076 7.19 4.52 10.07
4/11/2021 7:15:00 PM 14.07 57.326 0.076 7.13 4.43 9.98
4/11/2021 7:30:00 PM 14.01 57.218 0.076 7.09 4.35 9.88
4/11/2021 7:45:00 PM 13.95 57.11 0.076 7.03 4.28 9.81
4/11/2021 8:00:00 PM 13.9 57.02 0.077 7 4.52 9.74
4/11/2021 8:15:00 PM 13.86 56.948 0.077 6.98 4.58 9.68
4/11/2021 8:30:00 PM 13.82 56.876 0.077 6.95 4.48 9.64
4/11/2021 8:45:00 PM 13.77 56.786 0.077 6.94 4.5 9.61
4/11/2021 9:00:00 PM 13.73 56.714 0.078 6.93 4.58 9.59
4/11/2021 9:15:00 PM 13.68 56.624 0.078 6.91 4.49 9.58
4/11/2021 9:30:00 PM 13.63 56.534 0.078 6.9 4.61 9.56
4/11/2021 9:45:00 PM 13.58 56.444 0.079 6.89 4.43 9.56
4/11/2021 10:00:00 PM 13.53 56.354 0.079 6.89 4.32 9.56
4/11/2021 10:15:00 PM 13.48 56.264 0.08 6.88 4.58 9.57
4/11/2021 10:30:00 PM 13.42 56.156 0.08 6.88 4.46 9.57
4/11/2021 10:45:00 PM 13.37 56.066 0.08 6.88 4.37 9.58
4/11/2021 11:00:00 PM 13.3 55.94 0.081 6.88 4.45 9.59
4/11/2021 11:15:00 PM 13.25 55.85 0.081 6.87 4.32 9.6
4/11/2021 11:30:00 PM 13.18 55.724 0.082 6.87 4.4 9.62
4/11/2021 11:45:00 PM 13.12 55.616 0.083 6.87 4.36 9.63
4/12/2021 12:00:00 AM 13.05 55.49 0.083 6.88 4.58 9.64
4/12/2021 12:15:00 AM 12.99 55.382 0.084 6.87 4.57 9.65
4/12/2021 12:30:00 AM 12.93 55.274 0.084 6.88 4.47 9.66
4/12/2021 12:45:00 AM 12.88 55.184 0.085 6.88 4.44 9.67
4/12/2021 1:00:00 AM 12.84 55.112 0.086 6.88 4.52 9.68
4/12/2021 1:15:00 AM 12.79 55.022 0.086 6.89 4.55 9.7
4/12/2021 1:30:00 AM 12.74 54.932 0.087 6.89 4.6 9.71
4/12/2021 1:45:00 AM 12.69 54.842 0.087 6.89 4.56 9.72
4/12/2021 2:00:00 AM 12.65 54.77 0.088 6.89 4.59 9.72
4/12/2021 2:15:00 AM 12.61 54.698 0.088 6.9 4.58 9.73
4/12/2021 2:30:00 AM 12.57 54.626 0.089 6.9 4.52 9.75
4/12/2021 2:45:00 AM 12.54 54.572 0.089 6.9 4.45 9.74
4/12/2021 3:00:00 AM 12.49 54.482 0.09 6.91 4.55 9.76
4/12/2021 3:15:00 AM 12.45 54.41 0.09 6.91 4.61 9.77
4/12/2021 3:30:00 AM 12.4 54.32 0.091 6.91 4.47 9.78
4/12/2021 3:45:00 AM 12.36 54.248 0.091 6.9 4.41 9.8
4/12/2021 4:00:00 AM 12.32 54.176 0.091 6.91 4.37 9.8
4/12/2021 4:15:00 AM 12.27 54.086 0.091 6.91 4.41 9.81
4/12/2021 4:30:00 AM 12.23 54.014 0.091 6.91 4.45 9.83
4/12/2021 4:45:00 AM 12.17 53.906 0.091 6.91 4.39 9.84
4/12/2021 5:00:00 AM 12.11 53.798 0.091 6.91 4.3 9.85
4/12/2021 5:15:00 AM 12.06 53.708 0.091 6.9 4.19 9.87
4/12/2021 5:30:00 AM 12.01 53.618 0.091 6.9 4.19 9.88
4/12/2021 5:45:00 AM 11.96 53.528 0.091 6.9 4.24 9.89
4/12/2021 6:00:00 AM 11.91 53.438 0.091 6.91 4.27 9.91
4/12/2021 6:15:00 AM 11.85 53.33 0.091 6.9 4.16 9.92
4/12/2021 6:30:00 AM 11.8 53.24 0.09 6.9 4.23 9.94
4/12/2021 6:45:00 AM 11.76 53.168 0.09 6.91 4.05 9.96
4/12/2021 7:00:00 AM 11.71 53.078 0.09 6.91 3.96 9.99
4/12/2021 7:15:00 AM 11.66 52.988 0.09 6.91 3.98 10.01
4/12/2021 7:30:00 AM 11.61 52.898 0.089 6.92 3.82 10.06
4/12/2021 7:45:00 AM 11.57 52.826 0.089 6.93 3.77 10.11
4/12/2021 8:00:00 AM 11.55 52.79 0.089 6.94 3.72 10.16
4/12/2021 8:15:00 AM 11.52 52.736 0.089 6.96 3.58 10.22
4/12/2021 8:30:00 AM 11.5 52.7 0.088 6.98 3.6 10.29
4/12/2021 8:45:00 AM 11.48 52.664 0.088 7 3.45 10.36
4/12/2021 9:00:00 AM 11.46 52.628 0.088 7.01 3.43 10.41
4/12/2021 9:15:00 AM 11.44 52.592 0.088 7.03 3.42 10.47
4/12/2021 9:30:00 AM 11.44 52.592 0.087 7.05 3.28 10.54
4/12/2021 9:45:00 AM 11.43 52.574 0.087 7.07 3.2 10.59
4/12/2021 10:00:00 AM 11.42 52.556 0.087 7.09 3.21 10.63
4/12/2021 10:15:00 AM 11.41 52.538 0.087 7.1 3.19 10.65
4/12/2021 10:30:00 AM 11.43 52.574 0.086 7.13 3.11 10.73
4/12/2021 10:45:00 AM 11.47 52.646 0.086 7.16 3.08 10.82
4/12/2021 11:00:00 AM 11.54 52.772 0.086 7.21 3.03 10.89
4/12/2021 11:15:00 AM 11.6 52.88 0.086 7.26 2.95 10.95
4/12/2021 11:30:00 AM 11.76 53.168 0.085 7.3 2.92 10.98
4/12/2021 11:45:00 AM 11.73 53.114 0.085 7.32 2.89 10.99
4/12/2021 12:00:00 PM 11.74 53.132 0.085 7.32 2.9 11
4/12/2021 12:15:00 PM 11.79 53.222 0.085 7.35 2.74 11.01
4/12/2021 12:30:00 PM 11.87 53.366 0.084 7.37 2.81 11.01
4/12/2021 12:45:00 PM 11.93 53.474 0.084 7.4 2.84 11.02
4/12/2021 1:00:00 PM 11.93 53.474 0.084 7.4 2.75 11
4/12/2021 1:15:00 PM 11.91 53.438 0.083 7.38 2.71 10.96
4/12/2021 1:30:00 PM 11.94 53.492 0.083 7.39 2.7 10.97
4/12/2021 1:45:00 PM 11.99 53.582 0.083 7.41 2.78 10.99
4/12/2021 2:00:00 PM 12.01 53.618 0.083 7.42 2.73 10.99
4/12/2021 2:15:00 PM 12.05 53.69 0.082 7.44 2.73 11
4/12/2021 2:30:00 PM 12.07 53.726 0.082 7.45 2.67 10.99
4/12/2021 2:45:00 PM 12.08 53.744 0.082 7.44 2.7 10.98
4/12/2021 3:00:00 PM 12.1 53.78 0.082 7.44 3.1 10.96
4/12/2021 3:15:00 PM 12.1 53.78 0.082 7.44 2.7 10.95
4/12/2021 3:30:00 PM 12.09 53.762 0.082 7.42 2.73 10.92
4/12/2021 3:45:00 PM 12.09 53.762 0.082 7.41 2.58 10.91
4/12/2021 4:00:00 PM 12.12 53.816 0.082 7.42 2.57 10.93
4/12/2021 4:15:00 PM 12.23 54.014 0.081 7.45 2.62 10.95
4/12/2021 4:30:00 PM 12.33 54.194 0.081 7.48 2.71 10.96
4/12/2021 4:45:00 PM 12.38 54.284 0.081 7.49 2.52 10.94
4/12/2021 5:00:00 PM 12.32 54.176 0.081 7.48 2.55 10.93
4/12/2021 5:15:00 PM 12.27 54.086 0.081 7.46 2.62 10.9
4/12/2021 5:30:00 PM 12.26 54.068 0.081 7.44 2.57 10.89
4/12/2021 5:45:00 PM 12.33 54.194 0.081 7.46 2.5 10.89
4/12/2021 6:00:00 PM 12.35 54.23 0.081 7.44 2.53 10.85
4/12/2021 6:15:00 PM 12.3 54.14 0.081 7.36 2.51 10.71
4/12/2021 6:30:00 PM 12.28 54.104 0.081 7.29 2.54 10.6
4/12/2021 6:45:00 PM 12.24 54.032 0.081 7.24 2.47 10.54
4/12/2021 7:00:00 PM 12.2 53.96 0.081 7.21 2.51 10.54
4/12/2021 7:15:00 PM 12.15 53.87 0.081 7.2 2.45 10.51
4/12/2021 7:30:00 PM 12.1 53.78 0.081 7.16 2.46 10.45
4/12/2021 7:45:00 PM 12.03 53.654 0.081 7.13 2.47 10.39
4/12/2021 8:00:00 PM 11.96 53.528 0.081 7.08 2.45 10.33
4/12/2021 8:15:00 PM 11.9 53.42 0.081 7.05 2.43 10.28
4/12/2021 8:30:00 PM 11.84 53.312 0.081 7.02 2.61 10.24
4/12/2021 8:45:00 PM 11.78 53.204 0.081 7 2.62 10.21
4/12/2021 9:00:00 PM 11.72 53.096 0.081 6.98 2.56 10.2
4/12/2021 9:15:00 PM 11.67 53.006 0.081 6.97 2.59 10.19
4/12/2021 9:30:00 PM 11.62 52.916 0.081 6.96 2.6 10.18
4/12/2021 9:45:00 PM 11.57 52.826 0.081 6.96 2.62 10.17
4/12/2021 10:00:00 PM 11.52 52.736 0.081 6.95 2.51 10.18
4/12/2021 10:15:00 PM 11.47 52.646 0.081 6.94 2.54 10.18
4/12/2021 10:30:00 PM 11.43 52.574 0.081 6.94 2.53 10.18
4/12/2021 10:45:00 PM 11.39 52.502 0.081 6.93 2.59 10.19
4/12/2021 11:00:00 PM 11.35 52.43 0.081 6.93 2.42 10.2
4/12/2021 11:15:00 PM 11.31 52.358 0.081 6.93 2.52 10.2
4/12/2021 11:30:00 PM 11.27 52.286 0.081 6.92 2.48 10.2
4/12/2021 11:45:00 PM 11.23 52.214 0.08 6.92 2.49 10.22
4/13/2021 12:00:00 AM 11.19 52.142 0.08 6.92 2.53 10.23
4/13/2021 12:15:00 AM 11.15 52.07 0.08 6.92 2.48 10.23
4/13/2021 12:30:00 AM 11.1 51.98 0.08 6.92 2.47 10.25
4/13/2021 12:45:00 AM 11.05 51.89 0.08 6.91 2.42 10.25
4/13/2021 1:00:00 AM 11.01 51.818 0.08 6.91 2.48 10.27
4/13/2021 1:15:00 AM 10.97 51.746 0.08 6.91 2.47 10.28
4/13/2021 1:30:00 AM 10.93 51.674 0.08 6.9 2.4 10.29
4/13/2021 1:45:00 AM 10.88 51.584 0.08 6.9 2.44 10.3
4/13/2021 2:00:00 AM 10.84 51.512 0.08 6.9 2.54 10.32
4/13/2021 2:15:00 AM 10.77 51.386 0.08 6.89 2.46 10.33
4/13/2021 2:30:00 AM 10.72 51.296 0.08 6.89 2.44 10.34
4/13/2021 2:45:00 AM 10.68 51.224 0.08 6.89 2.4 10.35
4/13/2021 3:00:00 AM 10.64 51.152 0.079 6.89 2.39 10.37
4/13/2021 3:15:00 AM 10.6 51.08 0.079 6.89 2.39 10.38
4/13/2021 3:30:00 AM 10.56 51.008 0.079 6.89 2.43 10.39
4/13/2021 3:45:00 AM 10.51 50.918 0.079 6.9 2.43 10.4
4/13/2021 4:00:00 AM 10.47 50.846 0.079 6.9 2.43 10.42
4/13/2021 4:15:00 AM 10.43 50.774 0.079 6.9 2.48 10.43
4/13/2021 4:30:00 AM 10.4 50.72 0.079 6.9 2.46 10.44
4/13/2021 4:45:00 AM 10.36 50.648 0.079 6.9 2.4 10.45
4/13/2021 5:00:00 AM 10.32 50.576 0.079 6.9 2.36 10.47
4/13/2021 5:15:00 AM 10.28 50.504 0.078 6.9 2.35 10.48
4/13/2021 5:30:00 AM 10.22 50.396 0.078 6.9 2.42 10.49
4/13/2021 5:45:00 AM 10.2 50.36 0.078 6.9 2.38 10.51
4/13/2021 6:00:00 AM 10.16 50.288 0.078 6.9 2.43 10.52
4/13/2021 6:15:00 AM 10.13 50.234 0.078 6.9 2.5 10.53
4/13/2021 6:30:00 AM 10.1 50.18 0.078 6.9 2.46 10.54
4/13/2021 6:45:00 AM 10.08 50.144 0.078 6.9 2.4 10.56
4/13/2021 7:00:00 AM 10.05 50.09 0.078 6.92 2.41 10.59
4/13/2021 7:15:00 AM 10.02 50.036 0.078 6.93 2.35 10.65
4/13/2021 7:30:00 AM 9.99 49.982 0.078 6.94 2.4 10.73
4/13/2021 7:45:00 AM 9.97 49.946 0.078 6.97 2.34 10.84
4/13/2021 8:00:00 AM 9.99 49.982 0.078 7 2.38 10.95
4/13/2021 8:15:00 AM 10.02 50.036 0.077 7.05 2.3 11.06
4/13/2021 8:30:00 AM 10.04 50.072 0.077 7.08 2.31 11.11
4/13/2021 8:45:00 AM 10.04 50.072 0.077 7.09 2.3 11.15
4/13/2021 9:00:00 AM 10.06 50.108 0.077 7.12 2.18 11.21
4/13/2021 9:15:00 AM 10.1 50.18 0.077 7.15 2.22 11.27
4/13/2021 9:30:00 AM 10.16 50.288 0.077 7.18 2.21 11.33
4/13/2021 9:45:00 AM 10.25 50.45 0.076 7.22 2.22 11.37
4/13/2021 10:00:00 AM 10.39 50.702 0.076 7.25 2.15 11.4
4/13/2021 10:15:00 AM 10.47 50.846 0.076 7.28 2.2 11.42
4/13/2021 10:30:00 AM 10.54 50.972 0.076 7.3 2.17 11.44
4/13/2021 10:45:00 AM 10.63 51.134 0.076 7.32 2.21 11.44
4/13/2021 11:00:00 AM 10.7 51.26 0.076 7.34 2.12 11.44
4/13/2021 11:15:00 AM 10.78 51.404 0.075 7.36 2.18 11.44
4/13/2021 11:30:00 AM 10.89 51.602 0.075 7.38 2.13 11.44
4/13/2021 11:45:00 AM 11 51.8 0.075 7.4 2.14 11.44
4/13/2021 12:00:00 PM 11.06 51.908 0.075 7.41 2.14 11.43
4/13/2021 12:15:00 PM 11.17 52.106 0.075 7.44 2.12 11.42
4/13/2021 12:30:00 PM 11.29 52.322 0.075 7.45 2.16 11.41
4/13/2021 12:45:00 PM 11.33 52.394 0.075 7.46 2.14 11.39
4/13/2021 1:00:00 PM 11.4 52.52 0.074 7.46 2.07 11.37
4/13/2021 1:15:00 PM 11.64 52.952 0.074 7.48 2.19 11.35
4/13/2021 1:30:00 PM 11.65 52.97 0.074 7.47 2.12 11.26
4/13/2021 1:45:00 PM 11.61 52.898 0.074 7.4 2.14 11.15
4/13/2021 2:00:00 PM 11.66 52.988 0.074 7.4 2.17 11.18
4/13/2021 2:15:00 PM 11.74 53.132 0.074 7.43 2.15 11.2
4/13/2021 2:30:00 PM 11.8 53.24 0.074 7.46 2.18 11.21
4/13/2021 2:45:00 PM 11.77 53.186 0.074 7.42 2.18 11.14
4/13/2021 3:00:00 PM 11.97 53.546 0.074 7.44 2.13 11.16
4/13/2021 3:15:00 PM 12.17 53.906 0.074 7.47 2.16 11.13
4/13/2021 3:30:00 PM 12.28 54.104 0.074 7.48 2.13 11.11
4/13/2021 3:45:00 PM 12.41 54.338 0.074 7.49 2.11 11.09
4/13/2021 4:00:00 PM 12.56 54.608 0.074 7.52 2.13 11.06
4/13/2021 4:15:00 PM 12.53 54.554 0.074 7.48 2.18 10.97
4/13/2021 4:30:00 PM 12.59 54.662 0.074 7.44 2.12 10.92
4/13/2021 4:45:00 PM 12.61 54.698 0.074 7.44 2.08 10.88
4/13/2021 5:00:00 PM 12.73 54.914 0.074 7.44 2.2 10.88
4/13/2021 5:15:00 PM 12.78 55.004 0.074 7.44 2.12 10.85
4/13/2021 5:30:00 PM 12.76 54.968 0.074 7.42 2.16 10.84
4/13/2021 5:45:00 PM 12.74 54.932 0.074 7.39 2.19 10.78
4/13/2021 6:00:00 PM 12.75 54.95 0.074 7.36 2.15 10.75
4/13/2021 6:15:00 PM 12.76 54.968 0.074 7.35 2.22 10.72
4/13/2021 6:30:00 PM 12.78 55.004 0.074 7.34 2.13 10.71
4/13/2021 6:45:00 PM 12.77 54.986 0.074 7.33 2.17 10.69
4/13/2021 7:00:00 PM 12.73 54.914 0.074 7.3 2.19 10.65
4/13/2021 7:15:00 PM 12.7 54.86 0.074 7.27 2.15 10.6
4/13/2021 7:30:00 PM 12.65 54.77 0.074 7.22 2.19 10.51
4/13/2021 7:45:00 PM 12.62 54.716 0.074 7.15 2.2 10.39
4/13/2021 8:00:00 PM 12.59 54.662 0.074 7.11 2.17 10.29
4/13/2021 8:15:00 PM 12.57 54.626 0.074 7.07 2.25 10.2
4/13/2021 8:30:00 PM 12.56 54.608 0.074 7.04 2.26 10.14
4/13/2021 8:45:00 PM 12.55 54.59 0.074 7.01 2.4 10.08
4/13/2021 9:00:00 PM 12.52 54.536 0.074 7 2.35 10.05
4/13/2021 9:15:00 PM 12.47 54.446 0.074 6.97 2.31 10.02
4/13/2021 9:30:00 PM 12.41 54.338 0.074 6.96 2.31 10.02
4/13/2021 9:45:00 PM 12.34 54.212 0.074 6.95 2.34 10.02
4/13/2021 10:00:00 PM 12.26 54.068 0.075 6.93 2.27 10.01
4/13/2021 10:15:00 PM 12.18 53.924 0.074 6.92 2.29 10.02
4/13/2021 10:30:00 PM 12.1 53.78 0.075 6.92 2.33 10.03
4/13/2021 10:45:00 PM 12.03 53.654 0.075 6.91 2.19 10.04
4/13/2021 11:00:00 PM 11.95 53.51 0.075 6.9 2.24 10.05
4/13/2021 11:15:00 PM 11.88 53.384 0.075 6.89 2.19 10.06
4/13/2021 11:30:00 PM 11.81 53.258 0.075 6.89 2.18 10.08
4/13/2021 11:45:00 PM 11.73 53.114 0.075 6.88 2.28 10.09
4/14/2021 12:00:00 AM 11.66 52.988 0.075 6.88 2.24 10.1
4/14/2021 12:15:00 AM 11.59 52.862 0.075 6.88 2.25 10.12
4/14/2021 12:30:00 AM 11.51 52.718 0.075 6.88 2.25 10.13
4/14/2021 12:45:00 AM 11.44 52.592 0.075 6.87 2.2 10.15
4/14/2021 1:00:00 AM 11.37 52.466 0.075 6.87 2.21 10.17
4/14/2021 1:15:00 AM 11.3 52.34 0.075 6.87 2.22 10.19
4/14/2021 1:30:00 AM 11.22 52.196 0.075 6.87 2.26 10.21
4/14/2021 1:45:00 AM 11.16 52.088 0.075 6.88 2.22 10.23
4/14/2021 2:00:00 AM 11.1 51.98 0.075 6.87 2.2 10.25
4/14/2021 2:15:00 AM 11.03 51.854 0.075 6.87 2.21 10.26
4/14/2021 2:30:00 AM 10.96 51.728 0.075 6.87 2.26 10.29
4/14/2021 2:45:00 AM 10.89 51.602 0.075 6.87 2.29 10.31
4/14/2021 3:00:00 AM 10.83 51.494 0.075 6.87 2.25 10.32
4/14/2021 3:15:00 AM 10.76 51.368 0.075 6.87 2.22 10.35
4/14/2021 3:30:00 AM 10.68 51.224 0.074 6.87 2.32 10.37
4/14/2021 3:45:00 AM 10.6 51.08 0.074 6.87 2.21 10.39
4/14/2021 4:00:00 AM 10.51 50.918 0.074 6.87 2.18 10.4
4/14/2021 4:15:00 AM 10.43 50.774 0.074 6.87 2.19 10.43
4/14/2021 4:30:00 AM 10.36 50.648 0.074 6.87 2.27 10.45
4/14/2021 4:45:00 AM 10.29 50.522 0.074 6.87 2.18 10.47
4/14/2021 5:00:00 AM 10.2 50.36 0.074 6.87 2.16 10.49
4/14/2021 5:15:00 AM 10.12 50.216 0.074 6.86 2.14 10.52
4/14/2021 5:30:00 AM 10.04 50.072 0.074 6.86 2.17 10.54
4/14/2021 5:45:00 AM 9.96 49.928 0.074 6.87 2.15 10.56
4/14/2021 6:00:00 AM 9.88 49.784 0.074 6.86 2.16 10.58
4/14/2021 6:15:00 AM 9.8 49.64 0.074 6.86 2.22 10.61
4/14/2021 6:30:00 AM 9.73 49.514 0.074 6.86 2.23 10.63
4/14/2021 6:45:00 AM 9.65 49.37 0.074 6.87 2.15 10.67
4/14/2021 7:00:00 AM 9.58 49.244 0.074 6.88 2.15 10.73
4/14/2021 7:15:00 AM 9.52 49.136 0.074 6.9 2.2 10.84
4/14/2021 7:30:00 AM 9.48 49.064 0.073 6.92 2.14 10.93
4/14/2021 7:45:00 AM 9.45 49.01 0.073 6.96 2.1 11.02
4/14/2021 8:00:00 AM 9.41 48.938 0.073 6.98 2.09 11.11
4/14/2021 8:15:00 AM 9.42 48.956 0.073 7.02 2.11 11.21
4/14/2021 8:30:00 AM 9.41 48.938 0.073 7.04 2.17 11.29
4/14/2021 8:45:00 AM 9.42 48.956 0.073 7.08 2.13 11.34
4/14/2021 9:00:00 AM 9.43 48.974 0.072 7.1 2.09 11.39
4/14/2021 9:15:00 AM 9.48 49.064 0.072 7.12 2.04 11.44
4/14/2021 9:30:00 AM 9.49 49.082 0.072 7.15 1.99 11.48
4/14/2021 9:45:00 AM 9.55 49.19 0.072 7.19 2.02 11.53
4/14/2021 10:00:00 AM 9.64 49.352 0.072 7.22 1.96 11.56
4/14/2021 10:15:00 AM 9.76 49.568 0.072 7.25 1.97 11.58
4/14/2021 10:30:00 AM 9.86 49.748 0.072 7.28 1.97 11.61
4/14/2021 10:45:00 AM 9.95 49.91 0.071 7.3 1.98 11.61
4/14/2021 11:00:00 AM 10.08 50.144 0.071 7.33 1.92 11.62
4/14/2021 11:15:00 AM 10.24 50.432 0.071 7.35 1.92 11.61
4/14/2021 11:30:00 AM 10.36 50.648 0.071 7.37 1.94 11.59
4/14/2021 11:45:00 AM 10.46 50.828 0.071 7.38 1.91 11.56
4/14/2021 12:00:00 PM 10.53 50.954 0.071 7.39 1.97 11.54
4/14/2021 12:15:00 PM 10.65 51.17 0.071 7.4 1.92 11.51
4/14/2021 12:30:00 PM 11.05 51.89 0.07 7.44 1.91 11.48
4/14/2021 12:45:00 PM 11.26 52.268 0.07 7.45 1.9 11.42
4/14/2021 1:00:00 PM 11.46 52.628 0.07 7.45 1.94 11.38
4/14/2021 1:15:00 PM 11.72 53.096 0.07 7.45 1.93 11.33
4/14/2021 1:30:00 PM 12 53.6 0.07 7.48 1.89 11.27
4/14/2021 1:45:00 PM 12.1 53.78 0.07 7.47 1.91 11.18
4/14/2021 2:00:00 PM 12.15 53.87 0.07 7.46 1.95 11.15
4/14/2021 2:15:00 PM 12.23 54.014 0.07 7.47 1.94 11.12
4/14/2021 2:30:00 PM 12.41 54.338 0.07 7.48 2.03 11.11
4/14/2021 2:45:00 PM 12.57 54.626 0.07 7.51 1.92 11.07
4/14/2021 3:00:00 PM 12.59 54.662 0.07 7.49 1.91 11.04
4/14/2021 3:15:00 PM 12.82 55.076 0.07 7.51 1.93 11.01
4/14/2021 3:30:00 PM 12.81 55.058 0.069 7.5 1.95 10.94
4/14/2021 3:45:00 PM 12.92 55.256 0.069 7.49 1.96 10.9
4/14/2021 4:00:00 PM 13.01 55.418 0.069 7.5 2 10.87
4/14/2021 4:15:00 PM 13.12 55.616 0.069 7.51 1.96 10.83
4/14/2021 4:30:00 PM 13.06 55.508 0.069 7.48 2.01 10.79
4/14/2021 4:45:00 PM 13.21 55.778 0.069 7.49 1.96 10.78
4/14/2021 5:00:00 PM 13.2 55.76 0.069 7.48 2.04 10.74
4/14/2021 5:15:00 PM 13.32 55.976 0.069 7.48 1.99 10.72
4/14/2021 5:30:00 PM 13.27 55.886 0.069 7.48 2.03 10.69
4/14/2021 5:45:00 PM 13.33 55.994 0.069 7.47 1.98 10.68
4/14/2021 6:00:00 PM 13.31 55.958 0.069 7.46 2.01 10.65
4/14/2021 6:15:00 PM 13.29 55.922 0.069 7.44 1.95 10.62
4/14/2021 6:30:00 PM 13.23 55.814 0.069 7.38 1.96 10.55
4/14/2021 6:45:00 PM 13.23 55.814 0.069 7.36 2.01 10.52
4/14/2021 7:00:00 PM 13.18 55.724 0.069 7.32 2.03 10.47
4/14/2021 7:15:00 PM 13.11 55.598 0.07 7.27 1.98 10.39
4/14/2021 7:30:00 PM 13.01 55.418 0.07 7.22 2.04 10.3
4/14/2021 7:45:00 PM 12.93 55.274 0.07 7.16 2.08 10.22
4/14/2021 8:00:00 PM 12.82 55.076 0.07 7.11 2.09 10.15
4/14/2021 8:15:00 PM 12.71 54.878 0.07 7.06 2.09 10.08
4/14/2021 8:30:00 PM 12.6 54.68 0.07 7.01 2.19 10.04
4/14/2021 8:45:00 PM 12.49 54.482 0.07 6.98 2.21 10.02
4/14/2021 9:00:00 PM 12.38 54.284 0.071 6.95 2.22 10
4/14/2021 9:15:00 PM 12.29 54.122 0.071 6.94 2.24 9.99
4/14/2021 9:30:00 PM 12.19 53.942 0.071 6.93 2.19 9.99
4/14/2021 9:45:00 PM 12.09 53.762 0.071 6.92 2.14 9.99
4/14/2021 10:00:00 PM 12 53.6 0.071 6.91 2.11 10
4/14/2021 10:15:00 PM 11.91 53.438 0.071 6.9 2.2 10.01
4/14/2021 10:30:00 PM 11.84 53.312 0.071 6.9 2.16 10.02
4/14/2021 10:45:00 PM 11.79 53.222 0.071 6.9 2.32 10.02
4/14/2021 11:00:00 PM 11.74 53.132 0.071 6.9 2.25 10.03
4/14/2021 11:15:00 PM 11.69 53.042 0.071 6.9 2.14 10.04
4/14/2021 11:30:00 PM 11.65 52.97 0.071 6.91 2.21 10.05
4/14/2021 11:45:00 PM 11.61 52.898 0.071 6.91 2.14 10.06
4/15/2021 12:00:00 AM 11.56 52.808 0.071 6.9 2.16 10.07
4/15/2021 12:15:00 AM 11.51 52.718 0.071 6.9 2.22 10.08
4/15/2021 12:30:00 AM 11.47 52.646 0.071 6.91 2.18 10.09
4/15/2021 12:45:00 AM 11.42 52.556 0.071 6.9 2.1 10.1
4/15/2021 1:00:00 AM 11.36 52.448 0.071 6.9 2.12 10.11
4/15/2021 1:15:00 AM 11.3 52.34 0.071 6.91 2.1 10.13
4/15/2021 1:30:00 AM 11.25 52.25 0.071 6.9 2.14 10.14
4/15/2021 1:45:00 AM 11.19 52.142 0.071 6.9 2.09 10.15
4/15/2021 2:00:00 AM 11.12 52.016 0.071 6.9 2.09 10.17
4/15/2021 2:15:00 AM 11.05 51.89 0.071 6.9 2.13 10.19
4/15/2021 2:30:00 AM 10.97 51.746 0.071 6.89 2.21 10.2
4/15/2021 2:45:00 AM 10.9 51.62 0.071 6.89 2.12 10.22
4/15/2021 3:00:00 AM 10.83 51.494 0.071 6.89 2.09 10.24
4/15/2021 3:15:00 AM 10.76 51.368 0.071 6.89 2.09 10.25
4/15/2021 3:30:00 AM 10.69 51.242 0.071 6.89 2.06 10.27
4/15/2021 3:45:00 AM 10.62 51.116 0.071 6.89 2.16 10.29
4/15/2021 4:00:00 AM 10.55 50.99 0.071 6.88 2.14 10.31
4/15/2021 4:15:00 AM 10.48 50.864 0.071 6.89 2.17 10.33
4/15/2021 4:30:00 AM 10.42 50.756 0.071 6.89 2.28 10.34
4/15/2021 4:45:00 AM 10.35 50.63 0.071 6.88 2.08 10.36
4/15/2021 5:00:00 AM 10.28 50.504 0.071 6.88 2.1 10.38
4/15/2021 5:15:00 AM 10.22 50.396 0.071 6.88 2.07 10.4
4/15/2021 5:30:00 AM 10.17 50.306 0.071 6.89 2.11 10.41
4/15/2021 5:45:00 AM 10.11 50.198 0.071 6.89 2.04 10.42
4/15/2021 6:00:00 AM 10.06 50.108 0.071 6.89 2.07 10.44
4/15/2021 6:15:00 AM 10 50 0.071 6.89 2.11 10.45
4/15/2021 6:30:00 AM 9.95 49.91 0.071 6.88 2.11 10.47
4/15/2021 6:45:00 AM 9.9 49.82 0.071 6.89 2.17 10.48
4/15/2021 7:00:00 AM 9.85 49.73 0.071 6.88 2.13 10.51
4/15/2021 7:15:00 AM 9.8 49.64 0.071 6.89 2.07 10.55
4/15/2021 7:30:00 AM 9.76 49.568 0.071 6.9 2.06 10.59
4/15/2021 7:45:00 AM 9.71 49.478 0.071 6.91 2.09 10.64
4/15/2021 8:00:00 AM 9.67 49.406 0.071 6.93 2.01 10.71
4/15/2021 8:15:00 AM 9.63 49.334 0.071 6.95 1.95 10.76
4/15/2021 8:30:00 AM 9.58 49.244 0.07 6.96 2 10.81
4/15/2021 8:45:00 AM 9.55 49.19 0.07 6.99 2 10.91
4/15/2021 9:00:00 AM 9.51 49.118 0.07 7.01 2.27 11
4/15/2021 9:15:00 AM 9.49 49.082 0.07 7.05 2.06 11.11
4/15/2021 9:30:00 AM 9.47 49.046 0.07 7.08 2.05 11.18
4/15/2021 9:45:00 AM 9.45 49.01 0.07 7.11 1.97 11.25
4/15/2021 10:00:00 AM 9.53 49.154 0.069 7.16 1.95 11.35
4/15/2021 10:15:00 AM 9.55 49.19 0.069 7.19 1.93 11.4
4/15/2021 10:30:00 AM 9.6 49.28 0.069 7.22 2.12 11.46
4/15/2021 10:45:00 AM 9.65 49.37 0.069 7.08 34.61 11.49
4/15/2021 11:00:00 AM 9.72 49.496 0.07 7.33 1.56 11.99
4/15/2021 11:15:00 AM 9.8 49.64 0.07 7.33 1.63 12.02
4/15/2021 11:30:00 AM 9.76 49.568 0.07 7.32 1.61 11.96
4/15/2021 11:45:00 AM 9.71 49.478 0.07 7.28 1.64 11.87
4/15/2021 12:00:00 PM 9.69 49.442 0.07 7.27 6.31 11.84
4/15/2021 12:15:00 PM 9.7 49.46 0.069 7.28 10.08 11.9
4/15/2021 12:30:00 PM 9.74 49.532 0.069 7.3 9.1 11.93
4/15/2021 12:45:00 PM 9.72 49.496 0.069 7.31 9.71 11.96
4/15/2021 1:00:00 PM 9.66 49.388 0.069 7.32 10.11 11.98
4/15/2021 1:15:00 PM 9.61 49.298 0.069 7.33 9.25 11.99
4/15/2021 1:30:00 PM 9.59 49.262 0.069 7.34 12.32 12
4/15/2021 1:45:00 PM 9.56 49.208 0.069 7.35 12.78 12.01
4/15/2021 2:00:00 PM 9.52 49.136 0.069 7.34 12.75 11.99
4/15/2021 2:15:00 PM 9.49 49.082 0.069 7.35 8.99 12.02
4/15/2021 2:30:00 PM 9.48 49.064 0.069 7.36 12.51 12.03
4/15/2021 2:45:00 PM 9.45 49.01 0.068 7.36 9.06 12.03
4/15/2021 3:00:00 PM 9.44 48.992 0.068 7.37 15.22 12.06
4/15/2021 3:15:00 PM 9.48 49.064 0.068 7.39 36.08 12.09
4/15/2021 3:30:00 PM 9.5 49.1 0.068 7.4 11.79 12.1
4/15/2021 3:45:00 PM 9.49 49.082 0.068 7.41 34.27 12.11
4/15/2021 4:00:00 PM 9.56 49.208 0.068 7.43 28.56 12.13
4/15/2021 4:15:00 PM 9.6 49.28 0.068 7.43 15.72 12.13
4/15/2021 4:30:00 PM 9.67 49.406 0.068 7.44 37.52 12.13
4/15/2021 4:45:00 PM 9.71 49.478 0.068 7.45 4.47 12.12
4/15/2021 5:00:00 PM 9.72 49.496 0.068 7.44 56.95 12.1
4/15/2021 5:15:00 PM 9.76 49.568 0.068 7.44 21.04 12.09
4/15/2021 5:30:00 PM 9.76 49.568 0.068 7.43 12.63 12.06
4/15/2021 5:45:00 PM 9.79 49.622 0.068 7.42 28.24 12.03
4/15/2021 6:00:00 PM 9.85 49.73 0.068 7.43 7.83 12.03
4/15/2021 6:15:00 PM 9.8 49.64 0.068 7.41 26.08 11.99
4/15/2021 6:30:00 PM 9.77 49.586 0.068 7.39 17.32 11.97
4/15/2021 6:45:00 PM 9.71 49.478 0.068 7.37 16.65 11.94
4/15/2021 7:00:00 PM 9.61 49.298 0.068 7.34 9.52 11.88
4/15/2021 7:15:00 PM 9.49 49.082 0.068 7.29 6.09 11.82
4/15/2021 7:30:00 PM 9.37 48.866 0.068 7.24 19.36 11.75
4/15/2021 7:45:00 PM 9.27 48.686 0.068 7.19 12.49 11.69
4/15/2021 8:00:00 PM 9.18 48.524 0.068 7.15 8.95 11.61
4/15/2021 8:15:00 PM 9.09 48.362 0.068 7.11 11.06 11.55
4/15/2021 8:30:00 PM 9.02 48.236 0.068 7.08 82.5 11.5
4/15/2021 8:45:00 PM 8.95 48.11 0.068 7.06 12.3 11.48
4/15/2021 9:00:00 PM 8.87 47.966 0.069 7.03 116.82 11.46
4/15/2021 9:15:00 PM 8.8 47.84 0.069 7.02 20.32 11.45
4/15/2021 9:30:00 PM 8.74 47.732 0.069 7 38.97 11.43
4/15/2021 9:45:00 PM 8.67 47.606 0.069 6.99 9.44 11.43
4/15/2021 10:00:00 PM 8.61 47.498 0.069 6.98 4.98 11.43
4/15/2021 10:15:00 PM 8.56 47.408 0.069 6.98 3.03 11.43
4/15/2021 10:30:00 PM 8.51 47.318 0.069 6.97 38.6 11.43
4/15/2021 10:45:00 PM 8.47 47.246 0.069 6.96 101.83 11.44
4/15/2021 11:00:00 PM 8.42 47.156 0.069 6.96 11.96 11.44
4/15/2021 11:15:00 PM 8.37 47.066 0.069 6.96 64.73 11.45
4/15/2021 11:30:00 PM 8.32 46.976 0.069 6.95 16.1 11.45
4/15/2021 11:45:00 PM 8.28 46.904 0.069 6.95 33.99 11.46
4/16/2021 12:00:00 AM 8.23 46.814 0.069 6.95 2.98 11.47
4/16/2021 12:15:00 AM 8.19 46.742 0.069 6.94 52.08 11.48
4/16/2021 12:30:00 AM 8.15 46.67 0.069 6.94 101.23 11.49
4/16/2021 12:45:00 AM 8.11 46.598 0.069 6.94 101.21 11.5
4/16/2021 1:00:00 AM 8.08 46.544 0.069 6.94 52.97 11.52
4/16/2021 1:15:00 AM 8.03 46.454 0.069 6.94 9.83 11.52
4/16/2021 1:30:00 AM 7.99 46.382 0.069 6.93 6.53 11.54
4/16/2021 1:45:00 AM 7.95 46.31 0.069 6.93 5.73 11.54
4/16/2021 2:00:00 AM 7.9 46.22 0.069 6.93 6.55 11.56
4/16/2021 2:15:00 AM 7.85 46.13 0.069 6.93 110.07 11.57
4/16/2021 2:30:00 AM 7.79 46.022 0.069 6.93 114.93 11.59
4/16/2021 2:45:00 AM 7.74 45.932 0.069 6.93 100.06 11.6
4/16/2021 3:00:00 AM 7.69 45.842 0.069 6.93 8.01 11.61
4/16/2021 3:15:00 AM 7.62 45.716 0.069 6.93 67.9 11.63
4/16/2021 3:30:00 AM 7.57 45.626 0.069 6.93 44.95 11.65
4/16/2021 3:45:00 AM 7.52 45.536 0.069 6.92 14.6 11.66
4/16/2021 4:00:00 AM 7.48 45.464 0.069 6.92 95.05 11.68
4/16/2021 4:15:00 AM 7.44 45.392 0.069 6.92 22.64 11.69
4/16/2021 4:30:00 AM 7.41 45.338 0.069 6.92 16.76 11.7
4/16/2021 4:45:00 AM 7.37 45.266 0.069 6.92 3.14 11.72
4/16/2021 5:00:00 AM 7.34 45.212 0.069 6.92 15 11.73
4/16/2021 5:15:00 AM 7.31 45.158 0.069 6.92 72.54 11.74
4/16/2021 5:30:00 AM 7.28 45.104 0.069 6.93 6.63 11.75
4/16/2021 5:45:00 AM 7.25 45.05 0.069 6.93 11.71 11.76
4/16/2021 6:00:00 AM 7.23 45.014 0.069 6.93 113.55 11.77
4/16/2021 6:15:00 AM 7.2 44.96 0.069 6.93 81.89 11.77
4/16/2021 6:30:00 AM 7.17 44.906 0.069 6.93 11.11 11.78
4/16/2021 6:45:00 AM 7.15 44.87 0.069 6.93 72.36 11.81
4/16/2021 7:00:00 AM 7.13 44.834 0.069 6.94 6.71 11.84
4/16/2021 7:15:00 AM 7.11 44.798 0.069 6.94 276.26 11.88
4/16/2021 7:30:00 AM 7.1 44.78 0.069 6.96 19.63 11.95
4/16/2021 7:45:00 AM 7.09 44.762 0.069 6.97 59.12 11.99
4/16/2021 8:00:00 AM 7.08 44.744 0.069 6.98 7.11 12.04
4/16/2021 8:15:00 AM 7.07 44.726 0.069 7 3.13 12.08
4/16/2021 8:30:00 AM 7.07 44.726 0.069 7.01 197.47 12.14
4/16/2021 8:45:00 AM 7.07 44.726 0.069 7.03 115.33 12.2
4/16/2021 9:00:00 AM 7.08 44.744 0.069 7.05 35.56 12.29
4/16/2021 9:15:00 AM 7.09 44.762 0.069 7.07 4.96 12.33
4/16/2021 9:30:00 AM 7.14 44.852 0.068 7.1 108.76 12.41
4/16/2021 9:45:00 AM 7.21 44.978 0.068 7.13 116.89 12.47
4/16/2021 10:00:00 AM 7.28 45.104 0.068 7.15 10.58 12.52
4/16/2021 10:15:00 AM 7.35 45.23 0.068 7.18 7 12.55
4/16/2021 10:30:00 AM 7.43 45.374 0.068 7.2 8.9 12.58